<?xml version="1.0" encoding="UTF-8" standalone="no" ?>
<gpx xmlns="http://www.topografix.com/GPX/1/1" xmlns:xsi="http://www.w3.org/2001/XMLSchema-instance" xsi:schemaLocation="http://www.topografix.com/GPX/1/1 http://www.topografix.com/GPX/1/1/gpx.xsd" version="1.1" creator="VisuGPX - https://www.visugpx.com">
  <metadata>
    <name>2021-10-23 depuis le col du Page vers le Drumont</name>
  </metadata>
  <trk>
    <name><![CDATA[2021-10-23 depuis le col du Page vers le Drumont]]></name>
    <extensions>
      <line xmlns="http://www.topografix.com/GPX/gpx_style/0/2">
        <color>0000FF</color>
        <opacity>0.59</opacity>
        <width>6.0</width>
      </line>
    </extensions>
    <trkseg>
      <trkpt lat="47.91601" lon="6.89087">
        <ele>957.3</ele>
        <time>2021-10-23T08:12:16.000Z</time>
      </trkpt>
      <trkpt lat="47.91589" lon="6.89095">
        <ele>957.4</ele>
        <time>2021-10-23T08:12:26.000Z</time>
      </trkpt>
      <trkpt lat="47.91582" lon="6.89106">
        <ele>957.1</ele>
        <time>2021-10-23T08:12:43.000Z</time>
      </trkpt>
      <trkpt lat="47.91573" lon="6.8911">
        <ele>956.7</ele>
        <time>2021-10-23T08:12:53.000Z</time>
      </trkpt>
      <trkpt lat="47.91567" lon="6.89121">
        <ele>956.5</ele>
        <time>2021-10-23T08:13:00.000Z</time>
      </trkpt>
      <trkpt lat="47.91563" lon="6.89133">
        <ele>955.7</ele>
        <time>2021-10-23T08:13:09.000Z</time>
      </trkpt>
      <trkpt lat="47.91559" lon="6.89146">
        <ele>953.8</ele>
        <time>2021-10-23T08:13:25.000Z</time>
      </trkpt>
      <trkpt lat="47.91557" lon="6.8916">
        <ele>951.4</ele>
        <time>2021-10-23T08:13:34.000Z</time>
      </trkpt>
      <trkpt lat="47.91555" lon="6.89174">
        <ele>949.5</ele>
        <time>2021-10-23T08:13:40.000Z</time>
      </trkpt>
      <trkpt lat="47.91553" lon="6.89189">
        <ele>948.3</ele>
        <time>2021-10-23T08:13:48.000Z</time>
      </trkpt>
      <trkpt lat="47.91548" lon="6.89202">
        <ele>947.2</ele>
        <time>2021-10-23T08:13:56.000Z</time>
      </trkpt>
      <trkpt lat="47.91543" lon="6.89214">
        <ele>946</ele>
        <time>2021-10-23T08:14:02.000Z</time>
      </trkpt>
      <trkpt lat="47.91537" lon="6.89225">
        <ele>944.7</ele>
        <time>2021-10-23T08:14:11.000Z</time>
      </trkpt>
      <trkpt lat="47.91533" lon="6.89239">
        <ele>943.7</ele>
        <time>2021-10-23T08:14:18.000Z</time>
      </trkpt>
      <trkpt lat="47.9153" lon="6.89253">
        <ele>942.5</ele>
        <time>2021-10-23T08:14:25.000Z</time>
      </trkpt>
      <trkpt lat="47.91531" lon="6.89267">
        <ele>941.7</ele>
        <time>2021-10-23T08:14:33.000Z</time>
      </trkpt>
      <trkpt lat="47.91534" lon="6.8928">
        <ele>941.4</ele>
        <time>2021-10-23T08:14:42.000Z</time>
      </trkpt>
      <trkpt lat="47.91535" lon="6.89295">
        <ele>940.3</ele>
        <time>2021-10-23T08:14:51.000Z</time>
      </trkpt>
      <trkpt lat="47.91537" lon="6.8931">
        <ele>939.6</ele>
        <time>2021-10-23T08:14:59.000Z</time>
      </trkpt>
      <trkpt lat="47.91538" lon="6.89323">
        <ele>939.3</ele>
        <time>2021-10-23T08:15:09.000Z</time>
      </trkpt>
      <trkpt lat="47.91535" lon="6.89336">
        <ele>937.5</ele>
        <time>2021-10-23T08:15:28.000Z</time>
      </trkpt>
      <trkpt lat="47.91526" lon="6.89343">
        <ele>934.7</ele>
        <time>2021-10-23T08:15:36.000Z</time>
      </trkpt>
      <trkpt lat="47.91522" lon="6.8933">
        <ele>932.8</ele>
        <time>2021-10-23T08:15:44.000Z</time>
      </trkpt>
      <trkpt lat="47.91521" lon="6.89316">
        <ele>933</ele>
        <time>2021-10-23T08:15:51.000Z</time>
      </trkpt>
      <trkpt lat="47.91516" lon="6.89303">
        <ele>931.5</ele>
        <time>2021-10-23T08:15:59.000Z</time>
      </trkpt>
      <trkpt lat="47.9151" lon="6.89293">
        <ele>929.8</ele>
        <time>2021-10-23T08:16:09.000Z</time>
      </trkpt>
      <trkpt lat="47.91506" lon="6.8928">
        <ele>929.4</ele>
        <time>2021-10-23T08:16:19.000Z</time>
      </trkpt>
      <trkpt lat="47.91501" lon="6.89268">
        <ele>928.1</ele>
        <time>2021-10-23T08:16:28.000Z</time>
      </trkpt>
      <trkpt lat="47.91495" lon="6.89257">
        <ele>926.5</ele>
        <time>2021-10-23T08:16:35.000Z</time>
      </trkpt>
      <trkpt lat="47.91488" lon="6.89247">
        <ele>924</ele>
        <time>2021-10-23T08:16:44.000Z</time>
      </trkpt>
      <trkpt lat="47.91479" lon="6.89239">
        <ele>921.6</ele>
        <time>2021-10-23T08:16:55.000Z</time>
      </trkpt>
      <trkpt lat="47.91474" lon="6.89228">
        <ele>921</ele>
        <time>2021-10-23T08:17:04.000Z</time>
      </trkpt>
      <trkpt lat="47.91469" lon="6.89216">
        <ele>920.5</ele>
        <time>2021-10-23T08:17:14.000Z</time>
      </trkpt>
      <trkpt lat="47.91462" lon="6.89206">
        <ele>919.3</ele>
        <time>2021-10-23T08:17:21.000Z</time>
      </trkpt>
      <trkpt lat="47.91455" lon="6.89197">
        <ele>918.8</ele>
        <time>2021-10-23T08:17:26.000Z</time>
      </trkpt>
      <trkpt lat="47.91447" lon="6.89188">
        <ele>917.7</ele>
        <time>2021-10-23T08:17:32.000Z</time>
      </trkpt>
      <trkpt lat="47.91437" lon="6.89185">
        <ele>914.7</ele>
        <time>2021-10-23T08:17:41.000Z</time>
      </trkpt>
      <trkpt lat="47.9143" lon="6.89177">
        <ele>913.4</ele>
        <time>2021-10-23T08:17:50.000Z</time>
      </trkpt>
      <trkpt lat="47.91422" lon="6.89168">
        <ele>912.3</ele>
        <time>2021-10-23T08:17:59.000Z</time>
      </trkpt>
      <trkpt lat="47.91413" lon="6.89166">
        <ele>910</ele>
        <time>2021-10-23T08:18:15.000Z</time>
      </trkpt>
      <trkpt lat="47.91406" lon="6.89156">
        <ele>910.3</ele>
        <time>2021-10-23T08:18:25.000Z</time>
      </trkpt>
      <trkpt lat="47.91398" lon="6.8915">
        <ele>908.3</ele>
        <time>2021-10-23T08:18:35.000Z</time>
      </trkpt>
      <trkpt lat="47.91389" lon="6.89141">
        <ele>905.7</ele>
        <time>2021-10-23T08:18:42.000Z</time>
      </trkpt>
      <trkpt lat="47.9138" lon="6.89138">
        <ele>904.7</ele>
        <time>2021-10-23T08:18:52.000Z</time>
      </trkpt>
      <trkpt lat="47.91371" lon="6.89141">
        <ele>902.3</ele>
        <time>2021-10-23T08:18:59.000Z</time>
      </trkpt>
      <trkpt lat="47.91361" lon="6.89148">
        <ele>899.1</ele>
        <time>2021-10-23T08:19:07.000Z</time>
      </trkpt>
      <trkpt lat="47.91353" lon="6.89154">
        <ele>898.4</ele>
        <time>2021-10-23T08:19:14.000Z</time>
      </trkpt>
      <trkpt lat="47.91344" lon="6.89161">
        <ele>898</ele>
        <time>2021-10-23T08:19:22.000Z</time>
      </trkpt>
      <trkpt lat="47.91337" lon="6.89173">
        <ele>896.4</ele>
        <time>2021-10-23T08:19:31.000Z</time>
      </trkpt>
      <trkpt lat="47.9133" lon="6.8918">
        <ele>894.8</ele>
        <time>2021-10-23T08:19:39.000Z</time>
      </trkpt>
      <trkpt lat="47.91324" lon="6.89192">
        <ele>891.9</ele>
        <time>2021-10-23T08:19:46.000Z</time>
      </trkpt>
      <trkpt lat="47.91315" lon="6.89196">
        <ele>890.3</ele>
        <time>2021-10-23T08:19:57.000Z</time>
      </trkpt>
      <trkpt lat="47.91305" lon="6.89197">
        <ele>889.3</ele>
        <time>2021-10-23T08:20:05.000Z</time>
      </trkpt>
      <trkpt lat="47.91296" lon="6.89203">
        <ele>887.8</ele>
        <time>2021-10-23T08:20:16.000Z</time>
      </trkpt>
      <trkpt lat="47.91287" lon="6.89207">
        <ele>886.7</ele>
        <time>2021-10-23T08:20:25.000Z</time>
      </trkpt>
      <trkpt lat="47.91278" lon="6.89214">
        <ele>885.4</ele>
        <time>2021-10-23T08:20:36.000Z</time>
      </trkpt>
      <trkpt lat="47.9127" lon="6.89222">
        <ele>883.9</ele>
        <time>2021-10-23T08:20:43.000Z</time>
      </trkpt>
      <trkpt lat="47.91262" lon="6.89228">
        <ele>882.3</ele>
        <time>2021-10-23T08:20:49.000Z</time>
      </trkpt>
      <trkpt lat="47.91253" lon="6.89233">
        <ele>881.1</ele>
        <time>2021-10-23T08:21:02.000Z</time>
      </trkpt>
      <trkpt lat="47.91256" lon="6.89246">
        <ele>878.7</ele>
        <time>2021-10-23T08:21:36.000Z</time>
      </trkpt>
      <trkpt lat="47.91248" lon="6.89239">
        <ele>880.3</ele>
        <time>2021-10-23T08:22:05.000Z</time>
      </trkpt>
      <trkpt lat="47.91241" lon="6.89247">
        <ele>879.7</ele>
        <time>2021-10-23T08:22:15.000Z</time>
      </trkpt>
      <trkpt lat="47.91234" lon="6.89257">
        <ele>878.1</ele>
        <time>2021-10-23T08:22:22.000Z</time>
      </trkpt>
      <trkpt lat="47.91228" lon="6.89269">
        <ele>875.9</ele>
        <time>2021-10-23T08:22:31.000Z</time>
      </trkpt>
      <trkpt lat="47.91221" lon="6.89277">
        <ele>874.4</ele>
        <time>2021-10-23T08:22:37.000Z</time>
      </trkpt>
      <trkpt lat="47.91212" lon="6.89277">
        <ele>874.9</ele>
        <time>2021-10-23T08:22:45.000Z</time>
      </trkpt>
      <trkpt lat="47.91204" lon="6.89286">
        <ele>873.5</ele>
        <time>2021-10-23T08:22:52.000Z</time>
      </trkpt>
      <trkpt lat="47.91196" lon="6.89294">
        <ele>872.3</ele>
        <time>2021-10-23T08:22:57.000Z</time>
      </trkpt>
      <trkpt lat="47.91191" lon="6.89305">
        <ele>870.3</ele>
        <time>2021-10-23T08:23:05.000Z</time>
      </trkpt>
      <trkpt lat="47.91186" lon="6.89318">
        <ele>867.5</ele>
        <time>2021-10-23T08:23:14.000Z</time>
      </trkpt>
      <trkpt lat="47.9118" lon="6.89328">
        <ele>865.4</ele>
        <time>2021-10-23T08:23:22.000Z</time>
      </trkpt>
      <trkpt lat="47.91173" lon="6.89338">
        <ele>863.7</ele>
        <time>2021-10-23T08:23:29.000Z</time>
      </trkpt>
      <trkpt lat="47.91165" lon="6.89344">
        <ele>862.7</ele>
        <time>2021-10-23T08:23:36.000Z</time>
      </trkpt>
      <trkpt lat="47.91156" lon="6.8935">
        <ele>860.8</ele>
        <time>2021-10-23T08:23:46.000Z</time>
      </trkpt>
      <trkpt lat="47.91146" lon="6.89352">
        <ele>859.7</ele>
        <time>2021-10-23T08:23:54.000Z</time>
      </trkpt>
      <trkpt lat="47.91137" lon="6.89347">
        <ele>860.2</ele>
        <time>2021-10-23T08:24:08.000Z</time>
      </trkpt>
      <trkpt lat="47.91128" lon="6.89346">
        <ele>858.5</ele>
        <time>2021-10-23T08:24:13.000Z</time>
      </trkpt>
      <trkpt lat="47.91123" lon="6.89357">
        <ele>854.9</ele>
        <time>2021-10-23T08:24:23.000Z</time>
      </trkpt>
      <trkpt lat="47.91129" lon="6.89367">
        <ele>853.4</ele>
        <time>2021-10-23T08:24:33.000Z</time>
      </trkpt>
      <trkpt lat="47.91136" lon="6.89375">
        <ele>852.3</ele>
        <time>2021-10-23T08:24:40.000Z</time>
      </trkpt>
      <trkpt lat="47.91144" lon="6.89383">
        <ele>851.2</ele>
        <time>2021-10-23T08:24:48.000Z</time>
      </trkpt>
      <trkpt lat="47.91152" lon="6.8939">
        <ele>850.1</ele>
        <time>2021-10-23T08:24:56.000Z</time>
      </trkpt>
      <trkpt lat="47.91158" lon="6.894">
        <ele>847.6</ele>
        <time>2021-10-23T08:25:02.000Z</time>
      </trkpt>
      <trkpt lat="47.91168" lon="6.89404">
        <ele>847.8</ele>
        <time>2021-10-23T08:25:10.000Z</time>
      </trkpt>
      <trkpt lat="47.91177" lon="6.89405">
        <ele>848</ele>
        <time>2021-10-23T08:25:16.000Z</time>
      </trkpt>
      <trkpt lat="47.91181" lon="6.89419">
        <ele>844.8</ele>
        <time>2021-10-23T08:25:23.000Z</time>
      </trkpt>
      <trkpt lat="47.91184" lon="6.89432">
        <ele>841.9</ele>
        <time>2021-10-23T08:25:30.000Z</time>
      </trkpt>
      <trkpt lat="47.91189" lon="6.89443">
        <ele>839.8</ele>
        <time>2021-10-23T08:25:38.000Z</time>
      </trkpt>
      <trkpt lat="47.91192" lon="6.89457">
        <ele>837.5</ele>
        <time>2021-10-23T08:25:48.000Z</time>
      </trkpt>
      <trkpt lat="47.91183" lon="6.89464">
        <ele>834.9</ele>
        <time>2021-10-23T08:26:09.000Z</time>
      </trkpt>
      <trkpt lat="47.91174" lon="6.89466">
        <ele>833.3</ele>
        <time>2021-10-23T08:26:17.000Z</time>
      </trkpt>
      <trkpt lat="47.91164" lon="6.89469">
        <ele>831</ele>
        <time>2021-10-23T08:26:28.000Z</time>
      </trkpt>
      <trkpt lat="47.91155" lon="6.89464">
        <ele>829.7</ele>
        <time>2021-10-23T08:26:40.000Z</time>
      </trkpt>
      <trkpt lat="47.91146" lon="6.8946">
        <ele>828.5</ele>
        <time>2021-10-23T08:26:47.000Z</time>
      </trkpt>
      <trkpt lat="47.91138" lon="6.89455">
        <ele>827.7</ele>
        <time>2021-10-23T08:26:52.000Z</time>
      </trkpt>
      <trkpt lat="47.9113" lon="6.89447">
        <ele>828.1</ele>
        <time>2021-10-23T08:26:59.000Z</time>
      </trkpt>
      <trkpt lat="47.91121" lon="6.89439">
        <ele>828.2</ele>
        <time>2021-10-23T08:27:06.000Z</time>
      </trkpt>
      <trkpt lat="47.91112" lon="6.89437">
        <ele>826.5</ele>
        <time>2021-10-23T08:27:14.000Z</time>
      </trkpt>
      <trkpt lat="47.91103" lon="6.89439">
        <ele>822.9</ele>
        <time>2021-10-23T08:27:20.000Z</time>
      </trkpt>
      <trkpt lat="47.91093" lon="6.89434">
        <ele>821.5</ele>
        <time>2021-10-23T08:27:28.000Z</time>
      </trkpt>
      <trkpt lat="47.91085" lon="6.89428">
        <ele>820.8</ele>
        <time>2021-10-23T08:27:34.000Z</time>
      </trkpt>
      <trkpt lat="47.91076" lon="6.89429">
        <ele>817.3</ele>
        <time>2021-10-23T08:27:42.000Z</time>
      </trkpt>
      <trkpt lat="47.91067" lon="6.89423">
        <ele>816.2</ele>
        <time>2021-10-23T08:27:54.000Z</time>
      </trkpt>
      <trkpt lat="47.91058" lon="6.89418">
        <ele>814.4</ele>
        <time>2021-10-23T08:28:04.000Z</time>
      </trkpt>
      <trkpt lat="47.9105" lon="6.89411">
        <ele>813.2</ele>
        <time>2021-10-23T08:28:11.000Z</time>
      </trkpt>
      <trkpt lat="47.91042" lon="6.89405">
        <ele>811.1</ele>
        <time>2021-10-23T08:28:20.000Z</time>
      </trkpt>
      <trkpt lat="47.91037" lon="6.89393">
        <ele>812.8</ele>
        <time>2021-10-23T08:28:29.000Z</time>
      </trkpt>
      <trkpt lat="47.9103" lon="6.89384">
        <ele>811.9</ele>
        <time>2021-10-23T08:28:35.000Z</time>
      </trkpt>
      <trkpt lat="47.91022" lon="6.89375">
        <ele>810.8</ele>
        <time>2021-10-23T08:28:43.000Z</time>
      </trkpt>
      <trkpt lat="47.91014" lon="6.89367">
        <ele>809.2</ele>
        <time>2021-10-23T08:28:51.000Z</time>
      </trkpt>
      <trkpt lat="47.91006" lon="6.89361">
        <ele>806.2</ele>
        <time>2021-10-23T08:28:58.000Z</time>
      </trkpt>
      <trkpt lat="47.90999" lon="6.89352">
        <ele>804.9</ele>
        <time>2021-10-23T08:29:05.000Z</time>
      </trkpt>
      <trkpt lat="47.90991" lon="6.89343">
        <ele>804.3</ele>
        <time>2021-10-23T08:29:15.000Z</time>
      </trkpt>
      <trkpt lat="47.90981" lon="6.89344">
        <ele>799</ele>
        <time>2021-10-23T08:29:24.000Z</time>
      </trkpt>
      <trkpt lat="47.90973" lon="6.89335">
        <ele>798.1</ele>
        <time>2021-10-23T08:29:33.000Z</time>
      </trkpt>
      <trkpt lat="47.90964" lon="6.89327">
        <ele>795.8</ele>
        <time>2021-10-23T08:29:40.000Z</time>
      </trkpt>
      <trkpt lat="47.90957" lon="6.89316">
        <ele>795.4</ele>
        <time>2021-10-23T08:29:48.000Z</time>
      </trkpt>
      <trkpt lat="47.90952" lon="6.89303">
        <ele>795.9</ele>
        <time>2021-10-23T08:29:58.000Z</time>
      </trkpt>
      <trkpt lat="47.90943" lon="6.89296">
        <ele>793</ele>
        <time>2021-10-23T08:30:06.000Z</time>
      </trkpt>
      <trkpt lat="47.90937" lon="6.89284">
        <ele>792.6</ele>
        <time>2021-10-23T08:30:13.000Z</time>
      </trkpt>
      <trkpt lat="47.90929" lon="6.89277">
        <ele>790.3</ele>
        <time>2021-10-23T08:30:22.000Z</time>
      </trkpt>
      <trkpt lat="47.9092" lon="6.89273">
        <ele>787.4</ele>
        <time>2021-10-23T08:30:30.000Z</time>
      </trkpt>
      <trkpt lat="47.90913" lon="6.89263">
        <ele>785.7</ele>
        <time>2021-10-23T08:30:37.000Z</time>
      </trkpt>
      <trkpt lat="47.90907" lon="6.89252">
        <ele>785</ele>
        <time>2021-10-23T08:30:45.000Z</time>
      </trkpt>
      <trkpt lat="47.90898" lon="6.89246">
        <ele>782.2</ele>
        <time>2021-10-23T08:30:54.000Z</time>
      </trkpt>
      <trkpt lat="47.9089" lon="6.89238">
        <ele>780.1</ele>
        <time>2021-10-23T08:31:01.000Z</time>
      </trkpt>
      <trkpt lat="47.90889" lon="6.89225">
        <ele>782.4</ele>
        <time>2021-10-23T08:31:07.000Z</time>
      </trkpt>
      <trkpt lat="47.90885" lon="6.89212">
        <ele>783.6</ele>
        <time>2021-10-23T08:31:15.000Z</time>
      </trkpt>
      <trkpt lat="47.90878" lon="6.89202">
        <ele>782.1</ele>
        <time>2021-10-23T08:31:22.000Z</time>
      </trkpt>
      <trkpt lat="47.90869" lon="6.89196">
        <ele>778.8</ele>
        <time>2021-10-23T08:31:27.000Z</time>
      </trkpt>
      <trkpt lat="47.90861" lon="6.89187">
        <ele>776.6</ele>
        <time>2021-10-23T08:31:33.000Z</time>
      </trkpt>
      <trkpt lat="47.90854" lon="6.89179">
        <ele>774.3</ele>
        <time>2021-10-23T08:31:42.000Z</time>
      </trkpt>
      <trkpt lat="47.90849" lon="6.89167">
        <ele>774.6</ele>
        <time>2021-10-23T08:31:48.000Z</time>
      </trkpt>
      <trkpt lat="47.90842" lon="6.89158">
        <ele>773.4</ele>
        <time>2021-10-23T08:31:55.000Z</time>
      </trkpt>
      <trkpt lat="47.90834" lon="6.89149">
        <ele>771.2</ele>
        <time>2021-10-23T08:32:05.000Z</time>
      </trkpt>
      <trkpt lat="47.90828" lon="6.89139">
        <ele>770.1</ele>
        <time>2021-10-23T08:32:13.000Z</time>
      </trkpt>
      <trkpt lat="47.90821" lon="6.89128">
        <ele>769.5</ele>
        <time>2021-10-23T08:32:22.000Z</time>
      </trkpt>
      <trkpt lat="47.90814" lon="6.89118">
        <ele>767.8</ele>
        <time>2021-10-23T08:32:30.000Z</time>
      </trkpt>
      <trkpt lat="47.90808" lon="6.89106">
        <ele>766.7</ele>
        <time>2021-10-23T08:32:40.000Z</time>
      </trkpt>
      <trkpt lat="47.90801" lon="6.89097">
        <ele>764.4</ele>
        <time>2021-10-23T08:32:49.000Z</time>
      </trkpt>
      <trkpt lat="47.90792" lon="6.89089">
        <ele>761.4</ele>
        <time>2021-10-23T08:32:57.000Z</time>
      </trkpt>
      <trkpt lat="47.90786" lon="6.89078">
        <ele>760.4</ele>
        <time>2021-10-23T08:33:05.000Z</time>
      </trkpt>
      <trkpt lat="47.9078" lon="6.89068">
        <ele>759.1</ele>
        <time>2021-10-23T08:33:13.000Z</time>
      </trkpt>
      <trkpt lat="47.90774" lon="6.89057">
        <ele>758</ele>
        <time>2021-10-23T08:33:21.000Z</time>
      </trkpt>
      <trkpt lat="47.90767" lon="6.89047">
        <ele>756</ele>
        <time>2021-10-23T08:33:29.000Z</time>
      </trkpt>
      <trkpt lat="47.90759" lon="6.89037">
        <ele>753.8</ele>
        <time>2021-10-23T08:33:37.000Z</time>
      </trkpt>
      <trkpt lat="47.90753" lon="6.89028">
        <ele>752.2</ele>
        <time>2021-10-23T08:33:46.000Z</time>
      </trkpt>
      <trkpt lat="47.90751" lon="6.89014">
        <ele>752.2</ele>
        <time>2021-10-23T08:33:54.000Z</time>
      </trkpt>
      <trkpt lat="47.90747" lon="6.89001">
        <ele>751.5</ele>
        <time>2021-10-23T08:34:03.000Z</time>
      </trkpt>
      <trkpt lat="47.90741" lon="6.8899">
        <ele>749.8</ele>
        <time>2021-10-23T08:34:16.000Z</time>
      </trkpt>
      <trkpt lat="47.90734" lon="6.8898">
        <ele>747.6</ele>
        <time>2021-10-23T08:34:26.000Z</time>
      </trkpt>
      <trkpt lat="47.9073" lon="6.88968">
        <ele>746.5</ele>
        <time>2021-10-23T08:34:34.000Z</time>
      </trkpt>
      <trkpt lat="47.90724" lon="6.88956">
        <ele>744.6</ele>
        <time>2021-10-23T08:34:42.000Z</time>
      </trkpt>
      <trkpt lat="47.90716" lon="6.88948">
        <ele>742.2</ele>
        <time>2021-10-23T08:34:48.000Z</time>
      </trkpt>
      <trkpt lat="47.9071" lon="6.88938">
        <ele>741</ele>
        <time>2021-10-23T08:34:55.000Z</time>
      </trkpt>
      <trkpt lat="47.90701" lon="6.88931">
        <ele>738.1</ele>
        <time>2021-10-23T08:35:03.000Z</time>
      </trkpt>
      <trkpt lat="47.90697" lon="6.88918">
        <ele>738.2</ele>
        <time>2021-10-23T08:35:14.000Z</time>
      </trkpt>
      <trkpt lat="47.90691" lon="6.88907">
        <ele>737.3</ele>
        <time>2021-10-23T08:35:22.000Z</time>
      </trkpt>
      <trkpt lat="47.90684" lon="6.88898">
        <ele>736</ele>
        <time>2021-10-23T08:35:29.000Z</time>
      </trkpt>
      <trkpt lat="47.90676" lon="6.88891">
        <ele>733.7</ele>
        <time>2021-10-23T08:35:37.000Z</time>
      </trkpt>
      <trkpt lat="47.9067" lon="6.8888">
        <ele>733</ele>
        <time>2021-10-23T08:35:45.000Z</time>
      </trkpt>
      <trkpt lat="47.90661" lon="6.88873">
        <ele>730.5</ele>
        <time>2021-10-23T08:35:52.000Z</time>
      </trkpt>
      <trkpt lat="47.90653" lon="6.88866">
        <ele>728.6</ele>
        <time>2021-10-23T08:36:00.000Z</time>
      </trkpt>
      <trkpt lat="47.90648" lon="6.88854">
        <ele>728.4</ele>
        <time>2021-10-23T08:36:08.000Z</time>
      </trkpt>
      <trkpt lat="47.9064" lon="6.88847">
        <ele>726</ele>
        <time>2021-10-23T08:36:15.000Z</time>
      </trkpt>
      <trkpt lat="47.90633" lon="6.88837">
        <ele>724.3</ele>
        <time>2021-10-23T08:36:22.000Z</time>
      </trkpt>
      <trkpt lat="47.90625" lon="6.88829">
        <ele>722.6</ele>
        <time>2021-10-23T08:36:29.000Z</time>
      </trkpt>
      <trkpt lat="47.90617" lon="6.88824">
        <ele>720.3</ele>
        <time>2021-10-23T08:36:36.000Z</time>
      </trkpt>
      <trkpt lat="47.9061" lon="6.88815">
        <ele>719.5</ele>
        <time>2021-10-23T08:36:43.000Z</time>
      </trkpt>
      <trkpt lat="47.906" lon="6.88816">
        <ele>716.2</ele>
        <time>2021-10-23T08:36:54.000Z</time>
      </trkpt>
      <trkpt lat="47.90595" lon="6.88803">
        <ele>716.6</ele>
        <time>2021-10-23T08:37:28.000Z</time>
      </trkpt>
      <trkpt lat="47.90603" lon="6.88812">
        <ele>717.8</ele>
        <time>2021-10-23T08:38:20.000Z</time>
      </trkpt>
      <trkpt lat="47.90607" lon="6.88826">
        <ele>716.3</ele>
        <time>2021-10-23T08:38:30.000Z</time>
      </trkpt>
      <trkpt lat="47.90614" lon="6.88836">
        <ele>716.9</ele>
        <time>2021-10-23T08:38:40.000Z</time>
      </trkpt>
      <trkpt lat="47.9062" lon="6.88848">
        <ele>717.8</ele>
        <time>2021-10-23T08:38:47.000Z</time>
      </trkpt>
      <trkpt lat="47.90625" lon="6.8886">
        <ele>718.4</ele>
        <time>2021-10-23T08:38:54.000Z</time>
      </trkpt>
      <trkpt lat="47.90628" lon="6.88873">
        <ele>718.1</ele>
        <time>2021-10-23T08:39:02.000Z</time>
      </trkpt>
      <trkpt lat="47.90634" lon="6.88885">
        <ele>718.5</ele>
        <time>2021-10-23T08:39:11.000Z</time>
      </trkpt>
      <trkpt lat="47.90637" lon="6.88898">
        <ele>718.4</ele>
        <time>2021-10-23T08:39:26.000Z</time>
      </trkpt>
      <trkpt lat="47.90641" lon="6.88912">
        <ele>718.1</ele>
        <time>2021-10-23T08:39:33.000Z</time>
      </trkpt>
      <trkpt lat="47.90647" lon="6.88924">
        <ele>718.6</ele>
        <time>2021-10-23T08:39:40.000Z</time>
      </trkpt>
      <trkpt lat="47.9065" lon="6.88937">
        <ele>718.1</ele>
        <time>2021-10-23T08:39:49.000Z</time>
      </trkpt>
      <trkpt lat="47.90656" lon="6.88948">
        <ele>718.7</ele>
        <time>2021-10-23T08:39:57.000Z</time>
      </trkpt>
      <trkpt lat="47.90662" lon="6.88959">
        <ele>718.6</ele>
        <time>2021-10-23T08:40:05.000Z</time>
      </trkpt>
      <trkpt lat="47.90663" lon="6.88974">
        <ele>716.7</ele>
        <time>2021-10-23T08:40:10.000Z</time>
      </trkpt>
      <trkpt lat="47.90665" lon="6.88988">
        <ele>716.4</ele>
        <time>2021-10-23T08:40:17.000Z</time>
      </trkpt>
      <trkpt lat="47.90665" lon="6.89003">
        <ele>715.3</ele>
        <time>2021-10-23T08:40:24.000Z</time>
      </trkpt>
      <trkpt lat="47.90668" lon="6.89016">
        <ele>715.7</ele>
        <time>2021-10-23T08:40:31.000Z</time>
      </trkpt>
      <trkpt lat="47.90671" lon="6.8903">
        <ele>716.3</ele>
        <time>2021-10-23T08:40:37.000Z</time>
      </trkpt>
      <trkpt lat="47.90673" lon="6.89044">
        <ele>715.4</ele>
        <time>2021-10-23T08:40:47.000Z</time>
      </trkpt>
      <trkpt lat="47.90676" lon="6.89057">
        <ele>714.7</ele>
        <time>2021-10-23T08:40:55.000Z</time>
      </trkpt>
      <trkpt lat="47.9068" lon="6.8907">
        <ele>714.6</ele>
        <time>2021-10-23T08:41:03.000Z</time>
      </trkpt>
      <trkpt lat="47.90685" lon="6.89081">
        <ele>715.4</ele>
        <time>2021-10-23T08:41:09.000Z</time>
      </trkpt>
      <trkpt lat="47.90691" lon="6.89094">
        <ele>715.1</ele>
        <time>2021-10-23T08:41:16.000Z</time>
      </trkpt>
      <trkpt lat="47.90697" lon="6.89104">
        <ele>714.9</ele>
        <time>2021-10-23T08:41:24.000Z</time>
      </trkpt>
      <trkpt lat="47.90701" lon="6.89117">
        <ele>713.8</ele>
        <time>2021-10-23T08:41:31.000Z</time>
      </trkpt>
      <trkpt lat="47.90707" lon="6.89129">
        <ele>713.9</ele>
        <time>2021-10-23T08:41:40.000Z</time>
      </trkpt>
      <trkpt lat="47.90712" lon="6.89141">
        <ele>714.3</ele>
        <time>2021-10-23T08:41:47.000Z</time>
      </trkpt>
      <trkpt lat="47.90718" lon="6.89154">
        <ele>714.7</ele>
        <time>2021-10-23T08:41:56.000Z</time>
      </trkpt>
      <trkpt lat="47.90725" lon="6.89164">
        <ele>715.7</ele>
        <time>2021-10-23T08:42:02.000Z</time>
      </trkpt>
      <trkpt lat="47.90728" lon="6.89176">
        <ele>715.4</ele>
        <time>2021-10-23T08:42:08.000Z</time>
      </trkpt>
      <trkpt lat="47.9073" lon="6.8919">
        <ele>714.4</ele>
        <time>2021-10-23T08:42:14.000Z</time>
      </trkpt>
      <trkpt lat="47.90733" lon="6.89203">
        <ele>713.9</ele>
        <time>2021-10-23T08:42:21.000Z</time>
      </trkpt>
      <trkpt lat="47.90737" lon="6.89217">
        <ele>713</ele>
        <time>2021-10-23T08:42:28.000Z</time>
      </trkpt>
      <trkpt lat="47.90739" lon="6.8923">
        <ele>713</ele>
        <time>2021-10-23T08:42:35.000Z</time>
      </trkpt>
      <trkpt lat="47.9074" lon="6.89244">
        <ele>713.4</ele>
        <time>2021-10-23T08:42:41.000Z</time>
      </trkpt>
      <trkpt lat="47.90744" lon="6.89256">
        <ele>713.7</ele>
        <time>2021-10-23T08:42:48.000Z</time>
      </trkpt>
      <trkpt lat="47.90746" lon="6.89269">
        <ele>713</ele>
        <time>2021-10-23T08:42:55.000Z</time>
      </trkpt>
      <trkpt lat="47.9075" lon="6.89284">
        <ele>712.5</ele>
        <time>2021-10-23T08:43:03.000Z</time>
      </trkpt>
      <trkpt lat="47.90757" lon="6.89296">
        <ele>713.2</ele>
        <time>2021-10-23T08:43:11.000Z</time>
      </trkpt>
      <trkpt lat="47.90762" lon="6.89308">
        <ele>713.3</ele>
        <time>2021-10-23T08:43:18.000Z</time>
      </trkpt>
      <trkpt lat="47.90767" lon="6.8932">
        <ele>712.9</ele>
        <time>2021-10-23T08:43:27.000Z</time>
      </trkpt>
      <trkpt lat="47.90773" lon="6.8933">
        <ele>713.2</ele>
        <time>2021-10-23T08:43:33.000Z</time>
      </trkpt>
      <trkpt lat="47.90779" lon="6.89341">
        <ele>713.7</ele>
        <time>2021-10-23T08:43:41.000Z</time>
      </trkpt>
      <trkpt lat="47.90784" lon="6.89353">
        <ele>714.4</ele>
        <time>2021-10-23T08:43:47.000Z</time>
      </trkpt>
      <trkpt lat="47.9079" lon="6.89365">
        <ele>714.8</ele>
        <time>2021-10-23T08:43:55.000Z</time>
      </trkpt>
      <trkpt lat="47.90794" lon="6.89377">
        <ele>715</ele>
        <time>2021-10-23T08:44:03.000Z</time>
      </trkpt>
      <trkpt lat="47.90799" lon="6.89389">
        <ele>715.2</ele>
        <time>2021-10-23T08:44:10.000Z</time>
      </trkpt>
      <trkpt lat="47.90803" lon="6.89402">
        <ele>715.3</ele>
        <time>2021-10-23T08:44:17.000Z</time>
      </trkpt>
      <trkpt lat="47.90808" lon="6.89413">
        <ele>715.8</ele>
        <time>2021-10-23T08:44:24.000Z</time>
      </trkpt>
      <trkpt lat="47.90815" lon="6.89423">
        <ele>716.2</ele>
        <time>2021-10-23T08:44:31.000Z</time>
      </trkpt>
      <trkpt lat="47.90822" lon="6.89435">
        <ele>716.8</ele>
        <time>2021-10-23T08:44:39.000Z</time>
      </trkpt>
      <trkpt lat="47.90827" lon="6.89448">
        <ele>717</ele>
        <time>2021-10-23T08:44:47.000Z</time>
      </trkpt>
      <trkpt lat="47.9083" lon="6.89462">
        <ele>715.7</ele>
        <time>2021-10-23T08:44:54.000Z</time>
      </trkpt>
      <trkpt lat="47.90831" lon="6.89477">
        <ele>714.4</ele>
        <time>2021-10-23T08:45:02.000Z</time>
      </trkpt>
      <trkpt lat="47.90835" lon="6.89491">
        <ele>714.7</ele>
        <time>2021-10-23T08:45:09.000Z</time>
      </trkpt>
      <trkpt lat="47.90838" lon="6.89505">
        <ele>714.7</ele>
        <time>2021-10-23T08:45:17.000Z</time>
      </trkpt>
      <trkpt lat="47.90837" lon="6.89519">
        <ele>713.4</ele>
        <time>2021-10-23T08:45:27.000Z</time>
      </trkpt>
      <trkpt lat="47.9084" lon="6.89533">
        <ele>713</ele>
        <time>2021-10-23T08:45:39.000Z</time>
      </trkpt>
      <trkpt lat="47.90841" lon="6.89547">
        <ele>712</ele>
        <time>2021-10-23T08:45:45.000Z</time>
      </trkpt>
      <trkpt lat="47.90843" lon="6.89561">
        <ele>711.7</ele>
        <time>2021-10-23T08:45:53.000Z</time>
      </trkpt>
      <trkpt lat="47.90845" lon="6.89577">
        <ele>711.7</ele>
        <time>2021-10-23T08:46:01.000Z</time>
      </trkpt>
      <trkpt lat="47.90847" lon="6.89591">
        <ele>711.5</ele>
        <time>2021-10-23T08:46:08.000Z</time>
      </trkpt>
      <trkpt lat="47.90848" lon="6.89604">
        <ele>710.9</ele>
        <time>2021-10-23T08:46:15.000Z</time>
      </trkpt>
      <trkpt lat="47.90852" lon="6.89616">
        <ele>711.3</ele>
        <time>2021-10-23T08:46:23.000Z</time>
      </trkpt>
      <trkpt lat="47.90853" lon="6.8963">
        <ele>711.4</ele>
        <time>2021-10-23T08:46:30.000Z</time>
      </trkpt>
      <trkpt lat="47.90852" lon="6.89644">
        <ele>711.6</ele>
        <time>2021-10-23T08:46:39.000Z</time>
      </trkpt>
      <trkpt lat="47.90848" lon="6.89657">
        <ele>712</ele>
        <time>2021-10-23T08:46:46.000Z</time>
      </trkpt>
      <trkpt lat="47.90841" lon="6.89666">
        <ele>712.2</ele>
        <time>2021-10-23T08:46:58.000Z</time>
      </trkpt>
      <trkpt lat="47.90835" lon="6.89656">
        <ele>711.3</ele>
        <time>2021-10-23T08:47:14.000Z</time>
      </trkpt>
      <trkpt lat="47.90831" lon="6.89643">
        <ele>710</ele>
        <time>2021-10-23T08:47:21.000Z</time>
      </trkpt>
      <trkpt lat="47.90825" lon="6.89631">
        <ele>708.6</ele>
        <time>2021-10-23T08:47:27.000Z</time>
      </trkpt>
      <trkpt lat="47.90821" lon="6.89619">
        <ele>707.5</ele>
        <time>2021-10-23T08:48:00.000Z</time>
      </trkpt>
      <trkpt lat="47.90813" lon="6.89612">
        <ele>706.6</ele>
        <time>2021-10-23T08:48:07.000Z</time>
      </trkpt>
      <trkpt lat="47.90807" lon="6.89601">
        <ele>705.7</ele>
        <time>2021-10-23T08:48:15.000Z</time>
      </trkpt>
      <trkpt lat="47.908" lon="6.8959">
        <ele>704.8</ele>
        <time>2021-10-23T08:48:22.000Z</time>
      </trkpt>
      <trkpt lat="47.90793" lon="6.89581">
        <ele>703.6</ele>
        <time>2021-10-23T08:48:30.000Z</time>
      </trkpt>
      <trkpt lat="47.90788" lon="6.89568">
        <ele>702.8</ele>
        <time>2021-10-23T08:48:39.000Z</time>
      </trkpt>
      <trkpt lat="47.90782" lon="6.89559">
        <ele>701.6</ele>
        <time>2021-10-23T08:48:45.000Z</time>
      </trkpt>
      <trkpt lat="47.90776" lon="6.89548">
        <ele>701.2</ele>
        <time>2021-10-23T08:48:53.000Z</time>
      </trkpt>
      <trkpt lat="47.90768" lon="6.89538">
        <ele>700.8</ele>
        <time>2021-10-23T08:49:02.000Z</time>
      </trkpt>
      <trkpt lat="47.90759" lon="6.8953">
        <ele>700</ele>
        <time>2021-10-23T08:49:10.000Z</time>
      </trkpt>
      <trkpt lat="47.9075" lon="6.89521">
        <ele>698.8</ele>
        <time>2021-10-23T08:49:18.000Z</time>
      </trkpt>
      <trkpt lat="47.90742" lon="6.89512">
        <ele>697.9</ele>
        <time>2021-10-23T08:49:26.000Z</time>
      </trkpt>
      <trkpt lat="47.90735" lon="6.89503">
        <ele>697.4</ele>
        <time>2021-10-23T08:49:34.000Z</time>
      </trkpt>
      <trkpt lat="47.90726" lon="6.89495">
        <ele>696.8</ele>
        <time>2021-10-23T08:49:42.000Z</time>
      </trkpt>
      <trkpt lat="47.9072" lon="6.89485">
        <ele>696.1</ele>
        <time>2021-10-23T08:49:55.000Z</time>
      </trkpt>
      <trkpt lat="47.90713" lon="6.89476">
        <ele>696.2</ele>
        <time>2021-10-23T08:50:02.000Z</time>
      </trkpt>
      <trkpt lat="47.90706" lon="6.89466">
        <ele>696.2</ele>
        <time>2021-10-23T08:50:10.000Z</time>
      </trkpt>
      <trkpt lat="47.90699" lon="6.89455">
        <ele>695.4</ele>
        <time>2021-10-23T08:50:17.000Z</time>
      </trkpt>
      <trkpt lat="47.90694" lon="6.89444">
        <ele>694</ele>
        <time>2021-10-23T08:50:25.000Z</time>
      </trkpt>
      <trkpt lat="47.90689" lon="6.89431">
        <ele>693.5</ele>
        <time>2021-10-23T08:50:34.000Z</time>
      </trkpt>
      <trkpt lat="47.90683" lon="6.89418">
        <ele>692.6</ele>
        <time>2021-10-23T08:50:43.000Z</time>
      </trkpt>
      <trkpt lat="47.90676" lon="6.89408">
        <ele>692</ele>
        <time>2021-10-23T08:50:50.000Z</time>
      </trkpt>
      <trkpt lat="47.90671" lon="6.89396">
        <ele>691.4</ele>
        <time>2021-10-23T08:50:58.000Z</time>
      </trkpt>
      <trkpt lat="47.90666" lon="6.89384">
        <ele>690.8</ele>
        <time>2021-10-23T08:51:06.000Z</time>
      </trkpt>
      <trkpt lat="47.90661" lon="6.89372">
        <ele>690.4</ele>
        <time>2021-10-23T08:51:16.000Z</time>
      </trkpt>
      <trkpt lat="47.90656" lon="6.8936">
        <ele>689.9</ele>
        <time>2021-10-23T08:51:24.000Z</time>
      </trkpt>
      <trkpt lat="47.90648" lon="6.89354">
        <ele>689.5</ele>
        <time>2021-10-23T08:51:31.000Z</time>
      </trkpt>
      <trkpt lat="47.9064" lon="6.89363">
        <ele>690.1</ele>
        <time>2021-10-23T08:51:39.000Z</time>
      </trkpt>
      <trkpt lat="47.90633" lon="6.89372">
        <ele>691.1</ele>
        <time>2021-10-23T08:51:47.000Z</time>
      </trkpt>
      <trkpt lat="47.90624" lon="6.89379">
        <ele>692.1</ele>
        <time>2021-10-23T08:51:57.000Z</time>
      </trkpt>
      <trkpt lat="47.90614" lon="6.89378">
        <ele>692.6</ele>
        <time>2021-10-23T08:52:09.000Z</time>
      </trkpt>
      <trkpt lat="47.90605" lon="6.89372">
        <ele>694.1</ele>
        <time>2021-10-23T08:52:19.000Z</time>
      </trkpt>
      <trkpt lat="47.90598" lon="6.89363">
        <ele>694.8</ele>
        <time>2021-10-23T08:52:28.000Z</time>
      </trkpt>
      <trkpt lat="47.90591" lon="6.89352">
        <ele>695.7</ele>
        <time>2021-10-23T08:52:38.000Z</time>
      </trkpt>
      <trkpt lat="47.90586" lon="6.8934">
        <ele>695.9</ele>
        <time>2021-10-23T08:52:47.000Z</time>
      </trkpt>
      <trkpt lat="47.9058" lon="6.8933">
        <ele>696.5</ele>
        <time>2021-10-23T08:52:55.000Z</time>
      </trkpt>
      <trkpt lat="47.90572" lon="6.89323">
        <ele>697.7</ele>
        <time>2021-10-23T08:53:04.000Z</time>
      </trkpt>
      <trkpt lat="47.90563" lon="6.89318">
        <ele>699.2</ele>
        <time>2021-10-23T08:53:13.000Z</time>
      </trkpt>
      <trkpt lat="47.90556" lon="6.8931">
        <ele>699.7</ele>
        <time>2021-10-23T08:53:22.000Z</time>
      </trkpt>
      <trkpt lat="47.90548" lon="6.89304">
        <ele>700.7</ele>
        <time>2021-10-23T08:53:29.000Z</time>
      </trkpt>
      <trkpt lat="47.90538" lon="6.893">
        <ele>702.5</ele>
        <time>2021-10-23T08:53:39.000Z</time>
      </trkpt>
      <trkpt lat="47.90529" lon="6.89297">
        <ele>704.4</ele>
        <time>2021-10-23T08:53:49.000Z</time>
      </trkpt>
      <trkpt lat="47.90519" lon="6.89291">
        <ele>705.6</ele>
        <time>2021-10-23T08:53:56.000Z</time>
      </trkpt>
      <trkpt lat="47.90511" lon="6.89285">
        <ele>706.5</ele>
        <time>2021-10-23T08:54:04.000Z</time>
      </trkpt>
      <trkpt lat="47.90503" lon="6.89277">
        <ele>706.9</ele>
        <time>2021-10-23T08:54:10.000Z</time>
      </trkpt>
      <trkpt lat="47.90495" lon="6.89272">
        <ele>708.9</ele>
        <time>2021-10-23T08:54:19.000Z</time>
      </trkpt>
      <trkpt lat="47.90486" lon="6.89264">
        <ele>710.3</ele>
        <time>2021-10-23T08:54:31.000Z</time>
      </trkpt>
      <trkpt lat="47.90477" lon="6.89256">
        <ele>710.9</ele>
        <time>2021-10-23T08:54:40.000Z</time>
      </trkpt>
      <trkpt lat="47.90469" lon="6.8925">
        <ele>711.6</ele>
        <time>2021-10-23T08:54:48.000Z</time>
      </trkpt>
      <trkpt lat="47.9046" lon="6.89246">
        <ele>713.1</ele>
        <time>2021-10-23T08:54:56.000Z</time>
      </trkpt>
      <trkpt lat="47.90451" lon="6.89242">
        <ele>714.5</ele>
        <time>2021-10-23T08:55:05.000Z</time>
      </trkpt>
      <trkpt lat="47.90441" lon="6.89237">
        <ele>716.3</ele>
        <time>2021-10-23T08:55:16.000Z</time>
      </trkpt>
      <trkpt lat="47.90434" lon="6.89229">
        <ele>717.8</ele>
        <time>2021-10-23T08:55:25.000Z</time>
      </trkpt>
      <trkpt lat="47.90429" lon="6.89216">
        <ele>717.6</ele>
        <time>2021-10-23T08:55:33.000Z</time>
      </trkpt>
      <trkpt lat="47.90421" lon="6.8921">
        <ele>718.9</ele>
        <time>2021-10-23T08:55:41.000Z</time>
      </trkpt>
      <trkpt lat="47.90411" lon="6.89205">
        <ele>720.7</ele>
        <time>2021-10-23T08:55:51.000Z</time>
      </trkpt>
      <trkpt lat="47.90401" lon="6.89203">
        <ele>723</ele>
        <time>2021-10-23T08:56:01.000Z</time>
      </trkpt>
      <trkpt lat="47.90392" lon="6.89199">
        <ele>724.8</ele>
        <time>2021-10-23T08:56:10.000Z</time>
      </trkpt>
      <trkpt lat="47.90383" lon="6.89192">
        <ele>725.5</ele>
        <time>2021-10-23T08:56:18.000Z</time>
      </trkpt>
      <trkpt lat="47.90376" lon="6.89182">
        <ele>725.3</ele>
        <time>2021-10-23T08:56:27.000Z</time>
      </trkpt>
      <trkpt lat="47.90369" lon="6.89172">
        <ele>726.3</ele>
        <time>2021-10-23T08:56:35.000Z</time>
      </trkpt>
      <trkpt lat="47.90362" lon="6.89163">
        <ele>728.2</ele>
        <time>2021-10-23T08:56:47.000Z</time>
      </trkpt>
      <trkpt lat="47.90354" lon="6.89155">
        <ele>729.8</ele>
        <time>2021-10-23T08:56:58.000Z</time>
      </trkpt>
      <trkpt lat="47.90347" lon="6.89145">
        <ele>730.7</ele>
        <time>2021-10-23T08:57:06.000Z</time>
      </trkpt>
      <trkpt lat="47.9034" lon="6.89134">
        <ele>731.2</ele>
        <time>2021-10-23T08:57:15.000Z</time>
      </trkpt>
      <trkpt lat="47.90332" lon="6.89127">
        <ele>732.5</ele>
        <time>2021-10-23T08:57:24.000Z</time>
      </trkpt>
      <trkpt lat="47.90324" lon="6.89117">
        <ele>733.3</ele>
        <time>2021-10-23T08:57:35.000Z</time>
      </trkpt>
      <trkpt lat="47.90318" lon="6.89108">
        <ele>734.1</ele>
        <time>2021-10-23T08:57:43.000Z</time>
      </trkpt>
      <trkpt lat="47.9031" lon="6.891">
        <ele>735.9</ele>
        <time>2021-10-23T08:57:51.000Z</time>
      </trkpt>
      <trkpt lat="47.90302" lon="6.89091">
        <ele>736.7</ele>
        <time>2021-10-23T08:58:02.000Z</time>
      </trkpt>
      <trkpt lat="47.90294" lon="6.89084">
        <ele>738</ele>
        <time>2021-10-23T08:58:10.000Z</time>
      </trkpt>
      <trkpt lat="47.90285" lon="6.89075">
        <ele>739.6</ele>
        <time>2021-10-23T08:58:19.000Z</time>
      </trkpt>
      <trkpt lat="47.90277" lon="6.89067">
        <ele>741.7</ele>
        <time>2021-10-23T08:58:28.000Z</time>
      </trkpt>
      <trkpt lat="47.9027" lon="6.89057">
        <ele>742.8</ele>
        <time>2021-10-23T08:58:37.000Z</time>
      </trkpt>
      <trkpt lat="47.90266" lon="6.89046">
        <ele>742.8</ele>
        <time>2021-10-23T08:58:47.000Z</time>
      </trkpt>
      <trkpt lat="47.90258" lon="6.89038">
        <ele>744.1</ele>
        <time>2021-10-23T08:58:56.000Z</time>
      </trkpt>
      <trkpt lat="47.90249" lon="6.89035">
        <ele>746.5</ele>
        <time>2021-10-23T08:59:02.000Z</time>
      </trkpt>
      <trkpt lat="47.9024" lon="6.8903">
        <ele>747.3</ele>
        <time>2021-10-23T08:59:09.000Z</time>
      </trkpt>
      <trkpt lat="47.90231" lon="6.89027">
        <ele>748.1</ele>
        <time>2021-10-23T08:59:17.000Z</time>
      </trkpt>
      <trkpt lat="47.90222" lon="6.89025">
        <ele>749.3</ele>
        <time>2021-10-23T08:59:27.000Z</time>
      </trkpt>
      <trkpt lat="47.90214" lon="6.89019">
        <ele>751.7</ele>
        <time>2021-10-23T08:59:35.000Z</time>
      </trkpt>
      <trkpt lat="47.90208" lon="6.89007">
        <ele>751.7</ele>
        <time>2021-10-23T08:59:43.000Z</time>
      </trkpt>
      <trkpt lat="47.90203" lon="6.88996">
        <ele>751.7</ele>
        <time>2021-10-23T08:59:53.000Z</time>
      </trkpt>
      <trkpt lat="47.90197" lon="6.88985">
        <ele>752.9</ele>
        <time>2021-10-23T09:00:03.000Z</time>
      </trkpt>
      <trkpt lat="47.9019" lon="6.88974">
        <ele>754.1</ele>
        <time>2021-10-23T09:00:12.000Z</time>
      </trkpt>
      <trkpt lat="47.90183" lon="6.88962">
        <ele>754.9</ele>
        <time>2021-10-23T09:00:21.000Z</time>
      </trkpt>
      <trkpt lat="47.90177" lon="6.88951">
        <ele>755.2</ele>
        <time>2021-10-23T09:00:29.000Z</time>
      </trkpt>
      <trkpt lat="47.90173" lon="6.88938">
        <ele>754.8</ele>
        <time>2021-10-23T09:00:37.000Z</time>
      </trkpt>
      <trkpt lat="47.90168" lon="6.88926">
        <ele>755.7</ele>
        <time>2021-10-23T09:00:45.000Z</time>
      </trkpt>
      <trkpt lat="47.90161" lon="6.88914">
        <ele>756.1</ele>
        <time>2021-10-23T09:00:54.000Z</time>
      </trkpt>
      <trkpt lat="47.90157" lon="6.88903">
        <ele>756.4</ele>
        <time>2021-10-23T09:01:04.000Z</time>
      </trkpt>
      <trkpt lat="47.90147" lon="6.889">
        <ele>759</ele>
        <time>2021-10-23T09:01:15.000Z</time>
      </trkpt>
      <trkpt lat="47.9014" lon="6.88909">
        <ele>761.5</ele>
        <time>2021-10-23T09:01:26.000Z</time>
      </trkpt>
      <trkpt lat="47.90139" lon="6.88922">
        <ele>762.7</ele>
        <time>2021-10-23T09:01:34.000Z</time>
      </trkpt>
      <trkpt lat="47.90144" lon="6.88935">
        <ele>763.3</ele>
        <time>2021-10-23T09:01:41.000Z</time>
      </trkpt>
      <trkpt lat="47.90147" lon="6.88948">
        <ele>764.5</ele>
        <time>2021-10-23T09:01:49.000Z</time>
      </trkpt>
      <trkpt lat="47.90153" lon="6.8896">
        <ele>765.1</ele>
        <time>2021-10-23T09:01:57.000Z</time>
      </trkpt>
      <trkpt lat="47.90159" lon="6.88971">
        <ele>765.3</ele>
        <time>2021-10-23T09:02:06.000Z</time>
      </trkpt>
      <trkpt lat="47.90163" lon="6.88984">
        <ele>766.6</ele>
        <time>2021-10-23T09:02:15.000Z</time>
      </trkpt>
      <trkpt lat="47.90168" lon="6.88997">
        <ele>767.6</ele>
        <time>2021-10-23T09:02:22.000Z</time>
      </trkpt>
      <trkpt lat="47.90174" lon="6.89009">
        <ele>766.9</ele>
        <time>2021-10-23T09:02:31.000Z</time>
      </trkpt>
      <trkpt lat="47.90177" lon="6.89025">
        <ele>768</ele>
        <time>2021-10-23T09:02:43.000Z</time>
      </trkpt>
      <trkpt lat="47.9017" lon="6.89033">
        <ele>772.2</ele>
        <time>2021-10-23T09:03:00.000Z</time>
      </trkpt>
      <trkpt lat="47.90165" lon="6.89022">
        <ele>772.9</ele>
        <time>2021-10-23T09:03:24.000Z</time>
      </trkpt>
      <trkpt lat="47.90156" lon="6.89015">
        <ele>774.7</ele>
        <time>2021-10-23T09:03:29.000Z</time>
      </trkpt>
      <trkpt lat="47.90151" lon="6.89002">
        <ele>773.8</ele>
        <time>2021-10-23T09:03:38.000Z</time>
      </trkpt>
      <trkpt lat="47.90143" lon="6.88997">
        <ele>775.3</ele>
        <time>2021-10-23T09:03:45.000Z</time>
      </trkpt>
      <trkpt lat="47.90136" lon="6.88985">
        <ele>775.3</ele>
        <time>2021-10-23T09:03:54.000Z</time>
      </trkpt>
      <trkpt lat="47.90129" lon="6.88977">
        <ele>776</ele>
        <time>2021-10-23T09:04:02.000Z</time>
      </trkpt>
      <trkpt lat="47.9012" lon="6.88968">
        <ele>777.5</ele>
        <time>2021-10-23T09:04:11.000Z</time>
      </trkpt>
      <trkpt lat="47.90115" lon="6.88956">
        <ele>777.6</ele>
        <time>2021-10-23T09:04:19.000Z</time>
      </trkpt>
      <trkpt lat="47.9011" lon="6.88944">
        <ele>778.3</ele>
        <time>2021-10-23T09:04:27.000Z</time>
      </trkpt>
      <trkpt lat="47.90104" lon="6.88935">
        <ele>779.9</ele>
        <time>2021-10-23T09:04:35.000Z</time>
      </trkpt>
      <trkpt lat="47.90099" lon="6.88922">
        <ele>780.5</ele>
        <time>2021-10-23T09:04:43.000Z</time>
      </trkpt>
      <trkpt lat="47.90094" lon="6.88911">
        <ele>780.7</ele>
        <time>2021-10-23T09:04:49.000Z</time>
      </trkpt>
      <trkpt lat="47.90086" lon="6.88902">
        <ele>782.3</ele>
        <time>2021-10-23T09:04:57.000Z</time>
      </trkpt>
      <trkpt lat="47.90082" lon="6.8889">
        <ele>782.7</ele>
        <time>2021-10-23T09:05:05.000Z</time>
      </trkpt>
      <trkpt lat="47.90076" lon="6.88878">
        <ele>782.9</ele>
        <time>2021-10-23T09:05:13.000Z</time>
      </trkpt>
      <trkpt lat="47.9007" lon="6.88868">
        <ele>783.7</ele>
        <time>2021-10-23T09:05:21.000Z</time>
      </trkpt>
      <trkpt lat="47.90064" lon="6.88855">
        <ele>784.1</ele>
        <time>2021-10-23T09:05:31.000Z</time>
      </trkpt>
      <trkpt lat="47.90056" lon="6.88847">
        <ele>785.9</ele>
        <time>2021-10-23T09:05:40.000Z</time>
      </trkpt>
      <trkpt lat="47.90047" lon="6.88839">
        <ele>787.1</ele>
        <time>2021-10-23T09:05:48.000Z</time>
      </trkpt>
      <trkpt lat="47.90039" lon="6.88833">
        <ele>788.1</ele>
        <time>2021-10-23T09:05:55.000Z</time>
      </trkpt>
      <trkpt lat="47.9003" lon="6.88824">
        <ele>789.2</ele>
        <time>2021-10-23T09:06:03.000Z</time>
      </trkpt>
      <trkpt lat="47.90024" lon="6.88814">
        <ele>790.4</ele>
        <time>2021-10-23T09:06:10.000Z</time>
      </trkpt>
      <trkpt lat="47.90018" lon="6.88801">
        <ele>791.1</ele>
        <time>2021-10-23T09:06:18.000Z</time>
      </trkpt>
      <trkpt lat="47.90015" lon="6.88788">
        <ele>791.5</ele>
        <time>2021-10-23T09:06:26.000Z</time>
      </trkpt>
      <trkpt lat="47.90009" lon="6.88776">
        <ele>792.3</ele>
        <time>2021-10-23T09:06:35.000Z</time>
      </trkpt>
      <trkpt lat="47.90002" lon="6.88766">
        <ele>793.3</ele>
        <time>2021-10-23T09:06:43.000Z</time>
      </trkpt>
      <trkpt lat="47.89993" lon="6.8876">
        <ele>795</ele>
        <time>2021-10-23T09:06:52.000Z</time>
      </trkpt>
      <trkpt lat="47.89986" lon="6.8875">
        <ele>795.5</ele>
        <time>2021-10-23T09:07:00.000Z</time>
      </trkpt>
      <trkpt lat="47.89977" lon="6.88742">
        <ele>796.5</ele>
        <time>2021-10-23T09:07:08.000Z</time>
      </trkpt>
      <trkpt lat="47.89971" lon="6.8873">
        <ele>796.7</ele>
        <time>2021-10-23T09:07:18.000Z</time>
      </trkpt>
      <trkpt lat="47.89966" lon="6.88719">
        <ele>797.3</ele>
        <time>2021-10-23T09:07:26.000Z</time>
      </trkpt>
      <trkpt lat="47.89962" lon="6.88705">
        <ele>797.8</ele>
        <time>2021-10-23T09:07:34.000Z</time>
      </trkpt>
      <trkpt lat="47.89954" lon="6.88701">
        <ele>800.6</ele>
        <time>2021-10-23T09:09:30.000Z</time>
      </trkpt>
      <trkpt lat="47.8995" lon="6.88688">
        <ele>800.6</ele>
        <time>2021-10-23T09:09:38.000Z</time>
      </trkpt>
      <trkpt lat="47.89946" lon="6.88675">
        <ele>800.5</ele>
        <time>2021-10-23T09:09:46.000Z</time>
      </trkpt>
      <trkpt lat="47.89941" lon="6.88663">
        <ele>801.1</ele>
        <time>2021-10-23T09:09:55.000Z</time>
      </trkpt>
      <trkpt lat="47.89935" lon="6.88651">
        <ele>802.3</ele>
        <time>2021-10-23T09:10:02.000Z</time>
      </trkpt>
      <trkpt lat="47.8993" lon="6.8864">
        <ele>802.9</ele>
        <time>2021-10-23T09:10:10.000Z</time>
      </trkpt>
      <trkpt lat="47.89922" lon="6.88629">
        <ele>804.5</ele>
        <time>2021-10-23T09:10:18.000Z</time>
      </trkpt>
      <trkpt lat="47.89916" lon="6.88618">
        <ele>805.6</ele>
        <time>2021-10-23T09:10:25.000Z</time>
      </trkpt>
      <trkpt lat="47.89911" lon="6.88606">
        <ele>807</ele>
        <time>2021-10-23T09:10:33.000Z</time>
      </trkpt>
      <trkpt lat="47.89907" lon="6.88593">
        <ele>807.5</ele>
        <time>2021-10-23T09:10:40.000Z</time>
      </trkpt>
      <trkpt lat="47.89902" lon="6.8858">
        <ele>808.4</ele>
        <time>2021-10-23T09:10:48.000Z</time>
      </trkpt>
      <trkpt lat="47.89896" lon="6.88569">
        <ele>809.6</ele>
        <time>2021-10-23T09:10:58.000Z</time>
      </trkpt>
      <trkpt lat="47.89892" lon="6.88557">
        <ele>809.8</ele>
        <time>2021-10-23T09:11:06.000Z</time>
      </trkpt>
      <trkpt lat="47.89886" lon="6.88546">
        <ele>810.9</ele>
        <time>2021-10-23T09:11:13.000Z</time>
      </trkpt>
      <trkpt lat="47.8988" lon="6.88535">
        <ele>811.6</ele>
        <time>2021-10-23T09:11:21.000Z</time>
      </trkpt>
      <trkpt lat="47.89873" lon="6.88525">
        <ele>812.9</ele>
        <time>2021-10-23T09:11:28.000Z</time>
      </trkpt>
      <trkpt lat="47.89866" lon="6.88515">
        <ele>814.2</ele>
        <time>2021-10-23T09:11:37.000Z</time>
      </trkpt>
      <trkpt lat="47.89858" lon="6.88506">
        <ele>816</ele>
        <time>2021-10-23T09:11:46.000Z</time>
      </trkpt>
      <trkpt lat="47.89852" lon="6.88495">
        <ele>816.5</ele>
        <time>2021-10-23T09:11:54.000Z</time>
      </trkpt>
      <trkpt lat="47.89847" lon="6.88484">
        <ele>816.7</ele>
        <time>2021-10-23T09:12:01.000Z</time>
      </trkpt>
      <trkpt lat="47.89841" lon="6.88472">
        <ele>817.1</ele>
        <time>2021-10-23T09:12:09.000Z</time>
      </trkpt>
      <trkpt lat="47.89834" lon="6.88461">
        <ele>818</ele>
        <time>2021-10-23T09:12:17.000Z</time>
      </trkpt>
      <trkpt lat="47.89828" lon="6.88452">
        <ele>819.6</ele>
        <time>2021-10-23T09:12:25.000Z</time>
      </trkpt>
      <trkpt lat="47.89823" lon="6.88439">
        <ele>819.6</ele>
        <time>2021-10-23T09:12:34.000Z</time>
      </trkpt>
      <trkpt lat="47.89818" lon="6.88428">
        <ele>820.7</ele>
        <time>2021-10-23T09:12:41.000Z</time>
      </trkpt>
      <trkpt lat="47.89813" lon="6.88416">
        <ele>821.5</ele>
        <time>2021-10-23T09:12:49.000Z</time>
      </trkpt>
      <trkpt lat="47.89808" lon="6.88404">
        <ele>822.3</ele>
        <time>2021-10-23T09:12:57.000Z</time>
      </trkpt>
      <trkpt lat="47.89801" lon="6.88393">
        <ele>823.3</ele>
        <time>2021-10-23T09:13:06.000Z</time>
      </trkpt>
      <trkpt lat="47.89793" lon="6.88385">
        <ele>824.4</ele>
        <time>2021-10-23T09:13:15.000Z</time>
      </trkpt>
      <trkpt lat="47.89785" lon="6.88377">
        <ele>825.7</ele>
        <time>2021-10-23T09:13:24.000Z</time>
      </trkpt>
      <trkpt lat="47.89776" lon="6.8837">
        <ele>827.7</ele>
        <time>2021-10-23T09:13:31.000Z</time>
      </trkpt>
      <trkpt lat="47.89769" lon="6.8836">
        <ele>828.1</ele>
        <time>2021-10-23T09:13:40.000Z</time>
      </trkpt>
      <trkpt lat="47.89762" lon="6.8835">
        <ele>828.8</ele>
        <time>2021-10-23T09:13:49.000Z</time>
      </trkpt>
      <trkpt lat="47.89753" lon="6.88341">
        <ele>830.5</ele>
        <time>2021-10-23T09:13:56.000Z</time>
      </trkpt>
      <trkpt lat="47.89744" lon="6.88337">
        <ele>833.5</ele>
        <time>2021-10-23T09:14:01.000Z</time>
      </trkpt>
      <trkpt lat="47.89736" lon="6.88328">
        <ele>834.3</ele>
        <time>2021-10-23T09:14:10.000Z</time>
      </trkpt>
      <trkpt lat="47.89728" lon="6.88322">
        <ele>836.8</ele>
        <time>2021-10-23T09:14:18.000Z</time>
      </trkpt>
      <trkpt lat="47.89722" lon="6.88311">
        <ele>836.5</ele>
        <time>2021-10-23T09:14:27.000Z</time>
      </trkpt>
      <trkpt lat="47.89717" lon="6.88296">
        <ele>836.2</ele>
        <time>2021-10-23T09:14:34.000Z</time>
      </trkpt>
      <trkpt lat="47.89711" lon="6.88286">
        <ele>836.9</ele>
        <time>2021-10-23T09:14:42.000Z</time>
      </trkpt>
      <trkpt lat="47.89705" lon="6.88274">
        <ele>836.4</ele>
        <time>2021-10-23T09:14:53.000Z</time>
      </trkpt>
      <trkpt lat="47.89697" lon="6.88266">
        <ele>837.4</ele>
        <time>2021-10-23T09:15:04.000Z</time>
      </trkpt>
      <trkpt lat="47.8969" lon="6.88258">
        <ele>837.8</ele>
        <time>2021-10-23T09:15:14.000Z</time>
      </trkpt>
      <trkpt lat="47.89683" lon="6.88249">
        <ele>837.9</ele>
        <time>2021-10-23T09:15:21.000Z</time>
      </trkpt>
      <trkpt lat="47.89675" lon="6.88242">
        <ele>838.5</ele>
        <time>2021-10-23T09:15:28.000Z</time>
      </trkpt>
      <trkpt lat="47.89666" lon="6.88234">
        <ele>839.6</ele>
        <time>2021-10-23T09:15:37.000Z</time>
      </trkpt>
      <trkpt lat="47.89657" lon="6.8823">
        <ele>841.4</ele>
        <time>2021-10-23T09:15:46.000Z</time>
      </trkpt>
      <trkpt lat="47.89648" lon="6.88224">
        <ele>842.4</ele>
        <time>2021-10-23T09:15:54.000Z</time>
      </trkpt>
      <trkpt lat="47.8964" lon="6.88219">
        <ele>843.6</ele>
        <time>2021-10-23T09:16:02.000Z</time>
      </trkpt>
      <trkpt lat="47.8963" lon="6.88215">
        <ele>844.3</ele>
        <time>2021-10-23T09:16:10.000Z</time>
      </trkpt>
      <trkpt lat="47.89622" lon="6.88209">
        <ele>844.6</ele>
        <time>2021-10-23T09:16:19.000Z</time>
      </trkpt>
      <trkpt lat="47.89613" lon="6.88206">
        <ele>845.9</ele>
        <time>2021-10-23T09:16:26.000Z</time>
      </trkpt>
      <trkpt lat="47.89603" lon="6.88203">
        <ele>846.3</ele>
        <time>2021-10-23T09:16:34.000Z</time>
      </trkpt>
      <trkpt lat="47.89593" lon="6.88199">
        <ele>846.7</ele>
        <time>2021-10-23T09:16:42.000Z</time>
      </trkpt>
      <trkpt lat="47.89584" lon="6.882">
        <ele>847.9</ele>
        <time>2021-10-23T09:16:49.000Z</time>
      </trkpt>
      <trkpt lat="47.89574" lon="6.88203">
        <ele>849.2</ele>
        <time>2021-10-23T09:16:56.000Z</time>
      </trkpt>
      <trkpt lat="47.89567" lon="6.88211">
        <ele>850.4</ele>
        <time>2021-10-23T09:17:04.000Z</time>
      </trkpt>
      <trkpt lat="47.89557" lon="6.88214">
        <ele>850.7</ele>
        <time>2021-10-23T09:17:16.000Z</time>
      </trkpt>
      <trkpt lat="47.89548" lon="6.88214">
        <ele>849.2</ele>
        <time>2021-10-23T09:17:42.000Z</time>
      </trkpt>
      <trkpt lat="47.89557" lon="6.88217">
        <ele>850.8</ele>
        <time>2021-10-23T09:17:58.000Z</time>
      </trkpt>
      <trkpt lat="47.89566" lon="6.88213">
        <ele>850.6</ele>
        <time>2021-10-23T09:18:11.000Z</time>
      </trkpt>
      <trkpt lat="47.89575" lon="6.88207">
        <ele>849.6</ele>
        <time>2021-10-23T09:18:27.000Z</time>
      </trkpt>
      <trkpt lat="47.89565" lon="6.88214">
        <ele>850.7</ele>
        <time>2021-10-23T09:18:41.000Z</time>
      </trkpt>
      <trkpt lat="47.89561" lon="6.88227">
        <ele>851.5</ele>
        <time>2021-10-23T09:18:58.000Z</time>
      </trkpt>
      <trkpt lat="47.89553" lon="6.88234">
        <ele>850.9</ele>
        <time>2021-10-23T09:19:18.000Z</time>
      </trkpt>
      <trkpt lat="47.89562" lon="6.8825">
        <ele>853.2</ele>
        <time>2021-10-23T09:19:23.000Z</time>
      </trkpt>
      <trkpt lat="47.89533" lon="6.88224">
        <ele>847.5</ele>
        <time>2021-10-23T09:19:30.000Z</time>
      </trkpt>
      <trkpt lat="47.89549" lon="6.88218">
        <ele>849.8</ele>
        <time>2021-10-23T09:19:35.000Z</time>
      </trkpt>
      <trkpt lat="47.89562" lon="6.88228">
        <ele>851.7</ele>
        <time>2021-10-23T09:19:40.000Z</time>
      </trkpt>
      <trkpt lat="47.89572" lon="6.88226">
        <ele>852</ele>
        <time>2021-10-23T09:19:48.000Z</time>
      </trkpt>
      <trkpt lat="47.89581" lon="6.88228">
        <ele>852.9</ele>
        <time>2021-10-23T09:20:01.000Z</time>
      </trkpt>
      <trkpt lat="47.89588" lon="6.88236">
        <ele>854.5</ele>
        <time>2021-10-23T09:20:09.000Z</time>
      </trkpt>
      <trkpt lat="47.89598" lon="6.88239">
        <ele>854.9</ele>
        <time>2021-10-23T09:20:22.000Z</time>
      </trkpt>
      <trkpt lat="47.89608" lon="6.88243">
        <ele>855.6</ele>
        <time>2021-10-23T09:20:30.000Z</time>
      </trkpt>
      <trkpt lat="47.89617" lon="6.88246">
        <ele>855.4</ele>
        <time>2021-10-23T09:20:38.000Z</time>
      </trkpt>
      <trkpt lat="47.89625" lon="6.88252">
        <ele>855.9</ele>
        <time>2021-10-23T09:20:45.000Z</time>
      </trkpt>
      <trkpt lat="47.89635" lon="6.88256">
        <ele>856.2</ele>
        <time>2021-10-23T09:20:53.000Z</time>
      </trkpt>
      <trkpt lat="47.89643" lon="6.88265">
        <ele>857.6</ele>
        <time>2021-10-23T09:21:03.000Z</time>
      </trkpt>
      <trkpt lat="47.89648" lon="6.88278">
        <ele>860.1</ele>
        <time>2021-10-23T09:21:14.000Z</time>
      </trkpt>
      <trkpt lat="47.89656" lon="6.88286">
        <ele>860.1</ele>
        <time>2021-10-23T09:21:23.000Z</time>
      </trkpt>
      <trkpt lat="47.8966" lon="6.88298">
        <ele>862.4</ele>
        <time>2021-10-23T09:21:32.000Z</time>
      </trkpt>
      <trkpt lat="47.89666" lon="6.88309">
        <ele>864.1</ele>
        <time>2021-10-23T09:21:41.000Z</time>
      </trkpt>
      <trkpt lat="47.89672" lon="6.88319">
        <ele>863.8</ele>
        <time>2021-10-23T09:21:50.000Z</time>
      </trkpt>
      <trkpt lat="47.89677" lon="6.8833">
        <ele>864</ele>
        <time>2021-10-23T09:21:59.000Z</time>
      </trkpt>
      <trkpt lat="47.8968" lon="6.88345">
        <ele>865.4</ele>
        <time>2021-10-23T09:22:09.000Z</time>
      </trkpt>
      <trkpt lat="47.8968" lon="6.88359">
        <ele>867</ele>
        <time>2021-10-23T09:22:20.000Z</time>
      </trkpt>
      <trkpt lat="47.89682" lon="6.88372">
        <ele>867.9</ele>
        <time>2021-10-23T09:22:29.000Z</time>
      </trkpt>
      <trkpt lat="47.89684" lon="6.88386">
        <ele>868.7</ele>
        <time>2021-10-23T09:22:37.000Z</time>
      </trkpt>
      <trkpt lat="47.89687" lon="6.88399">
        <ele>870.3</ele>
        <time>2021-10-23T09:22:44.000Z</time>
      </trkpt>
      <trkpt lat="47.8969" lon="6.88412">
        <ele>871.8</ele>
        <time>2021-10-23T09:22:53.000Z</time>
      </trkpt>
      <trkpt lat="47.89691" lon="6.88425">
        <ele>872.8</ele>
        <time>2021-10-23T09:23:01.000Z</time>
      </trkpt>
      <trkpt lat="47.89693" lon="6.88439">
        <ele>873.2</ele>
        <time>2021-10-23T09:23:11.000Z</time>
      </trkpt>
      <trkpt lat="47.89698" lon="6.88452">
        <ele>872.3</ele>
        <time>2021-10-23T09:23:20.000Z</time>
      </trkpt>
      <trkpt lat="47.897" lon="6.88465">
        <ele>873</ele>
        <time>2021-10-23T09:23:27.000Z</time>
      </trkpt>
      <trkpt lat="47.89704" lon="6.88477">
        <ele>873</ele>
        <time>2021-10-23T09:23:35.000Z</time>
      </trkpt>
      <trkpt lat="47.89707" lon="6.8849">
        <ele>873.7</ele>
        <time>2021-10-23T09:23:43.000Z</time>
      </trkpt>
      <trkpt lat="47.89711" lon="6.88504">
        <ele>874.2</ele>
        <time>2021-10-23T09:23:52.000Z</time>
      </trkpt>
      <trkpt lat="47.89715" lon="6.88517">
        <ele>874.4</ele>
        <time>2021-10-23T09:23:59.000Z</time>
      </trkpt>
      <trkpt lat="47.89718" lon="6.8853">
        <ele>874.9</ele>
        <time>2021-10-23T09:24:06.000Z</time>
      </trkpt>
      <trkpt lat="47.89724" lon="6.88541">
        <ele>874.9</ele>
        <time>2021-10-23T09:24:14.000Z</time>
      </trkpt>
      <trkpt lat="47.89728" lon="6.88555">
        <ele>875.6</ele>
        <time>2021-10-23T09:24:22.000Z</time>
      </trkpt>
      <trkpt lat="47.89734" lon="6.88567">
        <ele>875.3</ele>
        <time>2021-10-23T09:24:30.000Z</time>
      </trkpt>
      <trkpt lat="47.89737" lon="6.8858">
        <ele>876</ele>
        <time>2021-10-23T09:24:38.000Z</time>
      </trkpt>
      <trkpt lat="47.89741" lon="6.88593">
        <ele>876.7</ele>
        <time>2021-10-23T09:24:47.000Z</time>
      </trkpt>
      <trkpt lat="47.89743" lon="6.88606">
        <ele>877.9</ele>
        <time>2021-10-23T09:24:54.000Z</time>
      </trkpt>
      <trkpt lat="47.89748" lon="6.88619">
        <ele>878.5</ele>
        <time>2021-10-23T09:25:02.000Z</time>
      </trkpt>
      <trkpt lat="47.89753" lon="6.88633">
        <ele>879.4</ele>
        <time>2021-10-23T09:25:10.000Z</time>
      </trkpt>
      <trkpt lat="47.89757" lon="6.88644">
        <ele>879.5</ele>
        <time>2021-10-23T09:25:18.000Z</time>
      </trkpt>
      <trkpt lat="47.89759" lon="6.88658">
        <ele>881.4</ele>
        <time>2021-10-23T09:25:24.000Z</time>
      </trkpt>
      <trkpt lat="47.89765" lon="6.88672">
        <ele>881.1</ele>
        <time>2021-10-23T09:25:32.000Z</time>
      </trkpt>
      <trkpt lat="47.89771" lon="6.88685">
        <ele>880</ele>
        <time>2021-10-23T09:25:44.000Z</time>
      </trkpt>
      <trkpt lat="47.89774" lon="6.88698">
        <ele>880.7</ele>
        <time>2021-10-23T09:25:51.000Z</time>
      </trkpt>
      <trkpt lat="47.89775" lon="6.88713">
        <ele>883.2</ele>
        <time>2021-10-23T09:25:57.000Z</time>
      </trkpt>
      <trkpt lat="47.8978" lon="6.88726">
        <ele>883.9</ele>
        <time>2021-10-23T09:26:08.000Z</time>
      </trkpt>
      <trkpt lat="47.89783" lon="6.88738">
        <ele>885</ele>
        <time>2021-10-23T09:26:17.000Z</time>
      </trkpt>
      <trkpt lat="47.89788" lon="6.8875">
        <ele>885.4</ele>
        <time>2021-10-23T09:26:25.000Z</time>
      </trkpt>
      <trkpt lat="47.89794" lon="6.88761">
        <ele>884.8</ele>
        <time>2021-10-23T09:26:34.000Z</time>
      </trkpt>
      <trkpt lat="47.89798" lon="6.88774">
        <ele>886.2</ele>
        <time>2021-10-23T09:26:41.000Z</time>
      </trkpt>
      <trkpt lat="47.89799" lon="6.88788">
        <ele>888.4</ele>
        <time>2021-10-23T09:26:48.000Z</time>
      </trkpt>
      <trkpt lat="47.89805" lon="6.888">
        <ele>886.3</ele>
        <time>2021-10-23T09:26:57.000Z</time>
      </trkpt>
      <trkpt lat="47.89807" lon="6.88813">
        <ele>888.3</ele>
        <time>2021-10-23T09:27:05.000Z</time>
      </trkpt>
      <trkpt lat="47.89812" lon="6.88825">
        <ele>888.6</ele>
        <time>2021-10-23T09:27:13.000Z</time>
      </trkpt>
      <trkpt lat="47.89816" lon="6.88838">
        <ele>890.2</ele>
        <time>2021-10-23T09:27:23.000Z</time>
      </trkpt>
      <trkpt lat="47.89824" lon="6.88846">
        <ele>889.3</ele>
        <time>2021-10-23T09:27:32.000Z</time>
      </trkpt>
      <trkpt lat="47.89831" lon="6.88855">
        <ele>889.2</ele>
        <time>2021-10-23T09:27:40.000Z</time>
      </trkpt>
      <trkpt lat="47.89833" lon="6.88869">
        <ele>891.6</ele>
        <time>2021-10-23T09:27:48.000Z</time>
      </trkpt>
      <trkpt lat="47.89837" lon="6.88882">
        <ele>892.4</ele>
        <time>2021-10-23T09:27:57.000Z</time>
      </trkpt>
      <trkpt lat="47.89842" lon="6.88896">
        <ele>893</ele>
        <time>2021-10-23T09:28:07.000Z</time>
      </trkpt>
      <trkpt lat="47.89842" lon="6.88909">
        <ele>895.8</ele>
        <time>2021-10-23T09:28:14.000Z</time>
      </trkpt>
      <trkpt lat="47.89848" lon="6.88921">
        <ele>896</ele>
        <time>2021-10-23T09:28:23.000Z</time>
      </trkpt>
      <trkpt lat="47.89849" lon="6.88936">
        <ele>899.2</ele>
        <time>2021-10-23T09:28:32.000Z</time>
      </trkpt>
      <trkpt lat="47.89853" lon="6.88948">
        <ele>901.2</ele>
        <time>2021-10-23T09:28:40.000Z</time>
      </trkpt>
      <trkpt lat="47.89859" lon="6.88959">
        <ele>901.8</ele>
        <time>2021-10-23T09:28:50.000Z</time>
      </trkpt>
      <trkpt lat="47.89866" lon="6.88969">
        <ele>902.2</ele>
        <time>2021-10-23T09:29:00.000Z</time>
      </trkpt>
      <trkpt lat="47.89866" lon="6.88983">
        <ele>904.8</ele>
        <time>2021-10-23T09:29:08.000Z</time>
      </trkpt>
      <trkpt lat="47.89868" lon="6.88996">
        <ele>905.7</ele>
        <time>2021-10-23T09:29:16.000Z</time>
      </trkpt>
      <trkpt lat="47.8987" lon="6.8901">
        <ele>906.9</ele>
        <time>2021-10-23T09:29:26.000Z</time>
      </trkpt>
      <trkpt lat="47.89875" lon="6.89022">
        <ele>906.4</ele>
        <time>2021-10-23T09:29:38.000Z</time>
      </trkpt>
      <trkpt lat="47.89881" lon="6.89034">
        <ele>906.6</ele>
        <time>2021-10-23T09:29:48.000Z</time>
      </trkpt>
      <trkpt lat="47.89887" lon="6.89047">
        <ele>907.4</ele>
        <time>2021-10-23T09:29:58.000Z</time>
      </trkpt>
      <trkpt lat="47.89889" lon="6.8906">
        <ele>910.3</ele>
        <time>2021-10-23T09:30:06.000Z</time>
      </trkpt>
      <trkpt lat="47.8989" lon="6.89074">
        <ele>913.1</ele>
        <time>2021-10-23T09:30:13.000Z</time>
      </trkpt>
      <trkpt lat="47.89893" lon="6.89087">
        <ele>914.5</ele>
        <time>2021-10-23T09:30:22.000Z</time>
      </trkpt>
      <trkpt lat="47.89898" lon="6.89099">
        <ele>914.9</ele>
        <time>2021-10-23T09:30:32.000Z</time>
      </trkpt>
      <trkpt lat="47.89901" lon="6.89112">
        <ele>916.2</ele>
        <time>2021-10-23T09:30:42.000Z</time>
      </trkpt>
      <trkpt lat="47.89908" lon="6.89123">
        <ele>915.4</ele>
        <time>2021-10-23T09:30:51.000Z</time>
      </trkpt>
      <trkpt lat="47.89912" lon="6.89137">
        <ele>917.1</ele>
        <time>2021-10-23T09:31:00.000Z</time>
      </trkpt>
      <trkpt lat="47.89914" lon="6.89151">
        <ele>919</ele>
        <time>2021-10-23T09:31:07.000Z</time>
      </trkpt>
      <trkpt lat="47.89917" lon="6.89165">
        <ele>919.6</ele>
        <time>2021-10-23T09:31:14.000Z</time>
      </trkpt>
      <trkpt lat="47.89923" lon="6.89175">
        <ele>917.6</ele>
        <time>2021-10-23T09:31:24.000Z</time>
      </trkpt>
      <trkpt lat="47.89928" lon="6.89188">
        <ele>917.3</ele>
        <time>2021-10-23T09:31:33.000Z</time>
      </trkpt>
      <trkpt lat="47.89932" lon="6.89201">
        <ele>917.9</ele>
        <time>2021-10-23T09:31:41.000Z</time>
      </trkpt>
      <trkpt lat="47.89932" lon="6.89216">
        <ele>921.1</ele>
        <time>2021-10-23T09:31:50.000Z</time>
      </trkpt>
      <trkpt lat="47.89935" lon="6.89229">
        <ele>922.7</ele>
        <time>2021-10-23T09:31:57.000Z</time>
      </trkpt>
      <trkpt lat="47.89939" lon="6.89242">
        <ele>923.6</ele>
        <time>2021-10-23T09:32:06.000Z</time>
      </trkpt>
      <trkpt lat="47.89945" lon="6.89253">
        <ele>923.6</ele>
        <time>2021-10-23T09:32:15.000Z</time>
      </trkpt>
      <trkpt lat="47.89947" lon="6.89268">
        <ele>925.4</ele>
        <time>2021-10-23T09:32:24.000Z</time>
      </trkpt>
      <trkpt lat="47.89948" lon="6.89283">
        <ele>927.9</ele>
        <time>2021-10-23T09:32:55.000Z</time>
      </trkpt>
      <trkpt lat="47.89952" lon="6.89296">
        <ele>927.8</ele>
        <time>2021-10-23T09:33:05.000Z</time>
      </trkpt>
      <trkpt lat="47.89958" lon="6.89308">
        <ele>926.8</ele>
        <time>2021-10-23T09:33:14.000Z</time>
      </trkpt>
      <trkpt lat="47.89961" lon="6.89321">
        <ele>927.3</ele>
        <time>2021-10-23T09:33:23.000Z</time>
      </trkpt>
      <trkpt lat="47.89965" lon="6.89334">
        <ele>927.2</ele>
        <time>2021-10-23T09:33:32.000Z</time>
      </trkpt>
      <trkpt lat="47.89963" lon="6.89348">
        <ele>929.8</ele>
        <time>2021-10-23T09:33:38.000Z</time>
      </trkpt>
      <trkpt lat="47.89968" lon="6.89359">
        <ele>928.6</ele>
        <time>2021-10-23T09:33:47.000Z</time>
      </trkpt>
      <trkpt lat="47.89969" lon="6.89373">
        <ele>930.3</ele>
        <time>2021-10-23T09:33:56.000Z</time>
      </trkpt>
      <trkpt lat="47.8997" lon="6.89387">
        <ele>931.9</ele>
        <time>2021-10-23T09:34:03.000Z</time>
      </trkpt>
      <trkpt lat="47.89976" lon="6.89396">
        <ele>932</ele>
        <time>2021-10-23T09:34:11.000Z</time>
      </trkpt>
      <trkpt lat="47.89983" lon="6.89406">
        <ele>932.9</ele>
        <time>2021-10-23T09:34:22.000Z</time>
      </trkpt>
      <trkpt lat="47.8999" lon="6.89415">
        <ele>933.3</ele>
        <time>2021-10-23T09:34:29.000Z</time>
      </trkpt>
      <trkpt lat="47.89996" lon="6.89425">
        <ele>933.9</ele>
        <time>2021-10-23T09:34:36.000Z</time>
      </trkpt>
      <trkpt lat="47.90004" lon="6.89434">
        <ele>933.4</ele>
        <time>2021-10-23T09:34:43.000Z</time>
      </trkpt>
      <trkpt lat="47.9001" lon="6.89445">
        <ele>934.5</ele>
        <time>2021-10-23T09:34:52.000Z</time>
      </trkpt>
      <trkpt lat="47.90014" lon="6.89457">
        <ele>936.5</ele>
        <time>2021-10-23T09:35:00.000Z</time>
      </trkpt>
      <trkpt lat="47.90019" lon="6.89469">
        <ele>938.4</ele>
        <time>2021-10-23T09:35:09.000Z</time>
      </trkpt>
      <trkpt lat="47.90028" lon="6.89475">
        <ele>936.5</ele>
        <time>2021-10-23T09:35:17.000Z</time>
      </trkpt>
      <trkpt lat="47.90033" lon="6.89486">
        <ele>937.6</ele>
        <time>2021-10-23T09:35:26.000Z</time>
      </trkpt>
      <trkpt lat="47.90041" lon="6.89496">
        <ele>937.1</ele>
        <time>2021-10-23T09:35:34.000Z</time>
      </trkpt>
      <trkpt lat="47.90049" lon="6.89505">
        <ele>936.7</ele>
        <time>2021-10-23T09:35:41.000Z</time>
      </trkpt>
      <trkpt lat="47.90056" lon="6.89515">
        <ele>937.2</ele>
        <time>2021-10-23T09:35:49.000Z</time>
      </trkpt>
      <trkpt lat="47.90064" lon="6.89524">
        <ele>936.3</ele>
        <time>2021-10-23T09:35:56.000Z</time>
      </trkpt>
      <trkpt lat="47.9007" lon="6.89535">
        <ele>937.4</ele>
        <time>2021-10-23T09:36:03.000Z</time>
      </trkpt>
      <trkpt lat="47.90075" lon="6.89548">
        <ele>938.8</ele>
        <time>2021-10-23T09:36:11.000Z</time>
      </trkpt>
      <trkpt lat="47.90083" lon="6.89557">
        <ele>938.9</ele>
        <time>2021-10-23T09:36:20.000Z</time>
      </trkpt>
      <trkpt lat="47.90087" lon="6.8957">
        <ele>941.5</ele>
        <time>2021-10-23T09:36:28.000Z</time>
      </trkpt>
      <trkpt lat="47.90094" lon="6.89581">
        <ele>942.6</ele>
        <time>2021-10-23T09:36:36.000Z</time>
      </trkpt>
      <trkpt lat="47.90102" lon="6.89588">
        <ele>942.1</ele>
        <time>2021-10-23T09:36:45.000Z</time>
      </trkpt>
      <trkpt lat="47.90108" lon="6.89599">
        <ele>943.8</ele>
        <time>2021-10-23T09:36:56.000Z</time>
      </trkpt>
      <trkpt lat="47.90116" lon="6.89608">
        <ele>944</ele>
        <time>2021-10-23T09:37:03.000Z</time>
      </trkpt>
      <trkpt lat="47.90123" lon="6.89615">
        <ele>943.7</ele>
        <time>2021-10-23T09:37:10.000Z</time>
      </trkpt>
      <trkpt lat="47.90129" lon="6.89626">
        <ele>944.8</ele>
        <time>2021-10-23T09:37:18.000Z</time>
      </trkpt>
      <trkpt lat="47.90135" lon="6.89637">
        <ele>946.1</ele>
        <time>2021-10-23T09:37:25.000Z</time>
      </trkpt>
      <trkpt lat="47.90143" lon="6.89646">
        <ele>945.8</ele>
        <time>2021-10-23T09:37:32.000Z</time>
      </trkpt>
      <trkpt lat="47.90146" lon="6.89659">
        <ele>948.7</ele>
        <time>2021-10-23T09:37:41.000Z</time>
      </trkpt>
      <trkpt lat="47.90155" lon="6.89667">
        <ele>947.8</ele>
        <time>2021-10-23T09:37:48.000Z</time>
      </trkpt>
      <trkpt lat="47.90163" lon="6.89674">
        <ele>946.3</ele>
        <time>2021-10-23T09:37:57.000Z</time>
      </trkpt>
      <trkpt lat="47.90169" lon="6.89686">
        <ele>946.9</ele>
        <time>2021-10-23T09:38:05.000Z</time>
      </trkpt>
      <trkpt lat="47.90173" lon="6.89699">
        <ele>948.9</ele>
        <time>2021-10-23T09:38:13.000Z</time>
      </trkpt>
      <trkpt lat="47.90176" lon="6.89713">
        <ele>951.2</ele>
        <time>2021-10-23T09:38:22.000Z</time>
      </trkpt>
      <trkpt lat="47.90181" lon="6.89726">
        <ele>952.7</ele>
        <time>2021-10-23T09:38:31.000Z</time>
      </trkpt>
      <trkpt lat="47.90187" lon="6.89737">
        <ele>953.2</ele>
        <time>2021-10-23T09:38:40.000Z</time>
      </trkpt>
      <trkpt lat="47.90192" lon="6.89748">
        <ele>954.2</ele>
        <time>2021-10-23T09:38:49.000Z</time>
      </trkpt>
      <trkpt lat="47.90193" lon="6.89763">
        <ele>956.4</ele>
        <time>2021-10-23T09:38:56.000Z</time>
      </trkpt>
      <trkpt lat="47.90198" lon="6.89775">
        <ele>955.9</ele>
        <time>2021-10-23T09:39:04.000Z</time>
      </trkpt>
      <trkpt lat="47.90201" lon="6.89788">
        <ele>957</ele>
        <time>2021-10-23T09:39:12.000Z</time>
      </trkpt>
      <trkpt lat="47.90206" lon="6.898">
        <ele>957.3</ele>
        <time>2021-10-23T09:39:19.000Z</time>
      </trkpt>
      <trkpt lat="47.90211" lon="6.89812">
        <ele>957.1</ele>
        <time>2021-10-23T09:39:26.000Z</time>
      </trkpt>
      <trkpt lat="47.90216" lon="6.89823">
        <ele>956.7</ele>
        <time>2021-10-23T09:39:34.000Z</time>
      </trkpt>
      <trkpt lat="47.9022" lon="6.89836">
        <ele>957.8</ele>
        <time>2021-10-23T09:39:42.000Z</time>
      </trkpt>
      <trkpt lat="47.90222" lon="6.89849">
        <ele>958.8</ele>
        <time>2021-10-23T09:39:49.000Z</time>
      </trkpt>
      <trkpt lat="47.90226" lon="6.89863">
        <ele>959</ele>
        <time>2021-10-23T09:39:56.000Z</time>
      </trkpt>
      <trkpt lat="47.90228" lon="6.89877">
        <ele>959.8</ele>
        <time>2021-10-23T09:40:06.000Z</time>
      </trkpt>
      <trkpt lat="47.90229" lon="6.89891">
        <ele>961.2</ele>
        <time>2021-10-23T09:40:14.000Z</time>
      </trkpt>
      <trkpt lat="47.90229" lon="6.89905">
        <ele>962.8</ele>
        <time>2021-10-23T09:40:22.000Z</time>
      </trkpt>
      <trkpt lat="47.90233" lon="6.89918">
        <ele>962.4</ele>
        <time>2021-10-23T09:40:30.000Z</time>
      </trkpt>
      <trkpt lat="47.90233" lon="6.89932">
        <ele>964.1</ele>
        <time>2021-10-23T09:40:39.000Z</time>
      </trkpt>
      <trkpt lat="47.90234" lon="6.89946">
        <ele>964.7</ele>
        <time>2021-10-23T09:40:48.000Z</time>
      </trkpt>
      <trkpt lat="47.90235" lon="6.8996">
        <ele>964.9</ele>
        <time>2021-10-23T09:40:57.000Z</time>
      </trkpt>
      <trkpt lat="47.90239" lon="6.89972">
        <ele>963.1</ele>
        <time>2021-10-23T09:41:04.000Z</time>
      </trkpt>
      <trkpt lat="47.90239" lon="6.89987">
        <ele>963</ele>
        <time>2021-10-23T09:41:13.000Z</time>
      </trkpt>
      <trkpt lat="47.90239" lon="6.90001">
        <ele>963.2</ele>
        <time>2021-10-23T09:41:21.000Z</time>
      </trkpt>
      <trkpt lat="47.90235" lon="6.90013">
        <ele>962.5</ele>
        <time>2021-10-23T09:41:29.000Z</time>
      </trkpt>
      <trkpt lat="47.90227" lon="6.90022">
        <ele>964.5</ele>
        <time>2021-10-23T09:41:37.000Z</time>
      </trkpt>
      <trkpt lat="47.9022" lon="6.9003">
        <ele>967.5</ele>
        <time>2021-10-23T09:41:44.000Z</time>
      </trkpt>
      <trkpt lat="47.90214" lon="6.90041">
        <ele>967.7</ele>
        <time>2021-10-23T09:41:52.000Z</time>
      </trkpt>
      <trkpt lat="47.9021" lon="6.90053">
        <ele>966.3</ele>
        <time>2021-10-23T09:41:58.000Z</time>
      </trkpt>
      <trkpt lat="47.90205" lon="6.90066">
        <ele>965.9</ele>
        <time>2021-10-23T09:42:05.000Z</time>
      </trkpt>
      <trkpt lat="47.90201" lon="6.90078">
        <ele>966</ele>
        <time>2021-10-23T09:42:16.000Z</time>
      </trkpt>
      <trkpt lat="47.90197" lon="6.90091">
        <ele>966.2</ele>
        <time>2021-10-23T09:42:24.000Z</time>
      </trkpt>
      <trkpt lat="47.90191" lon="6.90103">
        <ele>968.5</ele>
        <time>2021-10-23T09:42:30.000Z</time>
      </trkpt>
      <trkpt lat="47.90188" lon="6.90117">
        <ele>968.1</ele>
        <time>2021-10-23T09:42:37.000Z</time>
      </trkpt>
      <trkpt lat="47.90188" lon="6.90132">
        <ele>966.5</ele>
        <time>2021-10-23T09:42:47.000Z</time>
      </trkpt>
      <trkpt lat="47.90184" lon="6.90146">
        <ele>967.9</ele>
        <time>2021-10-23T09:42:57.000Z</time>
      </trkpt>
      <trkpt lat="47.90181" lon="6.9016">
        <ele>968.7</ele>
        <time>2021-10-23T09:43:05.000Z</time>
      </trkpt>
      <trkpt lat="47.90182" lon="6.90174">
        <ele>966.8</ele>
        <time>2021-10-23T09:43:12.000Z</time>
      </trkpt>
      <trkpt lat="47.90182" lon="6.90188">
        <ele>966.9</ele>
        <time>2021-10-23T09:43:20.000Z</time>
      </trkpt>
      <trkpt lat="47.9018" lon="6.90203">
        <ele>968.6</ele>
        <time>2021-10-23T09:43:28.000Z</time>
      </trkpt>
      <trkpt lat="47.90178" lon="6.90216">
        <ele>970.8</ele>
        <time>2021-10-23T09:43:37.000Z</time>
      </trkpt>
      <trkpt lat="47.90181" lon="6.9023">
        <ele>970</ele>
        <time>2021-10-23T09:43:45.000Z</time>
      </trkpt>
      <trkpt lat="47.90184" lon="6.90243">
        <ele>969.3</ele>
        <time>2021-10-23T09:43:53.000Z</time>
      </trkpt>
      <trkpt lat="47.9019" lon="6.90255">
        <ele>966.5</ele>
        <time>2021-10-23T09:44:01.000Z</time>
      </trkpt>
      <trkpt lat="47.90193" lon="6.90269">
        <ele>965.6</ele>
        <time>2021-10-23T09:44:09.000Z</time>
      </trkpt>
      <trkpt lat="47.90194" lon="6.90283">
        <ele>966.8</ele>
        <time>2021-10-23T09:44:17.000Z</time>
      </trkpt>
      <trkpt lat="47.90196" lon="6.90297">
        <ele>968</ele>
        <time>2021-10-23T09:44:24.000Z</time>
      </trkpt>
      <trkpt lat="47.90199" lon="6.90311">
        <ele>967.5</ele>
        <time>2021-10-23T09:44:32.000Z</time>
      </trkpt>
      <trkpt lat="47.90201" lon="6.90325">
        <ele>967.5</ele>
        <time>2021-10-23T09:44:39.000Z</time>
      </trkpt>
      <trkpt lat="47.90202" lon="6.90338">
        <ele>967.8</ele>
        <time>2021-10-23T09:44:48.000Z</time>
      </trkpt>
      <trkpt lat="47.90198" lon="6.90352">
        <ele>970.5</ele>
        <time>2021-10-23T09:44:57.000Z</time>
      </trkpt>
      <trkpt lat="47.90198" lon="6.90367">
        <ele>970.9</ele>
        <time>2021-10-23T09:45:03.000Z</time>
      </trkpt>
      <trkpt lat="47.90196" lon="6.90381">
        <ele>972.1</ele>
        <time>2021-10-23T09:45:11.000Z</time>
      </trkpt>
      <trkpt lat="47.90197" lon="6.90395">
        <ele>971.6</ele>
        <time>2021-10-23T09:45:17.000Z</time>
      </trkpt>
      <trkpt lat="47.90199" lon="6.90408">
        <ele>970.9</ele>
        <time>2021-10-23T09:45:27.000Z</time>
      </trkpt>
      <trkpt lat="47.90195" lon="6.90421">
        <ele>972.8</ele>
        <time>2021-10-23T09:45:34.000Z</time>
      </trkpt>
      <trkpt lat="47.90194" lon="6.90434">
        <ele>973.8</ele>
        <time>2021-10-23T09:45:42.000Z</time>
      </trkpt>
      <trkpt lat="47.90195" lon="6.90448">
        <ele>973.5</ele>
        <time>2021-10-23T09:45:50.000Z</time>
      </trkpt>
      <trkpt lat="47.90194" lon="6.90463">
        <ele>973</ele>
        <time>2021-10-23T09:45:58.000Z</time>
      </trkpt>
      <trkpt lat="47.90192" lon="6.90477">
        <ele>972.1</ele>
        <time>2021-10-23T09:46:06.000Z</time>
      </trkpt>
      <trkpt lat="47.9019" lon="6.90491">
        <ele>971</ele>
        <time>2021-10-23T09:46:14.000Z</time>
      </trkpt>
      <trkpt lat="47.90184" lon="6.90503">
        <ele>970.3</ele>
        <time>2021-10-23T09:46:21.000Z</time>
      </trkpt>
      <trkpt lat="47.90177" lon="6.90512">
        <ele>970.2</ele>
        <time>2021-10-23T09:46:28.000Z</time>
      </trkpt>
      <trkpt lat="47.9018" lon="6.90525">
        <ele>968.7</ele>
        <time>2021-10-23T09:46:37.000Z</time>
      </trkpt>
      <trkpt lat="47.90179" lon="6.90539">
        <ele>969.4</ele>
        <time>2021-10-23T09:46:42.000Z</time>
      </trkpt>
      <trkpt lat="47.90185" lon="6.90549">
        <ele>970.5</ele>
        <time>2021-10-23T09:47:09.000Z</time>
      </trkpt>
      <trkpt lat="47.90191" lon="6.90561">
        <ele>971.6</ele>
        <time>2021-10-23T09:47:19.000Z</time>
      </trkpt>
      <trkpt lat="47.90195" lon="6.90576">
        <ele>973.2</ele>
        <time>2021-10-23T09:47:27.000Z</time>
      </trkpt>
      <trkpt lat="47.90193" lon="6.9059">
        <ele>974.4</ele>
        <time>2021-10-23T09:47:36.000Z</time>
      </trkpt>
      <trkpt lat="47.90195" lon="6.90605">
        <ele>975.5</ele>
        <time>2021-10-23T09:47:44.000Z</time>
      </trkpt>
      <trkpt lat="47.90198" lon="6.90618">
        <ele>975.6</ele>
        <time>2021-10-23T09:47:51.000Z</time>
      </trkpt>
      <trkpt lat="47.90199" lon="6.90633">
        <ele>976</ele>
        <time>2021-10-23T09:48:01.000Z</time>
      </trkpt>
      <trkpt lat="47.90198" lon="6.90647">
        <ele>977.2</ele>
        <time>2021-10-23T09:48:09.000Z</time>
      </trkpt>
      <trkpt lat="47.90199" lon="6.90661">
        <ele>978.3</ele>
        <time>2021-10-23T09:48:16.000Z</time>
      </trkpt>
      <trkpt lat="47.90207" lon="6.90665">
        <ele>978.3</ele>
        <time>2021-10-23T09:48:24.000Z</time>
      </trkpt>
      <trkpt lat="47.90206" lon="6.90679">
        <ele>980.4</ele>
        <time>2021-10-23T09:48:33.000Z</time>
      </trkpt>
      <trkpt lat="47.90209" lon="6.90692">
        <ele>982.7</ele>
        <time>2021-10-23T09:48:42.000Z</time>
      </trkpt>
      <trkpt lat="47.90212" lon="6.90705">
        <ele>985.4</ele>
        <time>2021-10-23T09:48:57.000Z</time>
      </trkpt>
      <trkpt lat="47.90221" lon="6.90712">
        <ele>987.8</ele>
        <time>2021-10-23T09:49:09.000Z</time>
      </trkpt>
      <trkpt lat="47.90227" lon="6.90723">
        <ele>989.7</ele>
        <time>2021-10-23T09:49:21.000Z</time>
      </trkpt>
      <trkpt lat="47.90234" lon="6.9073">
        <ele>990.4</ele>
        <time>2021-10-23T09:49:34.000Z</time>
      </trkpt>
      <trkpt lat="47.9024" lon="6.90741">
        <ele>992.2</ele>
        <time>2021-10-23T09:49:45.000Z</time>
      </trkpt>
      <trkpt lat="47.90242" lon="6.90755">
        <ele>994.8</ele>
        <time>2021-10-23T09:49:56.000Z</time>
      </trkpt>
      <trkpt lat="47.9025" lon="6.9076">
        <ele>996.1</ele>
        <time>2021-10-23T09:50:05.000Z</time>
      </trkpt>
      <trkpt lat="47.90257" lon="6.90772">
        <ele>999.2</ele>
        <time>2021-10-23T09:50:14.000Z</time>
      </trkpt>
      <trkpt lat="47.90266" lon="6.90776">
        <ele>999.5</ele>
        <time>2021-10-23T09:50:21.000Z</time>
      </trkpt>
      <trkpt lat="47.90276" lon="6.9078">
        <ele>999.9</ele>
        <time>2021-10-23T09:50:34.000Z</time>
      </trkpt>
      <trkpt lat="47.90286" lon="6.9078">
        <ele>999.4</ele>
        <time>2021-10-23T09:50:44.000Z</time>
      </trkpt>
      <trkpt lat="47.90293" lon="6.90788">
        <ele>1002.1</ele>
        <time>2021-10-23T09:50:56.000Z</time>
      </trkpt>
      <trkpt lat="47.90302" lon="6.90791">
        <ele>1002.8</ele>
        <time>2021-10-23T09:51:05.000Z</time>
      </trkpt>
      <trkpt lat="47.90311" lon="6.90797">
        <ele>1004.9</ele>
        <time>2021-10-23T09:51:12.000Z</time>
      </trkpt>
      <trkpt lat="47.90319" lon="6.90801">
        <ele>1006.6</ele>
        <time>2021-10-23T09:51:24.000Z</time>
      </trkpt>
      <trkpt lat="47.90329" lon="6.90803">
        <ele>1007.2</ele>
        <time>2021-10-23T09:51:34.000Z</time>
      </trkpt>
      <trkpt lat="47.90338" lon="6.90809">
        <ele>1009.6</ele>
        <time>2021-10-23T09:51:44.000Z</time>
      </trkpt>
      <trkpt lat="47.90347" lon="6.90812">
        <ele>1011.7</ele>
        <time>2021-10-23T09:51:57.000Z</time>
      </trkpt>
      <trkpt lat="47.90356" lon="6.90812">
        <ele>1012.5</ele>
        <time>2021-10-23T09:52:06.000Z</time>
      </trkpt>
      <trkpt lat="47.90365" lon="6.90812">
        <ele>1013.4</ele>
        <time>2021-10-23T09:52:13.000Z</time>
      </trkpt>
      <trkpt lat="47.90374" lon="6.90815">
        <ele>1015</ele>
        <time>2021-10-23T09:52:25.000Z</time>
      </trkpt>
      <trkpt lat="47.90384" lon="6.90819">
        <ele>1016.6</ele>
        <time>2021-10-23T09:52:36.000Z</time>
      </trkpt>
      <trkpt lat="47.90393" lon="6.90824">
        <ele>1018.7</ele>
        <time>2021-10-23T09:52:48.000Z</time>
      </trkpt>
      <trkpt lat="47.90401" lon="6.90828">
        <ele>1020.8</ele>
        <time>2021-10-23T09:52:58.000Z</time>
      </trkpt>
      <trkpt lat="47.9041" lon="6.90833">
        <ele>1023.1</ele>
        <time>2021-10-23T09:53:07.000Z</time>
      </trkpt>
      <trkpt lat="47.90419" lon="6.90837">
        <ele>1025.1</ele>
        <time>2021-10-23T09:53:19.000Z</time>
      </trkpt>
      <trkpt lat="47.90429" lon="6.90838">
        <ele>1025.5</ele>
        <time>2021-10-23T09:53:28.000Z</time>
      </trkpt>
      <trkpt lat="47.90438" lon="6.90837">
        <ele>1025</ele>
        <time>2021-10-23T09:53:38.000Z</time>
      </trkpt>
      <trkpt lat="47.90445" lon="6.90846">
        <ele>1027.2</ele>
        <time>2021-10-23T09:53:52.000Z</time>
      </trkpt>
      <trkpt lat="47.90451" lon="6.90857">
        <ele>1028.3</ele>
        <time>2021-10-23T09:54:02.000Z</time>
      </trkpt>
      <trkpt lat="47.90453" lon="6.9087">
        <ele>1029.6</ele>
        <time>2021-10-23T09:54:15.000Z</time>
      </trkpt>
      <trkpt lat="47.90444" lon="6.90875">
        <ele>1033.4</ele>
        <time>2021-10-23T09:54:48.000Z</time>
      </trkpt>
      <trkpt lat="47.90435" lon="6.90876">
        <ele>1034.7</ele>
        <time>2021-10-23T09:55:03.000Z</time>
      </trkpt>
      <trkpt lat="47.90425" lon="6.90876">
        <ele>1035.8</ele>
        <time>2021-10-23T09:55:16.000Z</time>
      </trkpt>
      <trkpt lat="47.90418" lon="6.90885">
        <ele>1038.7</ele>
        <time>2021-10-23T09:55:26.000Z</time>
      </trkpt>
      <trkpt lat="47.90409" lon="6.90889">
        <ele>1040.1</ele>
        <time>2021-10-23T09:55:35.000Z</time>
      </trkpt>
      <trkpt lat="47.90401" lon="6.90895">
        <ele>1041.9</ele>
        <time>2021-10-23T09:55:44.000Z</time>
      </trkpt>
      <trkpt lat="47.90393" lon="6.909">
        <ele>1043.4</ele>
        <time>2021-10-23T09:55:57.000Z</time>
      </trkpt>
      <trkpt lat="47.90384" lon="6.90905">
        <ele>1045</ele>
        <time>2021-10-23T09:56:08.000Z</time>
      </trkpt>
      <trkpt lat="47.90376" lon="6.90912">
        <ele>1047.4</ele>
        <time>2021-10-23T09:56:20.000Z</time>
      </trkpt>
      <trkpt lat="47.90368" lon="6.90919">
        <ele>1049.5</ele>
        <time>2021-10-23T09:56:33.000Z</time>
      </trkpt>
      <trkpt lat="47.90359" lon="6.90924">
        <ele>1050.8</ele>
        <time>2021-10-23T09:56:41.000Z</time>
      </trkpt>
      <trkpt lat="47.9035" lon="6.90929">
        <ele>1051.6</ele>
        <time>2021-10-23T09:56:52.000Z</time>
      </trkpt>
      <trkpt lat="47.90341" lon="6.90935">
        <ele>1052.6</ele>
        <time>2021-10-23T09:57:04.000Z</time>
      </trkpt>
      <trkpt lat="47.90334" lon="6.90944">
        <ele>1055</ele>
        <time>2021-10-23T09:57:15.000Z</time>
      </trkpt>
      <trkpt lat="47.90325" lon="6.90948">
        <ele>1054.6</ele>
        <time>2021-10-23T09:57:25.000Z</time>
      </trkpt>
      <trkpt lat="47.90318" lon="6.90958">
        <ele>1056.2</ele>
        <time>2021-10-23T09:57:37.000Z</time>
      </trkpt>
      <trkpt lat="47.90311" lon="6.9097">
        <ele>1058.2</ele>
        <time>2021-10-23T09:57:48.000Z</time>
      </trkpt>
      <trkpt lat="47.90307" lon="6.90982">
        <ele>1061.1</ele>
        <time>2021-10-23T09:57:58.000Z</time>
      </trkpt>
      <trkpt lat="47.90299" lon="6.90992">
        <ele>1061.8</ele>
        <time>2021-10-23T09:58:08.000Z</time>
      </trkpt>
      <trkpt lat="47.90295" lon="6.91003">
        <ele>1063.8</ele>
        <time>2021-10-23T09:58:21.000Z</time>
      </trkpt>
      <trkpt lat="47.9029" lon="6.91015">
        <ele>1064.8</ele>
        <time>2021-10-23T09:58:30.000Z</time>
      </trkpt>
      <trkpt lat="47.90285" lon="6.91028">
        <ele>1066.2</ele>
        <time>2021-10-23T09:58:41.000Z</time>
      </trkpt>
      <trkpt lat="47.9028" lon="6.91041">
        <ele>1067.9</ele>
        <time>2021-10-23T09:58:52.000Z</time>
      </trkpt>
      <trkpt lat="47.90276" lon="6.91054">
        <ele>1070.3</ele>
        <time>2021-10-23T09:59:02.000Z</time>
      </trkpt>
      <trkpt lat="47.9027" lon="6.91065">
        <ele>1072.7</ele>
        <time>2021-10-23T09:59:13.000Z</time>
      </trkpt>
      <trkpt lat="47.90263" lon="6.91074">
        <ele>1074</ele>
        <time>2021-10-23T09:59:27.000Z</time>
      </trkpt>
      <trkpt lat="47.90258" lon="6.91086">
        <ele>1077.4</ele>
        <time>2021-10-23T09:59:39.000Z</time>
      </trkpt>
      <trkpt lat="47.90263" lon="6.91098">
        <ele>1082.1</ele>
        <time>2021-10-23T09:59:49.000Z</time>
      </trkpt>
      <trkpt lat="47.90273" lon="6.91098">
        <ele>1083.7</ele>
        <time>2021-10-23T10:00:02.000Z</time>
      </trkpt>
      <trkpt lat="47.90282" lon="6.91094">
        <ele>1084.1</ele>
        <time>2021-10-23T10:00:12.000Z</time>
      </trkpt>
      <trkpt lat="47.90291" lon="6.91095">
        <ele>1086</ele>
        <time>2021-10-23T10:00:20.000Z</time>
      </trkpt>
      <trkpt lat="47.90298" lon="6.91083">
        <ele>1084.3</ele>
        <time>2021-10-23T10:00:39.000Z</time>
      </trkpt>
      <trkpt lat="47.90306" lon="6.91089">
        <ele>1087.5</ele>
        <time>2021-10-23T10:01:05.000Z</time>
      </trkpt>
      <trkpt lat="47.90316" lon="6.91085">
        <ele>1088.5</ele>
        <time>2021-10-23T10:01:13.000Z</time>
      </trkpt>
      <trkpt lat="47.90325" lon="6.91087">
        <ele>1091</ele>
        <time>2021-10-23T10:01:25.000Z</time>
      </trkpt>
      <trkpt lat="47.90335" lon="6.91086">
        <ele>1092.6</ele>
        <time>2021-10-23T10:01:38.000Z</time>
      </trkpt>
      <trkpt lat="47.90343" lon="6.91081">
        <ele>1092.9</ele>
        <time>2021-10-23T10:01:47.000Z</time>
      </trkpt>
      <trkpt lat="47.90351" lon="6.91088">
        <ele>1095.2</ele>
        <time>2021-10-23T10:02:00.000Z</time>
      </trkpt>
      <trkpt lat="47.90356" lon="6.91099">
        <ele>1097.7</ele>
        <time>2021-10-23T10:02:15.000Z</time>
      </trkpt>
      <trkpt lat="47.90357" lon="6.91113">
        <ele>1099.8</ele>
        <time>2021-10-23T10:02:30.000Z</time>
      </trkpt>
      <trkpt lat="47.90351" lon="6.91123">
        <ele>1100.5</ele>
        <time>2021-10-23T10:02:40.000Z</time>
      </trkpt>
      <trkpt lat="47.90346" lon="6.91134">
        <ele>1101.8</ele>
        <time>2021-10-23T10:02:51.000Z</time>
      </trkpt>
      <trkpt lat="47.90342" lon="6.91147">
        <ele>1102.6</ele>
        <time>2021-10-23T10:03:01.000Z</time>
      </trkpt>
      <trkpt lat="47.90338" lon="6.91159">
        <ele>1103.6</ele>
        <time>2021-10-23T10:03:10.000Z</time>
      </trkpt>
      <trkpt lat="47.9033" lon="6.91166">
        <ele>1105.1</ele>
        <time>2021-10-23T10:03:20.000Z</time>
      </trkpt>
      <trkpt lat="47.90321" lon="6.91173">
        <ele>1105.1</ele>
        <time>2021-10-23T10:03:32.000Z</time>
      </trkpt>
      <trkpt lat="47.90314" lon="6.91182">
        <ele>1106.7</ele>
        <time>2021-10-23T10:03:43.000Z</time>
      </trkpt>
      <trkpt lat="47.90305" lon="6.91189">
        <ele>1109.9</ele>
        <time>2021-10-23T10:03:55.000Z</time>
      </trkpt>
      <trkpt lat="47.90297" lon="6.91196">
        <ele>1111.4</ele>
        <time>2021-10-23T10:04:07.000Z</time>
      </trkpt>
      <trkpt lat="47.90289" lon="6.91201">
        <ele>1112.6</ele>
        <time>2021-10-23T10:04:18.000Z</time>
      </trkpt>
      <trkpt lat="47.90281" lon="6.9121">
        <ele>1115.3</ele>
        <time>2021-10-23T10:04:34.000Z</time>
      </trkpt>
      <trkpt lat="47.90275" lon="6.91221">
        <ele>1118.9</ele>
        <time>2021-10-23T10:04:47.000Z</time>
      </trkpt>
      <trkpt lat="47.9027" lon="6.91232">
        <ele>1120.6</ele>
        <time>2021-10-23T10:04:59.000Z</time>
      </trkpt>
      <trkpt lat="47.90266" lon="6.91245">
        <ele>1122.6</ele>
        <time>2021-10-23T10:05:12.000Z</time>
      </trkpt>
      <trkpt lat="47.90262" lon="6.91258">
        <ele>1125.2</ele>
        <time>2021-10-23T10:05:47.000Z</time>
      </trkpt>
      <trkpt lat="47.90258" lon="6.9127">
        <ele>1128.4</ele>
        <time>2021-10-23T10:05:57.000Z</time>
      </trkpt>
      <trkpt lat="47.90256" lon="6.91284">
        <ele>1131.2</ele>
        <time>2021-10-23T10:06:10.000Z</time>
      </trkpt>
      <trkpt lat="47.90254" lon="6.91297">
        <ele>1133.4</ele>
        <time>2021-10-23T10:06:21.000Z</time>
      </trkpt>
      <trkpt lat="47.90252" lon="6.91311">
        <ele>1136.2</ele>
        <time>2021-10-23T10:06:34.000Z</time>
      </trkpt>
      <trkpt lat="47.90251" lon="6.91325">
        <ele>1139.3</ele>
        <time>2021-10-23T10:06:46.000Z</time>
      </trkpt>
      <trkpt lat="47.90247" lon="6.91338">
        <ele>1140.9</ele>
        <time>2021-10-23T10:06:59.000Z</time>
      </trkpt>
      <trkpt lat="47.90247" lon="6.91352">
        <ele>1141.6</ele>
        <time>2021-10-23T10:07:39.000Z</time>
      </trkpt>
      <trkpt lat="47.90247" lon="6.91366">
        <ele>1142.2</ele>
        <time>2021-10-23T10:07:48.000Z</time>
      </trkpt>
      <trkpt lat="47.90245" lon="6.91379">
        <ele>1142.9</ele>
        <time>2021-10-23T10:07:57.000Z</time>
      </trkpt>
      <trkpt lat="47.90243" lon="6.91393">
        <ele>1143.7</ele>
        <time>2021-10-23T10:08:08.000Z</time>
      </trkpt>
      <trkpt lat="47.90243" lon="6.91406">
        <ele>1144.5</ele>
        <time>2021-10-23T10:08:18.000Z</time>
      </trkpt>
      <trkpt lat="47.90244" lon="6.91419">
        <ele>1145.2</ele>
        <time>2021-10-23T10:08:29.000Z</time>
      </trkpt>
      <trkpt lat="47.90242" lon="6.91434">
        <ele>1147.5</ele>
        <time>2021-10-23T10:08:45.000Z</time>
      </trkpt>
      <trkpt lat="47.90244" lon="6.9145">
        <ele>1149.5</ele>
        <time>2021-10-23T10:08:54.000Z</time>
      </trkpt>
      <trkpt lat="47.90248" lon="6.91463">
        <ele>1151.6</ele>
        <time>2021-10-23T10:09:04.000Z</time>
      </trkpt>
      <trkpt lat="47.90252" lon="6.91475">
        <ele>1152.6</ele>
        <time>2021-10-23T10:09:15.000Z</time>
      </trkpt>
      <trkpt lat="47.90252" lon="6.91489">
        <ele>1154.8</ele>
        <time>2021-10-23T10:09:27.000Z</time>
      </trkpt>
      <trkpt lat="47.90245" lon="6.91499">
        <ele>1157.4</ele>
        <time>2021-10-23T10:09:40.000Z</time>
      </trkpt>
      <trkpt lat="47.90238" lon="6.91509">
        <ele>1159.9</ele>
        <time>2021-10-23T10:09:55.000Z</time>
      </trkpt>
      <trkpt lat="47.90228" lon="6.9151">
        <ele>1161.1</ele>
        <time>2021-10-23T10:10:03.000Z</time>
      </trkpt>
      <trkpt lat="47.90222" lon="6.9152">
        <ele>1163.5</ele>
        <time>2021-10-23T10:10:14.000Z</time>
      </trkpt>
      <trkpt lat="47.90219" lon="6.91533">
        <ele>1165.6</ele>
        <time>2021-10-23T10:10:24.000Z</time>
      </trkpt>
      <trkpt lat="47.90217" lon="6.91547">
        <ele>1167.7</ele>
        <time>2021-10-23T10:10:36.000Z</time>
      </trkpt>
      <trkpt lat="47.90213" lon="6.91559">
        <ele>1169.8</ele>
        <time>2021-10-23T10:10:48.000Z</time>
      </trkpt>
      <trkpt lat="47.9021" lon="6.91572">
        <ele>1172.6</ele>
        <time>2021-10-23T10:11:01.000Z</time>
      </trkpt>
      <trkpt lat="47.90208" lon="6.91586">
        <ele>1175.8</ele>
        <time>2021-10-23T10:11:15.000Z</time>
      </trkpt>
      <trkpt lat="47.90209" lon="6.916">
        <ele>1179.7</ele>
        <time>2021-10-23T10:11:29.000Z</time>
      </trkpt>
      <trkpt lat="47.90208" lon="6.91613">
        <ele>1183.6</ele>
        <time>2021-10-23T10:11:46.000Z</time>
      </trkpt>
      <trkpt lat="47.90207" lon="6.91627">
        <ele>1188</ele>
        <time>2021-10-23T10:12:06.000Z</time>
      </trkpt>
      <trkpt lat="47.90207" lon="6.91641">
        <ele>1192.1</ele>
        <time>2021-10-23T10:12:24.000Z</time>
      </trkpt>
      <trkpt lat="47.9021" lon="6.91655">
        <ele>1194.8</ele>
        <time>2021-10-23T10:12:38.000Z</time>
      </trkpt>
      <trkpt lat="47.90216" lon="6.91666">
        <ele>1197.6</ele>
        <time>2021-10-23T10:12:52.000Z</time>
      </trkpt>
      <trkpt lat="47.90216" lon="6.91679">
        <ele>1197.8</ele>
        <time>2021-10-23T10:13:06.000Z</time>
      </trkpt>
      <trkpt lat="47.90209" lon="6.91689">
        <ele>1197.5</ele>
        <time>2021-10-23T10:15:56.000Z</time>
      </trkpt>
      <trkpt lat="47.90216" lon="6.91681">
        <ele>1197.8</ele>
        <time>2021-10-23T10:17:40.000Z</time>
      </trkpt>
      <trkpt lat="47.90246" lon="6.91733">
        <ele>1188.5</ele>
        <time>2021-10-23T10:19:47.000Z</time>
      </trkpt>
      <trkpt lat="47.903" lon="6.91865">
        <ele>1153.3</ele>
        <time>2021-10-23T10:19:52.000Z</time>
      </trkpt>
      <trkpt lat="47.90286" lon="6.91872">
        <ele>1142.1</ele>
        <time>2021-10-23T10:20:01.000Z</time>
      </trkpt>
      <trkpt lat="47.90278" lon="6.91857">
        <ele>1143</ele>
        <time>2021-10-23T10:20:16.000Z</time>
      </trkpt>
      <trkpt lat="47.90273" lon="6.9184">
        <ele>1148.3</ele>
        <time>2021-10-23T10:20:28.000Z</time>
      </trkpt>
      <trkpt lat="47.90265" lon="6.91819">
        <ele>1156.7</ele>
        <time>2021-10-23T10:20:36.000Z</time>
      </trkpt>
      <trkpt lat="47.90257" lon="6.91797">
        <ele>1165.4</ele>
        <time>2021-10-23T10:20:44.000Z</time>
      </trkpt>
      <trkpt lat="47.9025" lon="6.91775">
        <ele>1174.3</ele>
        <time>2021-10-23T10:20:50.000Z</time>
      </trkpt>
      <trkpt lat="47.90246" lon="6.91761">
        <ele>1179.3</ele>
        <time>2021-10-23T10:20:55.000Z</time>
      </trkpt>
      <trkpt lat="47.90236" lon="6.91734">
        <ele>1187</ele>
        <time>2021-10-23T10:21:00.000Z</time>
      </trkpt>
      <trkpt lat="47.90229" lon="6.91714">
        <ele>1192.7</ele>
        <time>2021-10-23T10:21:05.000Z</time>
      </trkpt>
      <trkpt lat="47.90223" lon="6.917">
        <ele>1196.4</ele>
        <time>2021-10-23T10:21:11.000Z</time>
      </trkpt>
      <trkpt lat="47.90217" lon="6.91683">
        <ele>1197.8</ele>
        <time>2021-10-23T10:21:21.000Z</time>
      </trkpt>
      <trkpt lat="47.90222" lon="6.91695">
        <ele>1198</ele>
        <time>2021-10-23T10:26:55.000Z</time>
      </trkpt>
      <trkpt lat="47.9023" lon="6.91703">
        <ele>1194.5</ele>
        <time>2021-10-23T10:27:08.000Z</time>
      </trkpt>
      <trkpt lat="47.90239" lon="6.9171">
        <ele>1192.3</ele>
        <time>2021-10-23T10:27:18.000Z</time>
      </trkpt>
      <trkpt lat="47.90247" lon="6.91718">
        <ele>1191.1</ele>
        <time>2021-10-23T10:27:28.000Z</time>
      </trkpt>
      <trkpt lat="47.90255" lon="6.91726">
        <ele>1189.6</ele>
        <time>2021-10-23T10:27:39.000Z</time>
      </trkpt>
      <trkpt lat="47.90264" lon="6.91733">
        <ele>1187.7</ele>
        <time>2021-10-23T10:27:47.000Z</time>
      </trkpt>
      <trkpt lat="47.90272" lon="6.91739">
        <ele>1186.9</ele>
        <time>2021-10-23T10:27:54.000Z</time>
      </trkpt>
      <trkpt lat="47.9028" lon="6.91747">
        <ele>1186.6</ele>
        <time>2021-10-23T10:28:02.000Z</time>
      </trkpt>
      <trkpt lat="47.90287" lon="6.91754">
        <ele>1185.2</ele>
        <time>2021-10-23T10:28:10.000Z</time>
      </trkpt>
      <trkpt lat="47.90296" lon="6.9176">
        <ele>1183.8</ele>
        <time>2021-10-23T10:28:19.000Z</time>
      </trkpt>
      <trkpt lat="47.90304" lon="6.91768">
        <ele>1183</ele>
        <time>2021-10-23T10:28:28.000Z</time>
      </trkpt>
      <trkpt lat="47.90309" lon="6.9178">
        <ele>1182.2</ele>
        <time>2021-10-23T10:28:37.000Z</time>
      </trkpt>
      <trkpt lat="47.90315" lon="6.91791">
        <ele>1179.4</ele>
        <time>2021-10-23T10:28:46.000Z</time>
      </trkpt>
      <trkpt lat="47.9032" lon="6.91803">
        <ele>1177.4</ele>
        <time>2021-10-23T10:28:54.000Z</time>
      </trkpt>
      <trkpt lat="47.90325" lon="6.91815">
        <ele>1175.9</ele>
        <time>2021-10-23T10:29:03.000Z</time>
      </trkpt>
      <trkpt lat="47.90329" lon="6.91828">
        <ele>1175.3</ele>
        <time>2021-10-23T10:29:15.000Z</time>
      </trkpt>
      <trkpt lat="47.90334" lon="6.91839">
        <ele>1174.8</ele>
        <time>2021-10-23T10:29:23.000Z</time>
      </trkpt>
      <trkpt lat="47.9034" lon="6.9185">
        <ele>1172.3</ele>
        <time>2021-10-23T10:29:30.000Z</time>
      </trkpt>
      <trkpt lat="47.90346" lon="6.91863">
        <ele>1170.5</ele>
        <time>2021-10-23T10:29:38.000Z</time>
      </trkpt>
      <trkpt lat="47.9035" lon="6.91875">
        <ele>1169.9</ele>
        <time>2021-10-23T10:29:45.000Z</time>
      </trkpt>
      <trkpt lat="47.90355" lon="6.91888">
        <ele>1170.2</ele>
        <time>2021-10-23T10:29:53.000Z</time>
      </trkpt>
      <trkpt lat="47.90361" lon="6.91899">
        <ele>1170.6</ele>
        <time>2021-10-23T10:30:00.000Z</time>
      </trkpt>
      <trkpt lat="47.90366" lon="6.91911">
        <ele>1169.2</ele>
        <time>2021-10-23T10:30:07.000Z</time>
      </trkpt>
      <trkpt lat="47.90371" lon="6.91923">
        <ele>1167.5</ele>
        <time>2021-10-23T10:30:16.000Z</time>
      </trkpt>
      <trkpt lat="47.90374" lon="6.91938">
        <ele>1165.9</ele>
        <time>2021-10-23T10:30:31.000Z</time>
      </trkpt>
      <trkpt lat="47.90378" lon="6.9195">
        <ele>1165.1</ele>
        <time>2021-10-23T10:30:36.000Z</time>
      </trkpt>
      <trkpt lat="47.90382" lon="6.91965">
        <ele>1164.7</ele>
        <time>2021-10-23T10:30:44.000Z</time>
      </trkpt>
      <trkpt lat="47.9039" lon="6.91973">
        <ele>1166.5</ele>
        <time>2021-10-23T10:30:53.000Z</time>
      </trkpt>
      <trkpt lat="47.90397" lon="6.91983">
        <ele>1163.2</ele>
        <time>2021-10-23T10:31:01.000Z</time>
      </trkpt>
      <trkpt lat="47.90401" lon="6.91996">
        <ele>1161.4</ele>
        <time>2021-10-23T10:31:09.000Z</time>
      </trkpt>
      <trkpt lat="47.90407" lon="6.92008">
        <ele>1159.8</ele>
        <time>2021-10-23T10:31:20.000Z</time>
      </trkpt>
      <trkpt lat="47.90413" lon="6.9202">
        <ele>1159.5</ele>
        <time>2021-10-23T10:31:28.000Z</time>
      </trkpt>
      <trkpt lat="47.90417" lon="6.92032">
        <ele>1158.7</ele>
        <time>2021-10-23T10:31:37.000Z</time>
      </trkpt>
      <trkpt lat="47.9042" lon="6.92046">
        <ele>1154.6</ele>
        <time>2021-10-23T10:31:46.000Z</time>
      </trkpt>
      <trkpt lat="47.90426" lon="6.92058">
        <ele>1152</ele>
        <time>2021-10-23T10:31:54.000Z</time>
      </trkpt>
      <trkpt lat="47.90428" lon="6.92071">
        <ele>1148.8</ele>
        <time>2021-10-23T10:32:04.000Z</time>
      </trkpt>
      <trkpt lat="47.90434" lon="6.92082">
        <ele>1149.4</ele>
        <time>2021-10-23T10:32:14.000Z</time>
      </trkpt>
      <trkpt lat="47.90438" lon="6.92095">
        <ele>1151.7</ele>
        <time>2021-10-23T10:32:20.000Z</time>
      </trkpt>
      <trkpt lat="47.9044" lon="6.92108">
        <ele>1153.4</ele>
        <time>2021-10-23T10:32:28.000Z</time>
      </trkpt>
      <trkpt lat="47.90441" lon="6.92122">
        <ele>1154.9</ele>
        <time>2021-10-23T10:32:38.000Z</time>
      </trkpt>
      <trkpt lat="47.90444" lon="6.92135">
        <ele>1159.5</ele>
        <time>2021-10-23T10:32:50.000Z</time>
      </trkpt>
      <trkpt lat="47.90447" lon="6.92148">
        <ele>1160.3</ele>
        <time>2021-10-23T10:33:01.000Z</time>
      </trkpt>
      <trkpt lat="47.90443" lon="6.92161">
        <ele>1158.6</ele>
        <time>2021-10-23T10:33:21.000Z</time>
      </trkpt>
      <trkpt lat="47.90452" lon="6.92168">
        <ele>1159.1</ele>
        <time>2021-10-23T10:33:56.000Z</time>
      </trkpt>
      <trkpt lat="47.90459" lon="6.92176">
        <ele>1157.2</ele>
        <time>2021-10-23T10:34:15.000Z</time>
      </trkpt>
      <trkpt lat="47.90463" lon="6.9219">
        <ele>1155.5</ele>
        <time>2021-10-23T10:34:25.000Z</time>
      </trkpt>
      <trkpt lat="47.90469" lon="6.92201">
        <ele>1154.3</ele>
        <time>2021-10-23T10:34:35.000Z</time>
      </trkpt>
      <trkpt lat="47.90474" lon="6.92213">
        <ele>1151.4</ele>
        <time>2021-10-23T10:34:45.000Z</time>
      </trkpt>
      <trkpt lat="47.9048" lon="6.92225">
        <ele>1148.9</ele>
        <time>2021-10-23T10:34:53.000Z</time>
      </trkpt>
      <trkpt lat="47.90486" lon="6.92235">
        <ele>1147.9</ele>
        <time>2021-10-23T10:35:00.000Z</time>
      </trkpt>
      <trkpt lat="47.90492" lon="6.92247">
        <ele>1147.8</ele>
        <time>2021-10-23T10:35:09.000Z</time>
      </trkpt>
      <trkpt lat="47.90497" lon="6.92258">
        <ele>1146.9</ele>
        <time>2021-10-23T10:35:17.000Z</time>
      </trkpt>
      <trkpt lat="47.90505" lon="6.92266">
        <ele>1146.5</ele>
        <time>2021-10-23T10:35:24.000Z</time>
      </trkpt>
      <trkpt lat="47.90509" lon="6.92278">
        <ele>1144</ele>
        <time>2021-10-23T10:35:32.000Z</time>
      </trkpt>
      <trkpt lat="47.90515" lon="6.92289">
        <ele>1143.8</ele>
        <time>2021-10-23T10:35:40.000Z</time>
      </trkpt>
      <trkpt lat="47.90521" lon="6.92302">
        <ele>1144.8</ele>
        <time>2021-10-23T10:35:47.000Z</time>
      </trkpt>
      <trkpt lat="47.90526" lon="6.92313">
        <ele>1146.4</ele>
        <time>2021-10-23T10:35:55.000Z</time>
      </trkpt>
      <trkpt lat="47.90533" lon="6.92325">
        <ele>1144.5</ele>
        <time>2021-10-23T10:36:04.000Z</time>
      </trkpt>
      <trkpt lat="47.90537" lon="6.92337">
        <ele>1141.8</ele>
        <time>2021-10-23T10:36:11.000Z</time>
      </trkpt>
      <trkpt lat="47.90544" lon="6.92347">
        <ele>1139.9</ele>
        <time>2021-10-23T10:36:20.000Z</time>
      </trkpt>
      <trkpt lat="47.9055" lon="6.92358">
        <ele>1139.9</ele>
        <time>2021-10-23T10:36:28.000Z</time>
      </trkpt>
      <trkpt lat="47.90557" lon="6.92367">
        <ele>1142.4</ele>
        <time>2021-10-23T10:36:37.000Z</time>
      </trkpt>
      <trkpt lat="47.90562" lon="6.9238">
        <ele>1143.6</ele>
        <time>2021-10-23T10:36:48.000Z</time>
      </trkpt>
      <trkpt lat="47.90567" lon="6.92392">
        <ele>1145.6</ele>
        <time>2021-10-23T10:37:00.000Z</time>
      </trkpt>
      <trkpt lat="47.90567" lon="6.92406">
        <ele>1148.3</ele>
        <time>2021-10-23T10:37:12.000Z</time>
      </trkpt>
      <trkpt lat="47.90571" lon="6.9242">
        <ele>1151.1</ele>
        <time>2021-10-23T10:37:23.000Z</time>
      </trkpt>
      <trkpt lat="47.90572" lon="6.92433">
        <ele>1153.5</ele>
        <time>2021-10-23T10:37:35.000Z</time>
      </trkpt>
      <trkpt lat="47.90577" lon="6.92445">
        <ele>1156.2</ele>
        <time>2021-10-23T10:37:47.000Z</time>
      </trkpt>
      <trkpt lat="47.90576" lon="6.92459">
        <ele>1157.7</ele>
        <time>2021-10-23T10:37:58.000Z</time>
      </trkpt>
      <trkpt lat="47.90575" lon="6.92472">
        <ele>1159.2</ele>
        <time>2021-10-23T10:38:10.000Z</time>
      </trkpt>
      <trkpt lat="47.90576" lon="6.92486">
        <ele>1161.7</ele>
        <time>2021-10-23T10:38:24.000Z</time>
      </trkpt>
      <trkpt lat="47.90577" lon="6.925">
        <ele>1164.2</ele>
        <time>2021-10-23T10:38:35.000Z</time>
      </trkpt>
      <trkpt lat="47.90582" lon="6.92512">
        <ele>1168.1</ele>
        <time>2021-10-23T10:38:48.000Z</time>
      </trkpt>
      <trkpt lat="47.90588" lon="6.92523">
        <ele>1171.5</ele>
        <time>2021-10-23T10:39:05.000Z</time>
      </trkpt>
      <trkpt lat="47.90592" lon="6.92535">
        <ele>1174.6</ele>
        <time>2021-10-23T10:39:21.000Z</time>
      </trkpt>
      <trkpt lat="47.90595" lon="6.92547">
        <ele>1177.8</ele>
        <time>2021-10-23T10:39:32.000Z</time>
      </trkpt>
      <trkpt lat="47.90598" lon="6.92561">
        <ele>1181</ele>
        <time>2021-10-23T10:39:47.000Z</time>
      </trkpt>
      <trkpt lat="47.90603" lon="6.92573">
        <ele>1183.6</ele>
        <time>2021-10-23T10:40:01.000Z</time>
      </trkpt>
      <trkpt lat="47.90598" lon="6.92584">
        <ele>1184.5</ele>
        <time>2021-10-23T10:41:15.000Z</time>
      </trkpt>
      <trkpt lat="47.9059" lon="6.92589">
        <ele>1182.6</ele>
        <time>2021-10-23T10:41:23.000Z</time>
      </trkpt>
      <trkpt lat="47.90581" lon="6.92593">
        <ele>1180.5</ele>
        <time>2021-10-23T10:43:28.000Z</time>
      </trkpt>
      <trkpt lat="47.90563" lon="6.926">
        <ele>1175</ele>
        <time>2021-10-23T10:45:34.000Z</time>
      </trkpt>
      <trkpt lat="47.90575" lon="6.92592">
        <ele>1178.7</ele>
        <time>2021-10-23T10:46:04.000Z</time>
      </trkpt>
      <trkpt lat="47.90574" lon="6.92579">
        <ele>1178.2</ele>
        <time>2021-10-23T11:11:38.000Z</time>
      </trkpt>
      <trkpt lat="47.90575" lon="6.92593">
        <ele>1178.8</ele>
        <time>2021-10-23T11:11:45.000Z</time>
      </trkpt>
      <trkpt lat="47.90585" lon="6.92595">
        <ele>1181.1</ele>
        <time>2021-10-23T11:14:10.000Z</time>
      </trkpt>
      <trkpt lat="47.90594" lon="6.92589">
        <ele>1183.2</ele>
        <time>2021-10-23T11:14:19.000Z</time>
      </trkpt>
      <trkpt lat="47.90603" lon="6.92586">
        <ele>1184.7</ele>
        <time>2021-10-23T11:14:28.000Z</time>
      </trkpt>
      <trkpt lat="47.90613" lon="6.92588">
        <ele>1185.3</ele>
        <time>2021-10-23T11:14:37.000Z</time>
      </trkpt>
      <trkpt lat="47.90621" lon="6.92595">
        <ele>1184.3</ele>
        <time>2021-10-23T11:14:45.000Z</time>
      </trkpt>
      <trkpt lat="47.9063" lon="6.92598">
        <ele>1183.9</ele>
        <time>2021-10-23T11:14:52.000Z</time>
      </trkpt>
      <trkpt lat="47.90639" lon="6.92602">
        <ele>1183.6</ele>
        <time>2021-10-23T11:15:00.000Z</time>
      </trkpt>
      <trkpt lat="47.90648" lon="6.92609">
        <ele>1182.8</ele>
        <time>2021-10-23T11:15:08.000Z</time>
      </trkpt>
      <trkpt lat="47.90656" lon="6.92615">
        <ele>1181.6</ele>
        <time>2021-10-23T11:15:15.000Z</time>
      </trkpt>
      <trkpt lat="47.90665" lon="6.92622">
        <ele>1180</ele>
        <time>2021-10-23T11:15:22.000Z</time>
      </trkpt>
      <trkpt lat="47.90674" lon="6.9263">
        <ele>1178.8</ele>
        <time>2021-10-23T11:15:30.000Z</time>
      </trkpt>
      <trkpt lat="47.90683" lon="6.92637">
        <ele>1178.4</ele>
        <time>2021-10-23T11:15:37.000Z</time>
      </trkpt>
      <trkpt lat="47.90691" lon="6.92645">
        <ele>1177.9</ele>
        <time>2021-10-23T11:15:46.000Z</time>
      </trkpt>
      <trkpt lat="47.90698" lon="6.92656">
        <ele>1176.6</ele>
        <time>2021-10-23T11:15:53.000Z</time>
      </trkpt>
      <trkpt lat="47.90706" lon="6.92662">
        <ele>1175.9</ele>
        <time>2021-10-23T11:16:00.000Z</time>
      </trkpt>
      <trkpt lat="47.90716" lon="6.92664">
        <ele>1176</ele>
        <time>2021-10-23T11:16:08.000Z</time>
      </trkpt>
      <trkpt lat="47.90723" lon="6.92674">
        <ele>1174.9</ele>
        <time>2021-10-23T11:16:15.000Z</time>
      </trkpt>
      <trkpt lat="47.90729" lon="6.92686">
        <ele>1173.4</ele>
        <time>2021-10-23T11:16:24.000Z</time>
      </trkpt>
      <trkpt lat="47.90738" lon="6.92691">
        <ele>1173.4</ele>
        <time>2021-10-23T11:16:31.000Z</time>
      </trkpt>
      <trkpt lat="47.90748" lon="6.92694">
        <ele>1173.9</ele>
        <time>2021-10-23T11:16:39.000Z</time>
      </trkpt>
      <trkpt lat="47.90757" lon="6.92696">
        <ele>1174.1</ele>
        <time>2021-10-23T11:16:46.000Z</time>
      </trkpt>
      <trkpt lat="47.90766" lon="6.92696">
        <ele>1174.3</ele>
        <time>2021-10-23T11:16:52.000Z</time>
      </trkpt>
      <trkpt lat="47.90775" lon="6.92701">
        <ele>1174.2</ele>
        <time>2021-10-23T11:16:59.000Z</time>
      </trkpt>
      <trkpt lat="47.90784" lon="6.92701">
        <ele>1175.1</ele>
        <time>2021-10-23T11:17:06.000Z</time>
      </trkpt>
      <trkpt lat="47.90792" lon="6.92711">
        <ele>1175.4</ele>
        <time>2021-10-23T11:17:14.000Z</time>
      </trkpt>
      <trkpt lat="47.90802" lon="6.92716">
        <ele>1176.6</ele>
        <time>2021-10-23T11:17:22.000Z</time>
      </trkpt>
      <trkpt lat="47.9081" lon="6.9272">
        <ele>1178.1</ele>
        <time>2021-10-23T11:17:31.000Z</time>
      </trkpt>
      <trkpt lat="47.90819" lon="6.92725">
        <ele>1179.7</ele>
        <time>2021-10-23T11:17:42.000Z</time>
      </trkpt>
      <trkpt lat="47.90829" lon="6.92728">
        <ele>1181.6</ele>
        <time>2021-10-23T11:17:52.000Z</time>
      </trkpt>
      <trkpt lat="47.90838" lon="6.92729">
        <ele>1183.6</ele>
        <time>2021-10-23T11:18:00.000Z</time>
      </trkpt>
      <trkpt lat="47.90845" lon="6.92738">
        <ele>1184.8</ele>
        <time>2021-10-23T11:18:11.000Z</time>
      </trkpt>
      <trkpt lat="47.90854" lon="6.9274">
        <ele>1187.2</ele>
        <time>2021-10-23T11:18:21.000Z</time>
      </trkpt>
      <trkpt lat="47.90862" lon="6.92747">
        <ele>1189.3</ele>
        <time>2021-10-23T11:18:35.000Z</time>
      </trkpt>
      <trkpt lat="47.9087" lon="6.92754">
        <ele>1191.7</ele>
        <time>2021-10-23T11:18:44.000Z</time>
      </trkpt>
      <trkpt lat="47.90879" lon="6.92759">
        <ele>1194.6</ele>
        <time>2021-10-23T11:18:54.000Z</time>
      </trkpt>
      <trkpt lat="47.90887" lon="6.92765">
        <ele>1197.5</ele>
        <time>2021-10-23T11:19:06.000Z</time>
      </trkpt>
      <trkpt lat="47.90896" lon="6.92773">
        <ele>1199.2</ele>
        <time>2021-10-23T11:19:17.000Z</time>
      </trkpt>
      <trkpt lat="47.90901" lon="6.92784">
        <ele>1200.7</ele>
        <time>2021-10-23T11:19:27.000Z</time>
      </trkpt>
      <trkpt lat="47.90905" lon="6.92797">
        <ele>1201.9</ele>
        <time>2021-10-23T11:19:36.000Z</time>
      </trkpt>
      <trkpt lat="47.90909" lon="6.9281">
        <ele>1203.2</ele>
        <time>2021-10-23T11:19:46.000Z</time>
      </trkpt>
      <trkpt lat="47.90914" lon="6.92822">
        <ele>1203.7</ele>
        <time>2021-10-23T11:19:54.000Z</time>
      </trkpt>
      <trkpt lat="47.9092" lon="6.92833">
        <ele>1205.1</ele>
        <time>2021-10-23T11:20:03.000Z</time>
      </trkpt>
      <trkpt lat="47.90925" lon="6.92845">
        <ele>1204.8</ele>
        <time>2021-10-23T11:20:23.000Z</time>
      </trkpt>
      <trkpt lat="47.90934" lon="6.92844">
        <ele>1208.3</ele>
        <time>2021-10-23T11:21:10.000Z</time>
      </trkpt>
      <trkpt lat="47.90944" lon="6.92849">
        <ele>1211.6</ele>
        <time>2021-10-23T11:21:20.000Z</time>
      </trkpt>
      <trkpt lat="47.90953" lon="6.92852">
        <ele>1213.8</ele>
        <time>2021-10-23T11:21:27.000Z</time>
      </trkpt>
      <trkpt lat="47.90961" lon="6.92857">
        <ele>1216.3</ele>
        <time>2021-10-23T11:21:38.000Z</time>
      </trkpt>
      <trkpt lat="47.9097" lon="6.92861">
        <ele>1219.3</ele>
        <time>2021-10-23T11:21:47.000Z</time>
      </trkpt>
      <trkpt lat="47.90977" lon="6.92871">
        <ele>1219.8</ele>
        <time>2021-10-23T11:22:04.000Z</time>
      </trkpt>
      <trkpt lat="47.90986" lon="6.92875">
        <ele>1220.9</ele>
        <time>2021-10-23T11:22:10.000Z</time>
      </trkpt>
      <trkpt lat="47.90985" lon="6.92889">
        <ele>1220.8</ele>
        <time>2021-10-23T11:22:30.000Z</time>
      </trkpt>
      <trkpt lat="47.9099" lon="6.92877">
        <ele>1221.6</ele>
        <time>2021-10-23T11:22:45.000Z</time>
      </trkpt>
      <trkpt lat="47.90997" lon="6.92886">
        <ele>1223.3</ele>
        <time>2021-10-23T11:23:04.000Z</time>
      </trkpt>
      <trkpt lat="47.91006" lon="6.92891">
        <ele>1223.1</ele>
        <time>2021-10-23T11:23:11.000Z</time>
      </trkpt>
      <trkpt lat="47.91015" lon="6.92893">
        <ele>1222</ele>
        <time>2021-10-23T11:23:18.000Z</time>
      </trkpt>
      <trkpt lat="47.91024" lon="6.92888">
        <ele>1222.3</ele>
        <time>2021-10-23T11:23:26.000Z</time>
      </trkpt>
      <trkpt lat="47.91034" lon="6.92885">
        <ele>1221</ele>
        <time>2021-10-23T11:23:33.000Z</time>
      </trkpt>
      <trkpt lat="47.91043" lon="6.92885">
        <ele>1219.3</ele>
        <time>2021-10-23T11:23:43.000Z</time>
      </trkpt>
      <trkpt lat="47.91052" lon="6.92886">
        <ele>1217.7</ele>
        <time>2021-10-23T11:23:54.000Z</time>
      </trkpt>
      <trkpt lat="47.91061" lon="6.92884">
        <ele>1215.3</ele>
        <time>2021-10-23T11:24:04.000Z</time>
      </trkpt>
      <trkpt lat="47.9107" lon="6.92882">
        <ele>1212.6</ele>
        <time>2021-10-23T11:24:14.000Z</time>
      </trkpt>
      <trkpt lat="47.9108" lon="6.92877">
        <ele>1210.6</ele>
        <time>2021-10-23T11:24:24.000Z</time>
      </trkpt>
      <trkpt lat="47.91089" lon="6.92871">
        <ele>1208</ele>
        <time>2021-10-23T11:24:36.000Z</time>
      </trkpt>
      <trkpt lat="47.91099" lon="6.92878">
        <ele>1201</ele>
        <time>2021-10-23T11:24:43.000Z</time>
      </trkpt>
      <trkpt lat="47.91109" lon="6.92879">
        <ele>1195.7</ele>
        <time>2021-10-23T11:24:50.000Z</time>
      </trkpt>
      <trkpt lat="47.91116" lon="6.92871">
        <ele>1193.9</ele>
        <time>2021-10-23T11:25:02.000Z</time>
      </trkpt>
      <trkpt lat="47.91107" lon="6.92872">
        <ele>1198.6</ele>
        <time>2021-10-23T11:25:27.000Z</time>
      </trkpt>
      <trkpt lat="47.91098" lon="6.92872">
        <ele>1203.3</ele>
        <time>2021-10-23T11:25:35.000Z</time>
      </trkpt>
      <trkpt lat="47.91093" lon="6.9286">
        <ele>1208</ele>
        <time>2021-10-23T11:26:56.000Z</time>
      </trkpt>
      <trkpt lat="47.91098" lon="6.92847">
        <ele>1204.8</ele>
        <time>2021-10-23T11:27:05.000Z</time>
      </trkpt>
      <trkpt lat="47.91107" lon="6.92844">
        <ele>1200.8</ele>
        <time>2021-10-23T11:27:23.000Z</time>
      </trkpt>
      <trkpt lat="47.9111" lon="6.92831">
        <ele>1199.4</ele>
        <time>2021-10-23T11:27:31.000Z</time>
      </trkpt>
      <trkpt lat="47.91118" lon="6.92826">
        <ele>1196.5</ele>
        <time>2021-10-23T11:27:42.000Z</time>
      </trkpt>
      <trkpt lat="47.91127" lon="6.9282">
        <ele>1193.9</ele>
        <time>2021-10-23T11:27:54.000Z</time>
      </trkpt>
      <trkpt lat="47.91135" lon="6.92812">
        <ele>1192.3</ele>
        <time>2021-10-23T11:28:03.000Z</time>
      </trkpt>
      <trkpt lat="47.91144" lon="6.92804">
        <ele>1190.8</ele>
        <time>2021-10-23T11:28:14.000Z</time>
      </trkpt>
      <trkpt lat="47.91152" lon="6.92798">
        <ele>1188.6</ele>
        <time>2021-10-23T11:28:25.000Z</time>
      </trkpt>
      <trkpt lat="47.9116" lon="6.92789">
        <ele>1186.9</ele>
        <time>2021-10-23T11:28:33.000Z</time>
      </trkpt>
      <trkpt lat="47.91167" lon="6.92781">
        <ele>1185.7</ele>
        <time>2021-10-23T11:28:41.000Z</time>
      </trkpt>
      <trkpt lat="47.91176" lon="6.92776">
        <ele>1184</ele>
        <time>2021-10-23T11:28:50.000Z</time>
      </trkpt>
      <trkpt lat="47.91184" lon="6.92769">
        <ele>1182.2</ele>
        <time>2021-10-23T11:29:00.000Z</time>
      </trkpt>
      <trkpt lat="47.91193" lon="6.92763">
        <ele>1180.8</ele>
        <time>2021-10-23T11:29:07.000Z</time>
      </trkpt>
      <trkpt lat="47.91201" lon="6.92756">
        <ele>1178.8</ele>
        <time>2021-10-23T11:29:13.000Z</time>
      </trkpt>
      <trkpt lat="47.9121" lon="6.92748">
        <ele>1177.1</ele>
        <time>2021-10-23T11:29:22.000Z</time>
      </trkpt>
      <trkpt lat="47.91219" lon="6.92744">
        <ele>1175</ele>
        <time>2021-10-23T11:29:30.000Z</time>
      </trkpt>
      <trkpt lat="47.91228" lon="6.92739">
        <ele>1172.9</ele>
        <time>2021-10-23T11:29:39.000Z</time>
      </trkpt>
      <trkpt lat="47.91237" lon="6.92741">
        <ele>1170.4</ele>
        <time>2021-10-23T11:29:48.000Z</time>
      </trkpt>
      <trkpt lat="47.91246" lon="6.92741">
        <ele>1167.9</ele>
        <time>2021-10-23T11:29:58.000Z</time>
      </trkpt>
      <trkpt lat="47.91254" lon="6.92733">
        <ele>1166.4</ele>
        <time>2021-10-23T11:30:08.000Z</time>
      </trkpt>
      <trkpt lat="47.91261" lon="6.92723">
        <ele>1165.4</ele>
        <time>2021-10-23T11:30:15.000Z</time>
      </trkpt>
      <trkpt lat="47.9127" lon="6.92729">
        <ele>1161.1</ele>
        <time>2021-10-23T11:30:27.000Z</time>
      </trkpt>
      <trkpt lat="47.91279" lon="6.92731">
        <ele>1157.2</ele>
        <time>2021-10-23T11:30:46.000Z</time>
      </trkpt>
      <trkpt lat="47.91284" lon="6.92719">
        <ele>1157.3</ele>
        <time>2021-10-23T11:30:55.000Z</time>
      </trkpt>
      <trkpt lat="47.91293" lon="6.92721">
        <ele>1153.8</ele>
        <time>2021-10-23T11:31:08.000Z</time>
      </trkpt>
      <trkpt lat="47.91303" lon="6.92715">
        <ele>1150.1</ele>
        <time>2021-10-23T11:31:23.000Z</time>
      </trkpt>
      <trkpt lat="47.91311" lon="6.92723">
        <ele>1146.3</ele>
        <time>2021-10-23T11:31:51.000Z</time>
      </trkpt>
      <trkpt lat="47.91319" lon="6.92717">
        <ele>1143.1</ele>
        <time>2021-10-23T11:31:59.000Z</time>
      </trkpt>
      <trkpt lat="47.91327" lon="6.92711">
        <ele>1139.7</ele>
        <time>2021-10-23T11:32:07.000Z</time>
      </trkpt>
      <trkpt lat="47.91336" lon="6.92706">
        <ele>1136.6</ele>
        <time>2021-10-23T11:32:16.000Z</time>
      </trkpt>
      <trkpt lat="47.91345" lon="6.92709">
        <ele>1132.2</ele>
        <time>2021-10-23T11:32:50.000Z</time>
      </trkpt>
      <trkpt lat="47.91352" lon="6.92718">
        <ele>1127.7</ele>
        <time>2021-10-23T11:33:02.000Z</time>
      </trkpt>
      <trkpt lat="47.91362" lon="6.92714">
        <ele>1124</ele>
        <time>2021-10-23T11:33:13.000Z</time>
      </trkpt>
      <trkpt lat="47.91371" lon="6.92711">
        <ele>1122.3</ele>
        <time>2021-10-23T11:33:20.000Z</time>
      </trkpt>
      <trkpt lat="47.91381" lon="6.92712">
        <ele>1119.7</ele>
        <time>2021-10-23T11:33:35.000Z</time>
      </trkpt>
      <trkpt lat="47.91389" lon="6.92707">
        <ele>1118</ele>
        <time>2021-10-23T11:33:42.000Z</time>
      </trkpt>
      <trkpt lat="47.91396" lon="6.92698">
        <ele>1117.8</ele>
        <time>2021-10-23T11:33:52.000Z</time>
      </trkpt>
      <trkpt lat="47.91403" lon="6.92711">
        <ele>1116</ele>
        <time>2021-10-23T11:35:43.000Z</time>
      </trkpt>
      <trkpt lat="47.91412" lon="6.92715">
        <ele>1114.8</ele>
        <time>2021-10-23T11:35:55.000Z</time>
      </trkpt>
      <trkpt lat="47.91423" lon="6.92716">
        <ele>1113.4</ele>
        <time>2021-10-23T11:36:04.000Z</time>
      </trkpt>
      <trkpt lat="47.91433" lon="6.9272">
        <ele>1111.8</ele>
        <time>2021-10-23T11:36:12.000Z</time>
      </trkpt>
      <trkpt lat="47.91443" lon="6.92723">
        <ele>1110.2</ele>
        <time>2021-10-23T11:36:19.000Z</time>
      </trkpt>
      <trkpt lat="47.91453" lon="6.92723">
        <ele>1109.4</ele>
        <time>2021-10-23T11:36:26.000Z</time>
      </trkpt>
      <trkpt lat="47.91462" lon="6.92721">
        <ele>1108.8</ele>
        <time>2021-10-23T11:36:33.000Z</time>
      </trkpt>
      <trkpt lat="47.91471" lon="6.92721">
        <ele>1108.1</ele>
        <time>2021-10-23T11:36:40.000Z</time>
      </trkpt>
      <trkpt lat="47.9148" lon="6.92725">
        <ele>1107.1</ele>
        <time>2021-10-23T11:36:49.000Z</time>
      </trkpt>
      <trkpt lat="47.9149" lon="6.92727">
        <ele>1106.1</ele>
        <time>2021-10-23T11:36:55.000Z</time>
      </trkpt>
      <trkpt lat="47.915" lon="6.92728">
        <ele>1105.2</ele>
        <time>2021-10-23T11:37:02.000Z</time>
      </trkpt>
      <trkpt lat="47.9151" lon="6.9273">
        <ele>1104.2</ele>
        <time>2021-10-23T11:37:11.000Z</time>
      </trkpt>
      <trkpt lat="47.91519" lon="6.92724">
        <ele>1104.4</ele>
        <time>2021-10-23T11:37:23.000Z</time>
      </trkpt>
      <trkpt lat="47.91528" lon="6.92727">
        <ele>1103.3</ele>
        <time>2021-10-23T11:37:31.000Z</time>
      </trkpt>
      <trkpt lat="47.91538" lon="6.92729">
        <ele>1101</ele>
        <time>2021-10-23T11:37:38.000Z</time>
      </trkpt>
      <trkpt lat="47.91547" lon="6.92728">
        <ele>1099.2</ele>
        <time>2021-10-23T11:37:47.000Z</time>
      </trkpt>
      <trkpt lat="47.91557" lon="6.92727">
        <ele>1097.1</ele>
        <time>2021-10-23T11:37:57.000Z</time>
      </trkpt>
      <trkpt lat="47.91567" lon="6.92725">
        <ele>1094.3</ele>
        <time>2021-10-23T11:38:06.000Z</time>
      </trkpt>
      <trkpt lat="47.91577" lon="6.92724">
        <ele>1091.5</ele>
        <time>2021-10-23T11:38:13.000Z</time>
      </trkpt>
      <trkpt lat="47.91587" lon="6.92721">
        <ele>1089.1</ele>
        <time>2021-10-23T11:38:24.000Z</time>
      </trkpt>
      <trkpt lat="47.91596" lon="6.92718">
        <ele>1086.4</ele>
        <time>2021-10-23T11:38:33.000Z</time>
      </trkpt>
      <trkpt lat="47.91605" lon="6.92708">
        <ele>1084.1</ele>
        <time>2021-10-23T11:38:40.000Z</time>
      </trkpt>
      <trkpt lat="47.91611" lon="6.92698">
        <ele>1082.9</ele>
        <time>2021-10-23T11:38:46.000Z</time>
      </trkpt>
      <trkpt lat="47.91621" lon="6.92695">
        <ele>1080.9</ele>
        <time>2021-10-23T11:38:56.000Z</time>
      </trkpt>
      <trkpt lat="47.9163" lon="6.92696">
        <ele>1078.7</ele>
        <time>2021-10-23T11:39:05.000Z</time>
      </trkpt>
      <trkpt lat="47.91639" lon="6.9269">
        <ele>1076.8</ele>
        <time>2021-10-23T11:39:13.000Z</time>
      </trkpt>
      <trkpt lat="47.91648" lon="6.92684">
        <ele>1074.5</ele>
        <time>2021-10-23T11:39:19.000Z</time>
      </trkpt>
      <trkpt lat="47.91658" lon="6.9268">
        <ele>1072.4</ele>
        <time>2021-10-23T11:39:40.000Z</time>
      </trkpt>
      <trkpt lat="47.91668" lon="6.92682">
        <ele>1070.3</ele>
        <time>2021-10-23T11:39:51.000Z</time>
      </trkpt>
      <trkpt lat="47.91678" lon="6.92678">
        <ele>1069</ele>
        <time>2021-10-23T11:39:58.000Z</time>
      </trkpt>
      <trkpt lat="47.91687" lon="6.92678">
        <ele>1067.7</ele>
        <time>2021-10-23T11:40:06.000Z</time>
      </trkpt>
      <trkpt lat="47.91696" lon="6.92676">
        <ele>1066.4</ele>
        <time>2021-10-23T11:40:13.000Z</time>
      </trkpt>
      <trkpt lat="47.91704" lon="6.92667">
        <ele>1064.9</ele>
        <time>2021-10-23T11:40:22.000Z</time>
      </trkpt>
      <trkpt lat="47.91713" lon="6.9266">
        <ele>1062.5</ele>
        <time>2021-10-23T11:40:30.000Z</time>
      </trkpt>
      <trkpt lat="47.91723" lon="6.92654">
        <ele>1060.5</ele>
        <time>2021-10-23T11:40:37.000Z</time>
      </trkpt>
      <trkpt lat="47.91731" lon="6.92646">
        <ele>1058.9</ele>
        <time>2021-10-23T11:40:43.000Z</time>
      </trkpt>
      <trkpt lat="47.91737" lon="6.92635">
        <ele>1057.5</ele>
        <time>2021-10-23T11:40:51.000Z</time>
      </trkpt>
      <trkpt lat="47.91747" lon="6.92631">
        <ele>1056.3</ele>
        <time>2021-10-23T11:40:59.000Z</time>
      </trkpt>
      <trkpt lat="47.91754" lon="6.92623">
        <ele>1054.9</ele>
        <time>2021-10-23T11:41:08.000Z</time>
      </trkpt>
      <trkpt lat="47.91762" lon="6.92614">
        <ele>1052.7</ele>
        <time>2021-10-23T11:41:16.000Z</time>
      </trkpt>
      <trkpt lat="47.91768" lon="6.92602">
        <ele>1049.2</ele>
        <time>2021-10-23T11:41:24.000Z</time>
      </trkpt>
      <trkpt lat="47.91772" lon="6.9259">
        <ele>1046.2</ele>
        <time>2021-10-23T11:41:33.000Z</time>
      </trkpt>
      <trkpt lat="47.91769" lon="6.92577">
        <ele>1043.6</ele>
        <time>2021-10-23T11:41:45.000Z</time>
      </trkpt>
      <trkpt lat="47.91778" lon="6.92574">
        <ele>1041.1</ele>
        <time>2021-10-23T11:42:11.000Z</time>
      </trkpt>
      <trkpt lat="47.91783" lon="6.92562">
        <ele>1035.9</ele>
        <time>2021-10-23T11:42:22.000Z</time>
      </trkpt>
      <trkpt lat="47.9178" lon="6.92548">
        <ele>1032.7</ele>
        <time>2021-10-23T11:42:33.000Z</time>
      </trkpt>
      <trkpt lat="47.91775" lon="6.92537">
        <ele>1029.7</ele>
        <time>2021-10-23T11:42:47.000Z</time>
      </trkpt>
      <trkpt lat="47.91783" lon="6.92542">
        <ele>1029.1</ele>
        <time>2021-10-23T11:43:15.000Z</time>
      </trkpt>
      <trkpt lat="47.91792" lon="6.92547">
        <ele>1027.4</ele>
        <time>2021-10-23T11:43:23.000Z</time>
      </trkpt>
      <trkpt lat="47.91801" lon="6.9255">
        <ele>1024.8</ele>
        <time>2021-10-23T11:43:33.000Z</time>
      </trkpt>
      <trkpt lat="47.91813" lon="6.92535">
        <ele>1013.9</ele>
        <time>2021-10-23T11:44:11.000Z</time>
      </trkpt>
      <trkpt lat="47.91808" lon="6.92523">
        <ele>1013.2</ele>
        <time>2021-10-23T11:44:25.000Z</time>
      </trkpt>
      <trkpt lat="47.91805" lon="6.92509">
        <ele>1010.9</ele>
        <time>2021-10-23T11:45:32.000Z</time>
      </trkpt>
      <trkpt lat="47.918" lon="6.92497">
        <ele>1009.2</ele>
        <time>2021-10-23T11:45:39.000Z</time>
      </trkpt>
      <trkpt lat="47.918" lon="6.92483">
        <ele>1005.7</ele>
        <time>2021-10-23T11:45:49.000Z</time>
      </trkpt>
      <trkpt lat="47.91795" lon="6.9247">
        <ele>1003.8</ele>
        <time>2021-10-23T11:45:57.000Z</time>
      </trkpt>
      <trkpt lat="47.91792" lon="6.92458">
        <ele>1001.8</ele>
        <time>2021-10-23T11:46:07.000Z</time>
      </trkpt>
      <trkpt lat="47.91789" lon="6.92444">
        <ele>999.4</ele>
        <time>2021-10-23T11:46:15.000Z</time>
      </trkpt>
      <trkpt lat="47.91783" lon="6.92433">
        <ele>998.3</ele>
        <time>2021-10-23T11:46:23.000Z</time>
      </trkpt>
      <trkpt lat="47.91775" lon="6.92427">
        <ele>997.9</ele>
        <time>2021-10-23T11:46:33.000Z</time>
      </trkpt>
      <trkpt lat="47.91772" lon="6.92414">
        <ele>995.7</ele>
        <time>2021-10-23T11:46:40.000Z</time>
      </trkpt>
      <trkpt lat="47.9177" lon="6.924">
        <ele>994.2</ele>
        <time>2021-10-23T11:46:46.000Z</time>
      </trkpt>
      <trkpt lat="47.9177" lon="6.92385">
        <ele>992.7</ele>
        <time>2021-10-23T11:46:52.000Z</time>
      </trkpt>
      <trkpt lat="47.91764" lon="6.92373">
        <ele>991.6</ele>
        <time>2021-10-23T11:47:00.000Z</time>
      </trkpt>
      <trkpt lat="47.91757" lon="6.92364">
        <ele>991</ele>
        <time>2021-10-23T11:47:08.000Z</time>
      </trkpt>
      <trkpt lat="47.91752" lon="6.92353">
        <ele>990</ele>
        <time>2021-10-23T11:47:15.000Z</time>
      </trkpt>
      <trkpt lat="47.91744" lon="6.92345">
        <ele>988.6</ele>
        <time>2021-10-23T11:47:22.000Z</time>
      </trkpt>
      <trkpt lat="47.91734" lon="6.92343">
        <ele>987.1</ele>
        <time>2021-10-23T11:47:28.000Z</time>
      </trkpt>
      <trkpt lat="47.91725" lon="6.92343">
        <ele>986.1</ele>
        <time>2021-10-23T11:47:37.000Z</time>
      </trkpt>
      <trkpt lat="47.91724" lon="6.92357">
        <ele>987</ele>
        <time>2021-10-23T11:47:54.000Z</time>
      </trkpt>
      <trkpt lat="47.9173" lon="6.92369">
        <ele>989.5</ele>
        <time>2021-10-23T11:48:02.000Z</time>
      </trkpt>
      <trkpt lat="47.91727" lon="6.92356">
        <ele>987.2</ele>
        <time>2021-10-23T11:48:19.000Z</time>
      </trkpt>
      <trkpt lat="47.91719" lon="6.92348">
        <ele>985.6</ele>
        <time>2021-10-23T11:48:29.000Z</time>
      </trkpt>
      <trkpt lat="47.91709" lon="6.92346">
        <ele>984.4</ele>
        <time>2021-10-23T11:48:36.000Z</time>
      </trkpt>
      <trkpt lat="47.917" lon="6.92344">
        <ele>982.9</ele>
        <time>2021-10-23T11:48:43.000Z</time>
      </trkpt>
      <trkpt lat="47.91694" lon="6.92332">
        <ele>979.9</ele>
        <time>2021-10-23T11:48:53.000Z</time>
      </trkpt>
      <trkpt lat="47.91695" lon="6.92318">
        <ele>979</ele>
        <time>2021-10-23T11:49:04.000Z</time>
      </trkpt>
      <trkpt lat="47.91689" lon="6.92307">
        <ele>977.2</ele>
        <time>2021-10-23T11:49:13.000Z</time>
      </trkpt>
      <trkpt lat="47.91688" lon="6.92292">
        <ele>975.3</ele>
        <time>2021-10-23T11:49:21.000Z</time>
      </trkpt>
      <trkpt lat="47.91686" lon="6.92279">
        <ele>973.6</ele>
        <time>2021-10-23T11:49:28.000Z</time>
      </trkpt>
      <trkpt lat="47.91686" lon="6.92265">
        <ele>971.4</ele>
        <time>2021-10-23T11:49:38.000Z</time>
      </trkpt>
      <trkpt lat="47.91686" lon="6.92251">
        <ele>969.2</ele>
        <time>2021-10-23T11:49:50.000Z</time>
      </trkpt>
      <trkpt lat="47.91684" lon="6.92237">
        <ele>967.4</ele>
        <time>2021-10-23T11:49:59.000Z</time>
      </trkpt>
      <trkpt lat="47.91682" lon="6.92221">
        <ele>965.5</ele>
        <time>2021-10-23T11:50:06.000Z</time>
      </trkpt>
      <trkpt lat="47.91675" lon="6.92213">
        <ele>964.2</ele>
        <time>2021-10-23T11:50:13.000Z</time>
      </trkpt>
      <trkpt lat="47.91676" lon="6.92199">
        <ele>963.3</ele>
        <time>2021-10-23T11:50:19.000Z</time>
      </trkpt>
      <trkpt lat="47.91672" lon="6.92187">
        <ele>962.7</ele>
        <time>2021-10-23T11:50:24.000Z</time>
      </trkpt>
      <trkpt lat="47.9167" lon="6.92173">
        <ele>962.2</ele>
        <time>2021-10-23T11:50:41.000Z</time>
      </trkpt>
      <trkpt lat="47.91664" lon="6.92162">
        <ele>960.7</ele>
        <time>2021-10-23T11:50:48.000Z</time>
      </trkpt>
      <trkpt lat="47.91662" lon="6.92148">
        <ele>958.7</ele>
        <time>2021-10-23T11:50:57.000Z</time>
      </trkpt>
      <trkpt lat="47.91665" lon="6.92133">
        <ele>957.6</ele>
        <time>2021-10-23T11:51:03.000Z</time>
      </trkpt>
      <trkpt lat="47.91672" lon="6.92125">
        <ele>956.4</ele>
        <time>2021-10-23T11:51:10.000Z</time>
      </trkpt>
      <trkpt lat="47.91683" lon="6.92124">
        <ele>955.7</ele>
        <time>2021-10-23T11:51:19.000Z</time>
      </trkpt>
      <trkpt lat="47.91692" lon="6.92119">
        <ele>954.5</ele>
        <time>2021-10-23T11:51:27.000Z</time>
      </trkpt>
      <trkpt lat="47.91698" lon="6.92108">
        <ele>953</ele>
        <time>2021-10-23T11:51:33.000Z</time>
      </trkpt>
      <trkpt lat="47.91702" lon="6.92095">
        <ele>953</ele>
        <time>2021-10-23T11:51:39.000Z</time>
      </trkpt>
      <trkpt lat="47.91705" lon="6.92083">
        <ele>952.9</ele>
        <time>2021-10-23T11:51:48.000Z</time>
      </trkpt>
      <trkpt lat="47.91707" lon="6.92069">
        <ele>951.6</ele>
        <time>2021-10-23T11:51:56.000Z</time>
      </trkpt>
      <trkpt lat="47.91711" lon="6.92057">
        <ele>951</ele>
        <time>2021-10-23T11:52:03.000Z</time>
      </trkpt>
      <trkpt lat="47.91718" lon="6.92047">
        <ele>952.1</ele>
        <time>2021-10-23T11:52:26.000Z</time>
      </trkpt>
      <trkpt lat="47.91713" lon="6.92036">
        <ele>951.3</ele>
        <time>2021-10-23T11:52:32.000Z</time>
      </trkpt>
      <trkpt lat="47.91706" lon="6.92026">
        <ele>951.2</ele>
        <time>2021-10-23T11:52:38.000Z</time>
      </trkpt>
      <trkpt lat="47.91698" lon="6.92018">
        <ele>952.1</ele>
        <time>2021-10-23T11:52:47.000Z</time>
      </trkpt>
      <trkpt lat="47.9169" lon="6.92015">
        <ele>951.4</ele>
        <time>2021-10-23T11:52:53.000Z</time>
      </trkpt>
      <trkpt lat="47.91681" lon="6.92009">
        <ele>950.5</ele>
        <time>2021-10-23T11:53:01.000Z</time>
      </trkpt>
      <trkpt lat="47.91673" lon="6.92">
        <ele>950.5</ele>
        <time>2021-10-23T11:53:09.000Z</time>
      </trkpt>
      <trkpt lat="47.91666" lon="6.9199">
        <ele>950.3</ele>
        <time>2021-10-23T11:53:18.000Z</time>
      </trkpt>
      <trkpt lat="47.91659" lon="6.9198">
        <ele>950.1</ele>
        <time>2021-10-23T11:53:26.000Z</time>
      </trkpt>
      <trkpt lat="47.9165" lon="6.91976">
        <ele>948.8</ele>
        <time>2021-10-23T11:53:34.000Z</time>
      </trkpt>
      <trkpt lat="47.9164" lon="6.91973">
        <ele>947.2</ele>
        <time>2021-10-23T11:53:42.000Z</time>
      </trkpt>
      <trkpt lat="47.91631" lon="6.91968">
        <ele>946.8</ele>
        <time>2021-10-23T11:53:49.000Z</time>
      </trkpt>
      <trkpt lat="47.91623" lon="6.91963">
        <ele>946.8</ele>
        <time>2021-10-23T11:53:58.000Z</time>
      </trkpt>
      <trkpt lat="47.91614" lon="6.91958">
        <ele>946.4</ele>
        <time>2021-10-23T11:54:08.000Z</time>
      </trkpt>
      <trkpt lat="47.91605" lon="6.91954">
        <ele>944.7</ele>
        <time>2021-10-23T11:54:15.000Z</time>
      </trkpt>
      <trkpt lat="47.91596" lon="6.91948">
        <ele>943.4</ele>
        <time>2021-10-23T11:54:24.000Z</time>
      </trkpt>
      <trkpt lat="47.91591" lon="6.91937">
        <ele>944.7</ele>
        <time>2021-10-23T11:54:32.000Z</time>
      </trkpt>
      <trkpt lat="47.91584" lon="6.91926">
        <ele>945.9</ele>
        <time>2021-10-23T11:54:40.000Z</time>
      </trkpt>
      <trkpt lat="47.91579" lon="6.91915">
        <ele>946</ele>
        <time>2021-10-23T11:54:46.000Z</time>
      </trkpt>
      <trkpt lat="47.91572" lon="6.91906">
        <ele>944.7</ele>
        <time>2021-10-23T11:54:53.000Z</time>
      </trkpt>
      <trkpt lat="47.91565" lon="6.91897">
        <ele>943.7</ele>
        <time>2021-10-23T11:55:00.000Z</time>
      </trkpt>
      <trkpt lat="47.91559" lon="6.91886">
        <ele>944.4</ele>
        <time>2021-10-23T11:55:07.000Z</time>
      </trkpt>
      <trkpt lat="47.91555" lon="6.91872">
        <ele>945.2</ele>
        <time>2021-10-23T11:55:15.000Z</time>
      </trkpt>
      <trkpt lat="47.91551" lon="6.91858">
        <ele>945.6</ele>
        <time>2021-10-23T11:55:23.000Z</time>
      </trkpt>
      <trkpt lat="47.91546" lon="6.91847">
        <ele>946.1</ele>
        <time>2021-10-23T11:55:29.000Z</time>
      </trkpt>
      <trkpt lat="47.91538" lon="6.91838">
        <ele>944.3</ele>
        <time>2021-10-23T11:55:37.000Z</time>
      </trkpt>
      <trkpt lat="47.91531" lon="6.9183">
        <ele>942.4</ele>
        <time>2021-10-23T11:55:44.000Z</time>
      </trkpt>
      <trkpt lat="47.91523" lon="6.9182">
        <ele>941.6</ele>
        <time>2021-10-23T11:55:51.000Z</time>
      </trkpt>
      <trkpt lat="47.91516" lon="6.9181">
        <ele>941.8</ele>
        <time>2021-10-23T11:55:58.000Z</time>
      </trkpt>
      <trkpt lat="47.9151" lon="6.918">
        <ele>941.4</ele>
        <time>2021-10-23T11:56:04.000Z</time>
      </trkpt>
      <trkpt lat="47.91506" lon="6.91787">
        <ele>942.5</ele>
        <time>2021-10-23T11:56:10.000Z</time>
      </trkpt>
      <trkpt lat="47.91503" lon="6.91773">
        <ele>944.5</ele>
        <time>2021-10-23T11:56:17.000Z</time>
      </trkpt>
      <trkpt lat="47.91501" lon="6.91759">
        <ele>945.5</ele>
        <time>2021-10-23T11:56:26.000Z</time>
      </trkpt>
      <trkpt lat="47.91501" lon="6.91745">
        <ele>947.4</ele>
        <time>2021-10-23T11:56:35.000Z</time>
      </trkpt>
      <trkpt lat="47.91497" lon="6.91733">
        <ele>946.7</ele>
        <time>2021-10-23T11:56:42.000Z</time>
      </trkpt>
      <trkpt lat="47.91492" lon="6.9172">
        <ele>945.5</ele>
        <time>2021-10-23T11:56:50.000Z</time>
      </trkpt>
      <trkpt lat="47.91487" lon="6.91708">
        <ele>945.6</ele>
        <time>2021-10-23T11:56:57.000Z</time>
      </trkpt>
      <trkpt lat="47.91484" lon="6.91695">
        <ele>946.6</ele>
        <time>2021-10-23T11:57:04.000Z</time>
      </trkpt>
      <trkpt lat="47.91479" lon="6.91684">
        <ele>945.3</ele>
        <time>2021-10-23T11:57:11.000Z</time>
      </trkpt>
      <trkpt lat="47.91478" lon="6.9167">
        <ele>947.1</ele>
        <time>2021-10-23T11:57:18.000Z</time>
      </trkpt>
      <trkpt lat="47.91475" lon="6.91655">
        <ele>946.4</ele>
        <time>2021-10-23T11:57:26.000Z</time>
      </trkpt>
      <trkpt lat="47.91476" lon="6.91642">
        <ele>946.4</ele>
        <time>2021-10-23T11:57:33.000Z</time>
      </trkpt>
      <trkpt lat="47.91474" lon="6.91627">
        <ele>945.3</ele>
        <time>2021-10-23T11:57:49.000Z</time>
      </trkpt>
      <trkpt lat="47.91478" lon="6.91614">
        <ele>946.2</ele>
        <time>2021-10-23T11:57:57.000Z</time>
      </trkpt>
      <trkpt lat="47.91484" lon="6.91603">
        <ele>946.4</ele>
        <time>2021-10-23T11:58:07.000Z</time>
      </trkpt>
      <trkpt lat="47.91492" lon="6.91594">
        <ele>946.6</ele>
        <time>2021-10-23T11:58:18.000Z</time>
      </trkpt>
      <trkpt lat="47.91501" lon="6.9159">
        <ele>947.8</ele>
        <time>2021-10-23T11:58:30.000Z</time>
      </trkpt>
      <trkpt lat="47.91508" lon="6.9158">
        <ele>946.9</ele>
        <time>2021-10-23T11:58:37.000Z</time>
      </trkpt>
      <trkpt lat="47.91515" lon="6.91571">
        <ele>945.7</ele>
        <time>2021-10-23T11:58:47.000Z</time>
      </trkpt>
      <trkpt lat="47.91506" lon="6.91538">
        <ele>935.4</ele>
        <time>2021-10-23T11:58:52.000Z</time>
      </trkpt>
      <trkpt lat="47.91511" lon="6.91523">
        <ele>931.1</ele>
        <time>2021-10-23T11:58:57.000Z</time>
      </trkpt>
      <trkpt lat="47.91516" lon="6.91549">
        <ele>939.8</ele>
        <time>2021-10-23T11:59:02.000Z</time>
      </trkpt>
      <trkpt lat="47.91529" lon="6.91573">
        <ele>948.8</ele>
        <time>2021-10-23T11:59:07.000Z</time>
      </trkpt>
      <trkpt lat="47.91538" lon="6.91572">
        <ele>948.5</ele>
        <time>2021-10-23T11:59:16.000Z</time>
      </trkpt>
      <trkpt lat="47.91548" lon="6.9157">
        <ele>948.5</ele>
        <time>2021-10-23T11:59:26.000Z</time>
      </trkpt>
      <trkpt lat="47.91558" lon="6.9157">
        <ele>948.6</ele>
        <time>2021-10-23T11:59:34.000Z</time>
      </trkpt>
      <trkpt lat="47.91568" lon="6.91573">
        <ele>950.2</ele>
        <time>2021-10-23T11:59:43.000Z</time>
      </trkpt>
      <trkpt lat="47.91577" lon="6.91578">
        <ele>952.2</ele>
        <time>2021-10-23T11:59:49.000Z</time>
      </trkpt>
      <trkpt lat="47.91587" lon="6.91574">
        <ele>951.7</ele>
        <time>2021-10-23T11:59:57.000Z</time>
      </trkpt>
      <trkpt lat="47.91596" lon="6.91571">
        <ele>952.4</ele>
        <time>2021-10-23T12:00:06.000Z</time>
      </trkpt>
      <trkpt lat="47.916" lon="6.91558">
        <ele>950.1</ele>
        <time>2021-10-23T12:00:13.000Z</time>
      </trkpt>
      <trkpt lat="47.91596" lon="6.91545">
        <ele>947.3</ele>
        <time>2021-10-23T12:00:22.000Z</time>
      </trkpt>
      <trkpt lat="47.91598" lon="6.91531">
        <ele>946.9</ele>
        <time>2021-10-23T12:00:27.000Z</time>
      </trkpt>
      <trkpt lat="47.916" lon="6.91516">
        <ele>948.3</ele>
        <time>2021-10-23T12:00:32.000Z</time>
      </trkpt>
      <trkpt lat="47.91602" lon="6.91502">
        <ele>949.5</ele>
        <time>2021-10-23T12:00:38.000Z</time>
      </trkpt>
      <trkpt lat="47.91602" lon="6.91487">
        <ele>949.8</ele>
        <time>2021-10-23T12:00:47.000Z</time>
      </trkpt>
      <trkpt lat="47.91606" lon="6.91473">
        <ele>952</ele>
        <time>2021-10-23T12:00:56.000Z</time>
      </trkpt>
      <trkpt lat="47.91609" lon="6.9146">
        <ele>952.7</ele>
        <time>2021-10-23T12:01:02.000Z</time>
      </trkpt>
      <trkpt lat="47.91612" lon="6.91445">
        <ele>953.2</ele>
        <time>2021-10-23T12:01:10.000Z</time>
      </trkpt>
      <trkpt lat="47.91617" lon="6.91433">
        <ele>954.4</ele>
        <time>2021-10-23T12:01:19.000Z</time>
      </trkpt>
      <trkpt lat="47.91619" lon="6.91419">
        <ele>953.8</ele>
        <time>2021-10-23T12:01:27.000Z</time>
      </trkpt>
      <trkpt lat="47.91622" lon="6.91406">
        <ele>954.4</ele>
        <time>2021-10-23T12:01:35.000Z</time>
      </trkpt>
      <trkpt lat="47.9162" lon="6.91391">
        <ele>952.6</ele>
        <time>2021-10-23T12:01:42.000Z</time>
      </trkpt>
      <trkpt lat="47.91622" lon="6.91377">
        <ele>953.6</ele>
        <time>2021-10-23T12:01:49.000Z</time>
      </trkpt>
      <trkpt lat="47.91621" lon="6.91364">
        <ele>952.9</ele>
        <time>2021-10-23T12:01:54.000Z</time>
      </trkpt>
      <trkpt lat="47.91623" lon="6.91349">
        <ele>953.4</ele>
        <time>2021-10-23T12:02:01.000Z</time>
      </trkpt>
      <trkpt lat="47.9162" lon="6.91333">
        <ele>951.6</ele>
        <time>2021-10-23T12:02:08.000Z</time>
      </trkpt>
      <trkpt lat="47.91621" lon="6.91319">
        <ele>952.6</ele>
        <time>2021-10-23T12:02:16.000Z</time>
      </trkpt>
      <trkpt lat="47.91619" lon="6.91304">
        <ele>952.2</ele>
        <time>2021-10-23T12:02:24.000Z</time>
      </trkpt>
      <trkpt lat="47.91615" lon="6.91291">
        <ele>950.9</ele>
        <time>2021-10-23T12:02:31.000Z</time>
      </trkpt>
      <trkpt lat="47.91612" lon="6.91277">
        <ele>950.3</ele>
        <time>2021-10-23T12:02:38.000Z</time>
      </trkpt>
      <trkpt lat="47.91613" lon="6.91263">
        <ele>950.8</ele>
        <time>2021-10-23T12:02:46.000Z</time>
      </trkpt>
      <trkpt lat="47.91613" lon="6.91249">
        <ele>951.3</ele>
        <time>2021-10-23T12:02:53.000Z</time>
      </trkpt>
      <trkpt lat="47.91611" lon="6.91236">
        <ele>949.8</ele>
        <time>2021-10-23T12:02:59.000Z</time>
      </trkpt>
      <trkpt lat="47.91612" lon="6.91222">
        <ele>950.5</ele>
        <time>2021-10-23T12:03:07.000Z</time>
      </trkpt>
      <trkpt lat="47.91613" lon="6.91207">
        <ele>950.3</ele>
        <time>2021-10-23T12:03:16.000Z</time>
      </trkpt>
      <trkpt lat="47.91612" lon="6.91193">
        <ele>949.3</ele>
        <time>2021-10-23T12:03:22.000Z</time>
      </trkpt>
      <trkpt lat="47.91613" lon="6.91179">
        <ele>949.7</ele>
        <time>2021-10-23T12:03:28.000Z</time>
      </trkpt>
      <trkpt lat="47.91616" lon="6.91164">
        <ele>951</ele>
        <time>2021-10-23T12:03:36.000Z</time>
      </trkpt>
      <trkpt lat="47.91613" lon="6.91151">
        <ele>949.7</ele>
        <time>2021-10-23T12:03:41.000Z</time>
      </trkpt>
      <trkpt lat="47.9161" lon="6.91137">
        <ele>948.4</ele>
        <time>2021-10-23T12:03:47.000Z</time>
      </trkpt>
      <trkpt lat="47.91607" lon="6.91122">
        <ele>948.5</ele>
        <time>2021-10-23T12:03:54.000Z</time>
      </trkpt>
      <trkpt lat="47.91607" lon="6.91107">
        <ele>949.9</ele>
        <time>2021-10-23T12:04:02.000Z</time>
      </trkpt>
      <trkpt lat="47.91604" lon="6.91094">
        <ele>950.2</ele>
        <time>2021-10-23T12:04:09.000Z</time>
      </trkpt>
      <trkpt lat="47.91602" lon="6.91079">
        <ele>951</ele>
        <time>2021-10-23T12:04:17.000Z</time>
      </trkpt>
      <trkpt lat="47.91601" lon="6.91064">
        <ele>951.1</ele>
        <time>2021-10-23T12:04:24.000Z</time>
      </trkpt>
      <trkpt lat="47.91601" lon="6.91049">
        <ele>952.8</ele>
        <time>2021-10-23T12:04:32.000Z</time>
      </trkpt>
      <trkpt lat="47.916" lon="6.91036">
        <ele>952.6</ele>
        <time>2021-10-23T12:04:40.000Z</time>
      </trkpt>
      <trkpt lat="47.91599" lon="6.91022">
        <ele>952.8</ele>
        <time>2021-10-23T12:04:48.000Z</time>
      </trkpt>
      <trkpt lat="47.91601" lon="6.91009">
        <ele>953.4</ele>
        <time>2021-10-23T12:04:54.000Z</time>
      </trkpt>
      <trkpt lat="47.91606" lon="6.90999">
        <ele>954.6</ele>
        <time>2021-10-23T12:05:02.000Z</time>
      </trkpt>
      <trkpt lat="47.91613" lon="6.90989">
        <ele>955.7</ele>
        <time>2021-10-23T12:05:13.000Z</time>
      </trkpt>
      <trkpt lat="47.9162" lon="6.90979">
        <ele>957.9</ele>
        <time>2021-10-23T12:05:20.000Z</time>
      </trkpt>
      <trkpt lat="47.91628" lon="6.90971">
        <ele>960.5</ele>
        <time>2021-10-23T12:05:26.000Z</time>
      </trkpt>
      <trkpt lat="47.91633" lon="6.90958">
        <ele>960.7</ele>
        <time>2021-10-23T12:05:33.000Z</time>
      </trkpt>
      <trkpt lat="47.9164" lon="6.90948">
        <ele>961.2</ele>
        <time>2021-10-23T12:05:40.000Z</time>
      </trkpt>
      <trkpt lat="47.91644" lon="6.90935">
        <ele>960.3</ele>
        <time>2021-10-23T12:05:47.000Z</time>
      </trkpt>
      <trkpt lat="47.91646" lon="6.90921">
        <ele>958.3</ele>
        <time>2021-10-23T12:05:53.000Z</time>
      </trkpt>
      <trkpt lat="47.91649" lon="6.90907">
        <ele>958.3</ele>
        <time>2021-10-23T12:05:59.000Z</time>
      </trkpt>
      <trkpt lat="47.91653" lon="6.90895">
        <ele>958.9</ele>
        <time>2021-10-23T12:06:06.000Z</time>
      </trkpt>
      <trkpt lat="47.91654" lon="6.90881">
        <ele>958.8</ele>
        <time>2021-10-23T12:06:13.000Z</time>
      </trkpt>
      <trkpt lat="47.91656" lon="6.90867">
        <ele>959.3</ele>
        <time>2021-10-23T12:06:20.000Z</time>
      </trkpt>
      <trkpt lat="47.91657" lon="6.90852">
        <ele>959.1</ele>
        <time>2021-10-23T12:06:27.000Z</time>
      </trkpt>
      <trkpt lat="47.91656" lon="6.90838">
        <ele>958.2</ele>
        <time>2021-10-23T12:06:34.000Z</time>
      </trkpt>
      <trkpt lat="47.9165" lon="6.90826">
        <ele>956.5</ele>
        <time>2021-10-23T12:06:40.000Z</time>
      </trkpt>
      <trkpt lat="47.91641" lon="6.90815">
        <ele>954.2</ele>
        <time>2021-10-23T12:06:45.000Z</time>
      </trkpt>
      <trkpt lat="47.91635" lon="6.90805">
        <ele>952.3</ele>
        <time>2021-10-23T12:06:54.000Z</time>
      </trkpt>
      <trkpt lat="47.9163" lon="6.90793">
        <ele>951.7</ele>
        <time>2021-10-23T12:07:00.000Z</time>
      </trkpt>
      <trkpt lat="47.91628" lon="6.90777">
        <ele>952.8</ele>
        <time>2021-10-23T12:07:29.000Z</time>
      </trkpt>
      <trkpt lat="47.91625" lon="6.90763">
        <ele>954.1</ele>
        <time>2021-10-23T12:07:35.000Z</time>
      </trkpt>
      <trkpt lat="47.91621" lon="6.9075">
        <ele>954.7</ele>
        <time>2021-10-23T12:07:42.000Z</time>
      </trkpt>
      <trkpt lat="47.91617" lon="6.90738">
        <ele>954.8</ele>
        <time>2021-10-23T12:07:49.000Z</time>
      </trkpt>
      <trkpt lat="47.91613" lon="6.90725">
        <ele>955.3</ele>
        <time>2021-10-23T12:07:57.000Z</time>
      </trkpt>
      <trkpt lat="47.91608" lon="6.90713">
        <ele>955.1</ele>
        <time>2021-10-23T12:08:05.000Z</time>
      </trkpt>
      <trkpt lat="47.91595" lon="6.90706">
        <ele>949.9</ele>
        <time>2021-10-23T12:08:16.000Z</time>
      </trkpt>
      <trkpt lat="47.91577" lon="6.90686">
        <ele>946.1</ele>
        <time>2021-10-23T12:08:28.000Z</time>
      </trkpt>
      <trkpt lat="47.91577" lon="6.90672">
        <ele>949.8</ele>
        <time>2021-10-23T12:08:50.000Z</time>
      </trkpt>
      <trkpt lat="47.9157" lon="6.90662">
        <ele>949.8</ele>
        <time>2021-10-23T12:08:59.000Z</time>
      </trkpt>
      <trkpt lat="47.91564" lon="6.90652">
        <ele>950.1</ele>
        <time>2021-10-23T12:09:06.000Z</time>
      </trkpt>
      <trkpt lat="47.91561" lon="6.90637">
        <ele>952.6</ele>
        <time>2021-10-23T12:09:13.000Z</time>
      </trkpt>
      <trkpt lat="47.9156" lon="6.90623">
        <ele>954</ele>
        <time>2021-10-23T12:09:18.000Z</time>
      </trkpt>
      <trkpt lat="47.91558" lon="6.90609">
        <ele>954.6</ele>
        <time>2021-10-23T12:09:25.000Z</time>
      </trkpt>
      <trkpt lat="47.91551" lon="6.90598">
        <ele>954.2</ele>
        <time>2021-10-23T12:09:34.000Z</time>
      </trkpt>
      <trkpt lat="47.9154" lon="6.90595">
        <ele>949.6</ele>
        <time>2021-10-23T12:09:53.000Z</time>
      </trkpt>
      <trkpt lat="47.91536" lon="6.90583">
        <ele>950.8</ele>
        <time>2021-10-23T12:10:03.000Z</time>
      </trkpt>
      <trkpt lat="47.91532" lon="6.90569">
        <ele>952.7</ele>
        <time>2021-10-23T12:10:11.000Z</time>
      </trkpt>
      <trkpt lat="47.91526" lon="6.90559">
        <ele>952.6</ele>
        <time>2021-10-23T12:10:19.000Z</time>
      </trkpt>
      <trkpt lat="47.91522" lon="6.90546">
        <ele>954.4</ele>
        <time>2021-10-23T12:10:26.000Z</time>
      </trkpt>
      <trkpt lat="47.91515" lon="6.90536">
        <ele>954.2</ele>
        <time>2021-10-23T12:10:32.000Z</time>
      </trkpt>
      <trkpt lat="47.91509" lon="6.90525">
        <ele>954.4</ele>
        <time>2021-10-23T12:10:40.000Z</time>
      </trkpt>
      <trkpt lat="47.91506" lon="6.9051">
        <ele>956</ele>
        <time>2021-10-23T12:10:49.000Z</time>
      </trkpt>
      <trkpt lat="47.91502" lon="6.90498">
        <ele>956.6</ele>
        <time>2021-10-23T12:10:56.000Z</time>
      </trkpt>
      <trkpt lat="47.91498" lon="6.90485">
        <ele>957.4</ele>
        <time>2021-10-23T12:11:04.000Z</time>
      </trkpt>
      <trkpt lat="47.91493" lon="6.90472">
        <ele>957.1</ele>
        <time>2021-10-23T12:11:12.000Z</time>
      </trkpt>
      <trkpt lat="47.9149" lon="6.90458">
        <ele>958.7</ele>
        <time>2021-10-23T12:11:19.000Z</time>
      </trkpt>
      <trkpt lat="47.91484" lon="6.90448">
        <ele>957.5</ele>
        <time>2021-10-23T12:11:30.000Z</time>
      </trkpt>
      <trkpt lat="47.91479" lon="6.90436">
        <ele>956.9</ele>
        <time>2021-10-23T12:11:41.000Z</time>
      </trkpt>
      <trkpt lat="47.91475" lon="6.90423">
        <ele>956.7</ele>
        <time>2021-10-23T12:11:48.000Z</time>
      </trkpt>
      <trkpt lat="47.91472" lon="6.90409">
        <ele>957.2</ele>
        <time>2021-10-23T12:11:55.000Z</time>
      </trkpt>
      <trkpt lat="47.9147" lon="6.90395">
        <ele>958.3</ele>
        <time>2021-10-23T12:12:01.000Z</time>
      </trkpt>
      <trkpt lat="47.91468" lon="6.90381">
        <ele>959.8</ele>
        <time>2021-10-23T12:12:08.000Z</time>
      </trkpt>
      <trkpt lat="47.91465" lon="6.90368">
        <ele>959.7</ele>
        <time>2021-10-23T12:12:14.000Z</time>
      </trkpt>
      <trkpt lat="47.91464" lon="6.90355">
        <ele>961</ele>
        <time>2021-10-23T12:12:21.000Z</time>
      </trkpt>
      <trkpt lat="47.91463" lon="6.9034">
        <ele>961.8</ele>
        <time>2021-10-23T12:12:29.000Z</time>
      </trkpt>
      <trkpt lat="47.9146" lon="6.90326">
        <ele>961</ele>
        <time>2021-10-23T12:12:36.000Z</time>
      </trkpt>
      <trkpt lat="47.91461" lon="6.90313">
        <ele>961.4</ele>
        <time>2021-10-23T12:12:42.000Z</time>
      </trkpt>
      <trkpt lat="47.91458" lon="6.903">
        <ele>959.9</ele>
        <time>2021-10-23T12:12:50.000Z</time>
      </trkpt>
      <trkpt lat="47.91457" lon="6.90286">
        <ele>960.8</ele>
        <time>2021-10-23T12:12:57.000Z</time>
      </trkpt>
      <trkpt lat="47.91457" lon="6.90272">
        <ele>961.1</ele>
        <time>2021-10-23T12:13:06.000Z</time>
      </trkpt>
      <trkpt lat="47.91457" lon="6.90258">
        <ele>961.3</ele>
        <time>2021-10-23T12:13:13.000Z</time>
      </trkpt>
      <trkpt lat="47.91458" lon="6.90243">
        <ele>961.6</ele>
        <time>2021-10-23T12:13:21.000Z</time>
      </trkpt>
      <trkpt lat="47.91459" lon="6.90229">
        <ele>962.6</ele>
        <time>2021-10-23T12:13:28.000Z</time>
      </trkpt>
      <trkpt lat="47.91464" lon="6.90216">
        <ele>965.5</ele>
        <time>2021-10-23T12:13:35.000Z</time>
      </trkpt>
      <trkpt lat="47.91466" lon="6.90202">
        <ele>966.2</ele>
        <time>2021-10-23T12:13:40.000Z</time>
      </trkpt>
      <trkpt lat="47.91462" lon="6.90188">
        <ele>964.4</ele>
        <time>2021-10-23T12:13:46.000Z</time>
      </trkpt>
      <trkpt lat="47.91456" lon="6.90175">
        <ele>962.2</ele>
        <time>2021-10-23T12:13:53.000Z</time>
      </trkpt>
      <trkpt lat="47.91453" lon="6.90162">
        <ele>961.1</ele>
        <time>2021-10-23T12:14:00.000Z</time>
      </trkpt>
      <trkpt lat="47.9145" lon="6.90149">
        <ele>960.1</ele>
        <time>2021-10-23T12:14:07.000Z</time>
      </trkpt>
      <trkpt lat="47.91445" lon="6.90136">
        <ele>958.8</ele>
        <time>2021-10-23T12:14:14.000Z</time>
      </trkpt>
      <trkpt lat="47.91438" lon="6.90126">
        <ele>956.4</ele>
        <time>2021-10-23T12:14:21.000Z</time>
      </trkpt>
      <trkpt lat="47.91433" lon="6.90115">
        <ele>955.2</ele>
        <time>2021-10-23T12:14:27.000Z</time>
      </trkpt>
      <trkpt lat="47.9143" lon="6.90103">
        <ele>956.6</ele>
        <time>2021-10-23T12:14:34.000Z</time>
      </trkpt>
      <trkpt lat="47.91426" lon="6.9009">
        <ele>957.4</ele>
        <time>2021-10-23T12:14:42.000Z</time>
      </trkpt>
      <trkpt lat="47.91423" lon="6.90075">
        <ele>958.2</ele>
        <time>2021-10-23T12:14:50.000Z</time>
      </trkpt>
      <trkpt lat="47.9142" lon="6.90063">
        <ele>958.6</ele>
        <time>2021-10-23T12:14:56.000Z</time>
      </trkpt>
      <trkpt lat="47.91414" lon="6.9005">
        <ele>957.6</ele>
        <time>2021-10-23T12:15:04.000Z</time>
      </trkpt>
      <trkpt lat="47.9141" lon="6.90038">
        <ele>957</ele>
        <time>2021-10-23T12:15:10.000Z</time>
      </trkpt>
      <trkpt lat="47.91407" lon="6.90025">
        <ele>957.6</ele>
        <time>2021-10-23T12:15:17.000Z</time>
      </trkpt>
      <trkpt lat="47.91402" lon="6.90013">
        <ele>957.9</ele>
        <time>2021-10-23T12:15:25.000Z</time>
      </trkpt>
      <trkpt lat="47.91395" lon="6.90004">
        <ele>956.3</ele>
        <time>2021-10-23T12:15:31.000Z</time>
      </trkpt>
      <trkpt lat="47.91388" lon="6.89993">
        <ele>955.9</ele>
        <time>2021-10-23T12:15:38.000Z</time>
      </trkpt>
      <trkpt lat="47.91383" lon="6.89981">
        <ele>956.3</ele>
        <time>2021-10-23T12:15:44.000Z</time>
      </trkpt>
      <trkpt lat="47.91378" lon="6.89969">
        <ele>956.5</ele>
        <time>2021-10-23T12:15:50.000Z</time>
      </trkpt>
      <trkpt lat="47.91379" lon="6.89955">
        <ele>958.8</ele>
        <time>2021-10-23T12:15:58.000Z</time>
      </trkpt>
      <trkpt lat="47.91376" lon="6.89941">
        <ele>958.3</ele>
        <time>2021-10-23T12:16:06.000Z</time>
      </trkpt>
      <trkpt lat="47.91378" lon="6.89927">
        <ele>958.2</ele>
        <time>2021-10-23T12:16:16.000Z</time>
      </trkpt>
      <trkpt lat="47.91377" lon="6.89912">
        <ele>956.5</ele>
        <time>2021-10-23T12:16:23.000Z</time>
      </trkpt>
      <trkpt lat="47.91369" lon="6.899">
        <ele>951.6</ele>
        <time>2021-10-23T12:16:29.000Z</time>
      </trkpt>
      <trkpt lat="47.91373" lon="6.89887">
        <ele>952.7</ele>
        <time>2021-10-23T12:16:35.000Z</time>
      </trkpt>
      <trkpt lat="47.91381" lon="6.8988">
        <ele>956.2</ele>
        <time>2021-10-23T12:16:41.000Z</time>
      </trkpt>
      <trkpt lat="47.9139" lon="6.89871">
        <ele>959.3</ele>
        <time>2021-10-23T12:16:47.000Z</time>
      </trkpt>
      <trkpt lat="47.91397" lon="6.89863">
        <ele>961.2</ele>
        <time>2021-10-23T12:16:54.000Z</time>
      </trkpt>
      <trkpt lat="47.91405" lon="6.89855">
        <ele>961.8</ele>
        <time>2021-10-23T12:17:00.000Z</time>
      </trkpt>
      <trkpt lat="47.91412" lon="6.89846">
        <ele>960.9</ele>
        <time>2021-10-23T12:17:06.000Z</time>
      </trkpt>
      <trkpt lat="47.91415" lon="6.89829">
        <ele>956.9</ele>
        <time>2021-10-23T12:17:12.000Z</time>
      </trkpt>
      <trkpt lat="47.91421" lon="6.89817">
        <ele>957</ele>
        <time>2021-10-23T12:17:23.000Z</time>
      </trkpt>
      <trkpt lat="47.91429" lon="6.89808">
        <ele>958</ele>
        <time>2021-10-23T12:17:30.000Z</time>
      </trkpt>
      <trkpt lat="47.91434" lon="6.89796">
        <ele>956.7</ele>
        <time>2021-10-23T12:17:37.000Z</time>
      </trkpt>
      <trkpt lat="47.9144" lon="6.89785">
        <ele>956.1</ele>
        <time>2021-10-23T12:17:44.000Z</time>
      </trkpt>
      <trkpt lat="47.91446" lon="6.89773">
        <ele>956.4</ele>
        <time>2021-10-23T12:17:52.000Z</time>
      </trkpt>
      <trkpt lat="47.91454" lon="6.89765">
        <ele>959.8</ele>
        <time>2021-10-23T12:17:59.000Z</time>
      </trkpt>
      <trkpt lat="47.91459" lon="6.89753">
        <ele>961.1</ele>
        <time>2021-10-23T12:18:07.000Z</time>
      </trkpt>
      <trkpt lat="47.91463" lon="6.8974">
        <ele>960.8</ele>
        <time>2021-10-23T12:18:12.000Z</time>
      </trkpt>
      <trkpt lat="47.91466" lon="6.89727">
        <ele>960</ele>
        <time>2021-10-23T12:18:19.000Z</time>
      </trkpt>
      <trkpt lat="47.91469" lon="6.89713">
        <ele>959.2</ele>
        <time>2021-10-23T12:18:29.000Z</time>
      </trkpt>
      <trkpt lat="47.91472" lon="6.89699">
        <ele>958.4</ele>
        <time>2021-10-23T12:18:37.000Z</time>
      </trkpt>
      <trkpt lat="47.91476" lon="6.89685">
        <ele>958.4</ele>
        <time>2021-10-23T12:18:43.000Z</time>
      </trkpt>
      <trkpt lat="47.91477" lon="6.89671">
        <ele>957.1</ele>
        <time>2021-10-23T12:18:50.000Z</time>
      </trkpt>
      <trkpt lat="47.91478" lon="6.89656">
        <ele>955.5</ele>
        <time>2021-10-23T12:18:57.000Z</time>
      </trkpt>
      <trkpt lat="47.91477" lon="6.89641">
        <ele>953.6</ele>
        <time>2021-10-23T12:19:05.000Z</time>
      </trkpt>
      <trkpt lat="47.91482" lon="6.89629">
        <ele>952.8</ele>
        <time>2021-10-23T12:19:13.000Z</time>
      </trkpt>
      <trkpt lat="47.91489" lon="6.89619">
        <ele>952.8</ele>
        <time>2021-10-23T12:19:23.000Z</time>
      </trkpt>
      <trkpt lat="47.91495" lon="6.89608">
        <ele>952.5</ele>
        <time>2021-10-23T12:19:30.000Z</time>
      </trkpt>
      <trkpt lat="47.91504" lon="6.89601">
        <ele>953.7</ele>
        <time>2021-10-23T12:19:38.000Z</time>
      </trkpt>
      <trkpt lat="47.91513" lon="6.89597">
        <ele>955.1</ele>
        <time>2021-10-23T12:19:43.000Z</time>
      </trkpt>
      <trkpt lat="47.91518" lon="6.89586">
        <ele>954.4</ele>
        <time>2021-10-23T12:19:51.000Z</time>
      </trkpt>
      <trkpt lat="47.91522" lon="6.89572">
        <ele>952.4</ele>
        <time>2021-10-23T12:20:02.000Z</time>
      </trkpt>
      <trkpt lat="47.9153" lon="6.89564">
        <ele>952.6</ele>
        <time>2021-10-23T12:20:09.000Z</time>
      </trkpt>
      <trkpt lat="47.91535" lon="6.89551">
        <ele>951.7</ele>
        <time>2021-10-23T12:20:15.000Z</time>
      </trkpt>
      <trkpt lat="47.91542" lon="6.8954">
        <ele>952.3</ele>
        <time>2021-10-23T12:20:21.000Z</time>
      </trkpt>
      <trkpt lat="47.91546" lon="6.89528">
        <ele>951.7</ele>
        <time>2021-10-23T12:20:27.000Z</time>
      </trkpt>
      <trkpt lat="47.9155" lon="6.89516">
        <ele>951.9</ele>
        <time>2021-10-23T12:20:33.000Z</time>
      </trkpt>
      <trkpt lat="47.91551" lon="6.89502">
        <ele>950.7</ele>
        <time>2021-10-23T12:20:41.000Z</time>
      </trkpt>
      <trkpt lat="47.91551" lon="6.89488">
        <ele>949.3</ele>
        <time>2021-10-23T12:20:50.000Z</time>
      </trkpt>
      <trkpt lat="47.91553" lon="6.89473">
        <ele>948.2</ele>
        <time>2021-10-23T12:20:57.000Z</time>
      </trkpt>
      <trkpt lat="47.91552" lon="6.8946">
        <ele>946.8</ele>
        <time>2021-10-23T12:21:04.000Z</time>
      </trkpt>
      <trkpt lat="47.91552" lon="6.89446">
        <ele>945.8</ele>
        <time>2021-10-23T12:21:10.000Z</time>
      </trkpt>
      <trkpt lat="47.9155" lon="6.89431">
        <ele>944.7</ele>
        <time>2021-10-23T12:21:16.000Z</time>
      </trkpt>
      <trkpt lat="47.91548" lon="6.89418">
        <ele>943.5</ele>
        <time>2021-10-23T12:21:26.000Z</time>
      </trkpt>
      <trkpt lat="47.91543" lon="6.89404">
        <ele>941.8</ele>
        <time>2021-10-23T12:21:33.000Z</time>
      </trkpt>
      <trkpt lat="47.91539" lon="6.89393">
        <ele>940</ele>
        <time>2021-10-23T12:21:39.000Z</time>
      </trkpt>
      <trkpt lat="47.9154" lon="6.89378">
        <ele>940.5</ele>
        <time>2021-10-23T12:21:44.000Z</time>
      </trkpt>
      <trkpt lat="47.91544" lon="6.89366">
        <ele>942.2</ele>
        <time>2021-10-23T12:21:49.000Z</time>
      </trkpt>
      <trkpt lat="47.91549" lon="6.89355">
        <ele>944.1</ele>
        <time>2021-10-23T12:21:58.000Z</time>
      </trkpt>
      <trkpt lat="47.9155" lon="6.89341">
        <ele>943.3</ele>
        <time>2021-10-23T12:22:06.000Z</time>
      </trkpt>
      <trkpt lat="47.91548" lon="6.89327">
        <ele>942.9</ele>
        <time>2021-10-23T12:22:13.000Z</time>
      </trkpt>
      <trkpt lat="47.91545" lon="6.89314">
        <ele>942.7</ele>
        <time>2021-10-23T12:22:21.000Z</time>
      </trkpt>
      <trkpt lat="47.91541" lon="6.89301">
        <ele>942.4</ele>
        <time>2021-10-23T12:22:27.000Z</time>
      </trkpt>
      <trkpt lat="47.9154" lon="6.89288">
        <ele>943.3</ele>
        <time>2021-10-23T12:22:32.000Z</time>
      </trkpt>
      <trkpt lat="47.9154" lon="6.89274">
        <ele>944.9</ele>
        <time>2021-10-23T12:22:40.000Z</time>
      </trkpt>
      <trkpt lat="47.91542" lon="6.8926">
        <ele>946.7</ele>
        <time>2021-10-23T12:22:48.000Z</time>
      </trkpt>
      <trkpt lat="47.91544" lon="6.89246">
        <ele>947.5</ele>
        <time>2021-10-23T12:22:56.000Z</time>
      </trkpt>
      <trkpt lat="47.9155" lon="6.89235">
        <ele>949</ele>
        <time>2021-10-23T12:23:09.000Z</time>
      </trkpt>
      <trkpt lat="47.91554" lon="6.89223">
        <ele>949.6</ele>
        <time>2021-10-23T12:23:21.000Z</time>
      </trkpt>
      <trkpt lat="47.91561" lon="6.89214">
        <ele>951.4</ele>
        <time>2021-10-23T12:23:29.000Z</time>
      </trkpt>
      <trkpt lat="47.91566" lon="6.89202">
        <ele>953</ele>
        <time>2021-10-23T12:23:37.000Z</time>
      </trkpt>
      <trkpt lat="47.91568" lon="6.89188">
        <ele>954.1</ele>
        <time>2021-10-23T12:23:48.000Z</time>
      </trkpt>
      <trkpt lat="47.91569" lon="6.89172">
        <ele>955.1</ele>
        <time>2021-10-23T12:23:55.000Z</time>
      </trkpt>
      <trkpt lat="47.91572" lon="6.89159">
        <ele>956.7</ele>
        <time>2021-10-23T12:24:02.000Z</time>
      </trkpt>
      <trkpt lat="47.91573" lon="6.89145">
        <ele>957.6</ele>
        <time>2021-10-23T12:24:11.000Z</time>
      </trkpt>
      <trkpt lat="47.91575" lon="6.89132">
        <ele>957.8</ele>
        <time>2021-10-23T12:24:18.000Z</time>
      </trkpt>
      <trkpt lat="47.91582" lon="6.89121">
        <ele>957.9</ele>
        <time>2021-10-23T12:24:29.000Z</time>
      </trkpt>
      <trkpt lat="47.91584" lon="6.89108">
        <ele>957.1</ele>
        <time>2021-10-23T12:24:39.000Z</time>
      </trkpt>
      <trkpt lat="47.91586" lon="6.89095">
        <ele>957.6</ele>
        <time>2021-10-23T12:24:56.000Z</time>
      </trkpt>
      <trkpt lat="47.91591" lon="6.89083">
        <ele>957.7</ele>
        <time>2021-10-23T12:25:16.000Z</time>
      </trkpt>
    </trkseg>
  </trk>
</gpx>